<?xml version="1.0" encoding="UTF-8" standalone="no" ?>
<gpx xmlns="http://www.topografix.com/GPX/1/1" xmlns:xsi="http://www.w3.org/2001/XMLSchema-instance" xsi:schemaLocation="http://www.topografix.com/GPX/1/1 http://www.topografix.com/GPX/1/1/gpx.xsd" version="1.1" creator="VisuGPX - https://www.visugpx.com">
  <metadata>
    <name>LE POULDU</name>
  </metadata>
  <trk>
    <name><![CDATA[molan-sur-mer-vtt-56-site-vtt-ffc]]></name>
    <desc><![CDATA[molan-sur-mer-vtt-56-site-vtt-ffc]]></desc>
    <trkseg>
      <trkpt lat="47.81513" lon="-3.62786">
        <ele>55</ele>
        <time>2021-08-31T06:40:58Z</time>
      </trkpt>
      <trkpt lat="47.81498" lon="-3.62818">
        <ele>55</ele>
        <time>2021-08-31T06:40:59Z</time>
      </trkpt>
      <trkpt lat="47.8149" lon="-3.62838">
        <ele>55</ele>
        <time>2021-08-31T06:41:00Z</time>
      </trkpt>
      <trkpt lat="47.81478" lon="-3.62872">
        <ele>56</ele>
        <time>2021-08-31T06:41:01Z</time>
      </trkpt>
      <trkpt lat="47.81476" lon="-3.62877">
        <ele>56</ele>
        <time>2021-08-31T06:41:02Z</time>
      </trkpt>
      <trkpt lat="47.81469" lon="-3.62896">
        <ele>56</ele>
        <time>2021-08-31T06:41:03Z</time>
      </trkpt>
      <trkpt lat="47.81464" lon="-3.62889">
        <ele>56</ele>
        <time>2021-08-31T06:41:04Z</time>
      </trkpt>
      <trkpt lat="47.81458" lon="-3.62885">
        <ele>56</ele>
        <time>2021-08-31T06:41:05Z</time>
      </trkpt>
      <trkpt lat="47.81454" lon="-3.62885">
        <ele>56</ele>
        <time>2021-08-31T06:41:06Z</time>
      </trkpt>
      <trkpt lat="47.81451" lon="-3.62884">
        <ele>56</ele>
        <time>2021-08-31T06:41:07Z</time>
      </trkpt>
      <trkpt lat="47.81449" lon="-3.62882">
        <ele>56</ele>
        <time>2021-08-31T06:41:08Z</time>
      </trkpt>
      <trkpt lat="47.81447" lon="-3.62883">
        <ele>56</ele>
        <time>2021-08-31T06:41:09Z</time>
      </trkpt>
      <trkpt lat="47.81445" lon="-3.62884">
        <ele>56</ele>
        <time>2021-08-31T06:41:10Z</time>
      </trkpt>
      <trkpt lat="47.81443" lon="-3.62887">
        <ele>56</ele>
        <time>2021-08-31T06:41:11Z</time>
      </trkpt>
      <trkpt lat="47.81441" lon="-3.62892">
        <ele>56</ele>
        <time>2021-08-31T06:41:12Z</time>
      </trkpt>
      <trkpt lat="47.81433" lon="-3.62919">
        <ele>56</ele>
        <time>2021-08-31T06:41:13Z</time>
      </trkpt>
      <trkpt lat="47.81429" lon="-3.62929">
        <ele>56</ele>
        <time>2021-08-31T06:41:14Z</time>
      </trkpt>
      <trkpt lat="47.81429" lon="-3.62929">
        <ele>56</ele>
        <time>2021-08-31T06:41:15Z</time>
      </trkpt>
      <trkpt lat="47.81429" lon="-3.62929">
        <ele>56</ele>
        <time>2021-08-31T06:41:16Z</time>
      </trkpt>
      <trkpt lat="47.81428" lon="-3.62949">
        <ele>55</ele>
        <time>2021-08-31T06:41:17Z</time>
      </trkpt>
      <trkpt lat="47.81426" lon="-3.62972">
        <ele>55</ele>
        <time>2021-08-31T06:41:18Z</time>
      </trkpt>
      <trkpt lat="47.81425" lon="-3.63001">
        <ele>55</ele>
        <time>2021-08-31T06:41:19Z</time>
      </trkpt>
      <trkpt lat="47.81422" lon="-3.63025">
        <ele>53</ele>
        <time>2021-08-31T06:41:20Z</time>
      </trkpt>
      <trkpt lat="47.81417" lon="-3.63056">
        <ele>53</ele>
        <time>2021-08-31T06:41:21Z</time>
      </trkpt>
      <trkpt lat="47.81412" lon="-3.63084">
        <ele>53</ele>
        <time>2021-08-31T06:41:22Z</time>
      </trkpt>
      <trkpt lat="47.81409" lon="-3.63095">
        <ele>53</ele>
        <time>2021-08-31T06:41:23Z</time>
      </trkpt>
      <trkpt lat="47.81407" lon="-3.63107">
        <ele>55</ele>
        <time>2021-08-31T06:41:24Z</time>
      </trkpt>
      <trkpt lat="47.81406" lon="-3.63111">
        <ele>55</ele>
        <time>2021-08-31T06:41:25Z</time>
      </trkpt>
      <trkpt lat="47.81406" lon="-3.63118">
        <ele>55</ele>
        <time>2021-08-31T06:41:26Z</time>
      </trkpt>
      <trkpt lat="47.81407" lon="-3.6313">
        <ele>55</ele>
        <time>2021-08-31T06:41:27Z</time>
      </trkpt>
      <trkpt lat="47.81406" lon="-3.63143">
        <ele>55</ele>
        <time>2021-08-31T06:41:28Z</time>
      </trkpt>
      <trkpt lat="47.81406" lon="-3.63148">
        <ele>55</ele>
        <time>2021-08-31T06:41:29Z</time>
      </trkpt>
      <trkpt lat="47.81405" lon="-3.63154">
        <ele>55</ele>
        <time>2021-08-31T06:41:30Z</time>
      </trkpt>
      <trkpt lat="47.81402" lon="-3.63182">
        <ele>55</ele>
        <time>2021-08-31T06:41:31Z</time>
      </trkpt>
      <trkpt lat="47.81401" lon="-3.63185">
        <ele>55</ele>
        <time>2021-08-31T06:41:32Z</time>
      </trkpt>
      <trkpt lat="47.81396" lon="-3.63222">
        <ele>54</ele>
        <time>2021-08-31T06:41:33Z</time>
      </trkpt>
      <trkpt lat="47.81387" lon="-3.63287">
        <ele>53</ele>
        <time>2021-08-31T06:41:34Z</time>
      </trkpt>
      <trkpt lat="47.81366" lon="-3.63456">
        <ele>51</ele>
        <time>2021-08-31T06:41:35Z</time>
      </trkpt>
      <trkpt lat="47.81362" lon="-3.635">
        <ele>51</ele>
        <time>2021-08-31T06:41:36Z</time>
      </trkpt>
      <trkpt lat="47.81357" lon="-3.63535">
        <ele>49</ele>
        <time>2021-08-31T06:41:37Z</time>
      </trkpt>
      <trkpt lat="47.81349" lon="-3.63582">
        <ele>49</ele>
        <time>2021-08-31T06:41:38Z</time>
      </trkpt>
      <trkpt lat="47.81324" lon="-3.63688">
        <ele>50</ele>
        <time>2021-08-31T06:41:39Z</time>
      </trkpt>
      <trkpt lat="47.81321" lon="-3.637">
        <ele>50</ele>
        <time>2021-08-31T06:41:40Z</time>
      </trkpt>
      <trkpt lat="47.81321" lon="-3.63703">
        <ele>50</ele>
        <time>2021-08-31T06:41:41Z</time>
      </trkpt>
      <trkpt lat="47.81315" lon="-3.63725">
        <ele>50</ele>
        <time>2021-08-31T06:41:42Z</time>
      </trkpt>
      <trkpt lat="47.81274" lon="-3.63918">
        <ele>50</ele>
        <time>2021-08-31T06:41:43Z</time>
      </trkpt>
      <trkpt lat="47.81272" lon="-3.6393">
        <ele>50</ele>
        <time>2021-08-31T06:41:44Z</time>
      </trkpt>
      <trkpt lat="47.81269" lon="-3.63949">
        <ele>48</ele>
        <time>2021-08-31T06:41:45Z</time>
      </trkpt>
      <trkpt lat="47.81266" lon="-3.63976">
        <ele>48</ele>
        <time>2021-08-31T06:41:46Z</time>
      </trkpt>
      <trkpt lat="47.81266" lon="-3.63977">
        <ele>48</ele>
        <time>2021-08-31T06:41:47Z</time>
      </trkpt>
      <trkpt lat="47.81265" lon="-3.64013">
        <ele>48</ele>
        <time>2021-08-31T06:41:48Z</time>
      </trkpt>
      <trkpt lat="47.81267" lon="-3.64063">
        <ele>46</ele>
        <time>2021-08-31T06:41:49Z</time>
      </trkpt>
      <trkpt lat="47.81273" lon="-3.64114">
        <ele>45</ele>
        <time>2021-08-31T06:41:50Z</time>
      </trkpt>
      <trkpt lat="47.8128" lon="-3.64147">
        <ele>45</ele>
        <time>2021-08-31T06:41:51Z</time>
      </trkpt>
      <trkpt lat="47.81285" lon="-3.64168">
        <ele>45</ele>
        <time>2021-08-31T06:41:52Z</time>
      </trkpt>
      <trkpt lat="47.81287" lon="-3.64175">
        <ele>45</ele>
        <time>2021-08-31T06:41:53Z</time>
      </trkpt>
      <trkpt lat="47.81303" lon="-3.64219">
        <ele>45</ele>
        <time>2021-08-31T06:41:54Z</time>
      </trkpt>
      <trkpt lat="47.81308" lon="-3.64235">
        <ele>45</ele>
        <time>2021-08-31T06:41:55Z</time>
      </trkpt>
      <trkpt lat="47.81309" lon="-3.64236">
        <ele>45</ele>
        <time>2021-08-31T06:41:56Z</time>
      </trkpt>
      <trkpt lat="47.81327" lon="-3.64275">
        <ele>44</ele>
        <time>2021-08-31T06:41:57Z</time>
      </trkpt>
      <trkpt lat="47.81342" lon="-3.64309">
        <ele>41</ele>
        <time>2021-08-31T06:41:58Z</time>
      </trkpt>
      <trkpt lat="47.81352" lon="-3.6433">
        <ele>41</ele>
        <time>2021-08-31T06:41:59Z</time>
      </trkpt>
      <trkpt lat="47.81357" lon="-3.64341">
        <ele>41</ele>
        <time>2021-08-31T06:42:00Z</time>
      </trkpt>
      <trkpt lat="47.8136" lon="-3.64348">
        <ele>41</ele>
        <time>2021-08-31T06:42:01Z</time>
      </trkpt>
      <trkpt lat="47.81365" lon="-3.64357">
        <ele>40</ele>
        <time>2021-08-31T06:42:02Z</time>
      </trkpt>
      <trkpt lat="47.81375" lon="-3.64345">
        <ele>41</ele>
        <time>2021-08-31T06:42:03Z</time>
      </trkpt>
      <trkpt lat="47.81387" lon="-3.64331">
        <ele>41</ele>
        <time>2021-08-31T06:42:04Z</time>
      </trkpt>
      <trkpt lat="47.81411" lon="-3.64318">
        <ele>41</ele>
        <time>2021-08-31T06:42:05Z</time>
      </trkpt>
      <trkpt lat="47.81416" lon="-3.6433">
        <ele>41</ele>
        <time>2021-08-31T06:42:06Z</time>
      </trkpt>
      <trkpt lat="47.81429" lon="-3.64325">
        <ele>39</ele>
        <time>2021-08-31T06:42:07Z</time>
      </trkpt>
      <trkpt lat="47.8144" lon="-3.64321">
        <ele>39</ele>
        <time>2021-08-31T06:42:08Z</time>
      </trkpt>
      <trkpt lat="47.81459" lon="-3.64316">
        <ele>39</ele>
        <time>2021-08-31T06:42:09Z</time>
      </trkpt>
      <trkpt lat="47.81474" lon="-3.64314">
        <ele>39</ele>
        <time>2021-08-31T06:42:10Z</time>
      </trkpt>
      <trkpt lat="47.8149" lon="-3.64311">
        <ele>39</ele>
        <time>2021-08-31T06:42:11Z</time>
      </trkpt>
      <trkpt lat="47.81504" lon="-3.64311">
        <ele>39</ele>
        <time>2021-08-31T06:42:12Z</time>
      </trkpt>
      <trkpt lat="47.81521" lon="-3.64312">
        <ele>40</ele>
        <time>2021-08-31T06:42:13Z</time>
      </trkpt>
      <trkpt lat="47.81533" lon="-3.64312">
        <ele>40</ele>
        <time>2021-08-31T06:42:14Z</time>
      </trkpt>
      <trkpt lat="47.81544" lon="-3.64312">
        <ele>40</ele>
        <time>2021-08-31T06:42:15Z</time>
      </trkpt>
      <trkpt lat="47.8155" lon="-3.64312">
        <ele>40</ele>
        <time>2021-08-31T06:42:16Z</time>
      </trkpt>
      <trkpt lat="47.8155" lon="-3.64308">
        <ele>40</ele>
        <time>2021-08-31T06:42:17Z</time>
      </trkpt>
      <trkpt lat="47.81576" lon="-3.64299">
        <ele>40</ele>
        <time>2021-08-31T06:42:18Z</time>
      </trkpt>
      <trkpt lat="47.81584" lon="-3.64295">
        <ele>40</ele>
        <time>2021-08-31T06:42:19Z</time>
      </trkpt>
      <trkpt lat="47.81594" lon="-3.64292">
        <ele>39</ele>
        <time>2021-08-31T06:42:20Z</time>
      </trkpt>
      <trkpt lat="47.81599" lon="-3.64292">
        <ele>39</ele>
        <time>2021-08-31T06:42:21Z</time>
      </trkpt>
      <trkpt lat="47.81603" lon="-3.64294">
        <ele>39</ele>
        <time>2021-08-31T06:42:22Z</time>
      </trkpt>
      <trkpt lat="47.81609" lon="-3.64297">
        <ele>39</ele>
        <time>2021-08-31T06:42:23Z</time>
      </trkpt>
      <trkpt lat="47.81616" lon="-3.643">
        <ele>39</ele>
        <time>2021-08-31T06:42:24Z</time>
      </trkpt>
      <trkpt lat="47.81622" lon="-3.64302">
        <ele>39</ele>
        <time>2021-08-31T06:42:25Z</time>
      </trkpt>
      <trkpt lat="47.81625" lon="-3.64302">
        <ele>39</ele>
        <time>2021-08-31T06:42:26Z</time>
      </trkpt>
      <trkpt lat="47.81628" lon="-3.64302">
        <ele>39</ele>
        <time>2021-08-31T06:42:27Z</time>
      </trkpt>
      <trkpt lat="47.81638" lon="-3.643">
        <ele>39</ele>
        <time>2021-08-31T06:42:28Z</time>
      </trkpt>
      <trkpt lat="47.81652" lon="-3.64299">
        <ele>39</ele>
        <time>2021-08-31T06:42:29Z</time>
      </trkpt>
      <trkpt lat="47.81654" lon="-3.64299">
        <ele>39</ele>
        <time>2021-08-31T06:42:30Z</time>
      </trkpt>
      <trkpt lat="47.81667" lon="-3.64297">
        <ele>39</ele>
        <time>2021-08-31T06:42:31Z</time>
      </trkpt>
      <trkpt lat="47.81683" lon="-3.64294">
        <ele>37</ele>
        <time>2021-08-31T06:42:32Z</time>
      </trkpt>
      <trkpt lat="47.81695" lon="-3.64293">
        <ele>37</ele>
        <time>2021-08-31T06:42:33Z</time>
      </trkpt>
      <trkpt lat="47.81701" lon="-3.64292">
        <ele>37</ele>
        <time>2021-08-31T06:42:34Z</time>
      </trkpt>
      <trkpt lat="47.81703" lon="-3.64292">
        <ele>37</ele>
        <time>2021-08-31T06:42:35Z</time>
      </trkpt>
      <trkpt lat="47.81709" lon="-3.64292">
        <ele>37</ele>
        <time>2021-08-31T06:42:36Z</time>
      </trkpt>
      <trkpt lat="47.81715" lon="-3.64293">
        <ele>37</ele>
        <time>2021-08-31T06:42:37Z</time>
      </trkpt>
      <trkpt lat="47.81717" lon="-3.64294">
        <ele>37</ele>
        <time>2021-08-31T06:42:38Z</time>
      </trkpt>
      <trkpt lat="47.81718" lon="-3.64295">
        <ele>37</ele>
        <time>2021-08-31T06:42:39Z</time>
      </trkpt>
      <trkpt lat="47.8172" lon="-3.64298">
        <ele>37</ele>
        <time>2021-08-31T06:42:40Z</time>
      </trkpt>
      <trkpt lat="47.8174" lon="-3.64354">
        <ele>37</ele>
        <time>2021-08-31T06:42:41Z</time>
      </trkpt>
      <trkpt lat="47.81743" lon="-3.64363">
        <ele>37</ele>
        <time>2021-08-31T06:42:42Z</time>
      </trkpt>
      <trkpt lat="47.81747" lon="-3.64383">
        <ele>37</ele>
        <time>2021-08-31T06:42:43Z</time>
      </trkpt>
      <trkpt lat="47.81752" lon="-3.64403">
        <ele>37</ele>
        <time>2021-08-31T06:42:44Z</time>
      </trkpt>
      <trkpt lat="47.81759" lon="-3.64436">
        <ele>41</ele>
        <time>2021-08-31T06:42:45Z</time>
      </trkpt>
      <trkpt lat="47.81766" lon="-3.64465">
        <ele>44</ele>
        <time>2021-08-31T06:42:46Z</time>
      </trkpt>
      <trkpt lat="47.81774" lon="-3.645">
        <ele>44</ele>
        <time>2021-08-31T06:42:47Z</time>
      </trkpt>
      <trkpt lat="47.81782" lon="-3.64534">
        <ele>47</ele>
        <time>2021-08-31T06:42:48Z</time>
      </trkpt>
      <trkpt lat="47.81795" lon="-3.64586">
        <ele>47</ele>
        <time>2021-08-31T06:42:49Z</time>
      </trkpt>
      <trkpt lat="47.818" lon="-3.64606">
        <ele>47</ele>
        <time>2021-08-31T06:42:50Z</time>
      </trkpt>
      <trkpt lat="47.81803" lon="-3.64619">
        <ele>47</ele>
        <time>2021-08-31T06:42:51Z</time>
      </trkpt>
      <trkpt lat="47.81807" lon="-3.64637">
        <ele>47</ele>
        <time>2021-08-31T06:42:52Z</time>
      </trkpt>
      <trkpt lat="47.81812" lon="-3.64657">
        <ele>47</ele>
        <time>2021-08-31T06:42:53Z</time>
      </trkpt>
      <trkpt lat="47.81814" lon="-3.64669">
        <ele>47</ele>
        <time>2021-08-31T06:42:54Z</time>
      </trkpt>
      <trkpt lat="47.81815" lon="-3.64677">
        <ele>47</ele>
        <time>2021-08-31T06:42:55Z</time>
      </trkpt>
      <trkpt lat="47.81816" lon="-3.64695">
        <ele>43</ele>
        <time>2021-08-31T06:42:56Z</time>
      </trkpt>
      <trkpt lat="47.81816" lon="-3.64712">
        <ele>43</ele>
        <time>2021-08-31T06:42:57Z</time>
      </trkpt>
      <trkpt lat="47.81817" lon="-3.64729">
        <ele>43</ele>
        <time>2021-08-31T06:42:58Z</time>
      </trkpt>
      <trkpt lat="47.81818" lon="-3.6474">
        <ele>43</ele>
        <time>2021-08-31T06:42:59Z</time>
      </trkpt>
      <trkpt lat="47.8182" lon="-3.64749">
        <ele>43</ele>
        <time>2021-08-31T06:43:00Z</time>
      </trkpt>
      <trkpt lat="47.81823" lon="-3.64762">
        <ele>43</ele>
        <time>2021-08-31T06:43:01Z</time>
      </trkpt>
      <trkpt lat="47.81826" lon="-3.64771">
        <ele>40</ele>
        <time>2021-08-31T06:43:02Z</time>
      </trkpt>
      <trkpt lat="47.81828" lon="-3.64778">
        <ele>40</ele>
        <time>2021-08-31T06:43:03Z</time>
      </trkpt>
      <trkpt lat="47.81832" lon="-3.64787">
        <ele>40</ele>
        <time>2021-08-31T06:43:04Z</time>
      </trkpt>
      <trkpt lat="47.81834" lon="-3.64793">
        <ele>40</ele>
        <time>2021-08-31T06:43:05Z</time>
      </trkpt>
      <trkpt lat="47.8184" lon="-3.64803">
        <ele>40</ele>
        <time>2021-08-31T06:43:06Z</time>
      </trkpt>
      <trkpt lat="47.81847" lon="-3.64814">
        <ele>40</ele>
        <time>2021-08-31T06:43:07Z</time>
      </trkpt>
      <trkpt lat="47.81854" lon="-3.64823">
        <ele>40</ele>
        <time>2021-08-31T06:43:08Z</time>
      </trkpt>
      <trkpt lat="47.81856" lon="-3.64828">
        <ele>40</ele>
        <time>2021-08-31T06:43:09Z</time>
      </trkpt>
      <trkpt lat="47.81858" lon="-3.64837">
        <ele>40</ele>
        <time>2021-08-31T06:43:10Z</time>
      </trkpt>
      <trkpt lat="47.8186" lon="-3.64844">
        <ele>40</ele>
        <time>2021-08-31T06:43:11Z</time>
      </trkpt>
      <trkpt lat="47.81862" lon="-3.64853">
        <ele>37</ele>
        <time>2021-08-31T06:43:12Z</time>
      </trkpt>
      <trkpt lat="47.81864" lon="-3.6486">
        <ele>37</ele>
        <time>2021-08-31T06:43:13Z</time>
      </trkpt>
      <trkpt lat="47.81865" lon="-3.6487">
        <ele>37</ele>
        <time>2021-08-31T06:43:14Z</time>
      </trkpt>
      <trkpt lat="47.81861" lon="-3.6488">
        <ele>37</ele>
        <time>2021-08-31T06:43:15Z</time>
      </trkpt>
      <trkpt lat="47.81856" lon="-3.64895">
        <ele>37</ele>
        <time>2021-08-31T06:43:16Z</time>
      </trkpt>
      <trkpt lat="47.81852" lon="-3.64908">
        <ele>37</ele>
        <time>2021-08-31T06:43:17Z</time>
      </trkpt>
      <trkpt lat="47.81849" lon="-3.64916">
        <ele>37</ele>
        <time>2021-08-31T06:43:18Z</time>
      </trkpt>
      <trkpt lat="47.81845" lon="-3.6492">
        <ele>37</ele>
        <time>2021-08-31T06:43:19Z</time>
      </trkpt>
      <trkpt lat="47.81839" lon="-3.64927">
        <ele>37</ele>
        <time>2021-08-31T06:43:20Z</time>
      </trkpt>
      <trkpt lat="47.81834" lon="-3.64935">
        <ele>36</ele>
        <time>2021-08-31T06:43:21Z</time>
      </trkpt>
      <trkpt lat="47.81828" lon="-3.64947">
        <ele>34</ele>
        <time>2021-08-31T06:43:22Z</time>
      </trkpt>
      <trkpt lat="47.81825" lon="-3.6496">
        <ele>34</ele>
        <time>2021-08-31T06:43:23Z</time>
      </trkpt>
      <trkpt lat="47.81824" lon="-3.64968">
        <ele>34</ele>
        <time>2021-08-31T06:43:24Z</time>
      </trkpt>
      <trkpt lat="47.81823" lon="-3.64973">
        <ele>34</ele>
        <time>2021-08-31T06:43:25Z</time>
      </trkpt>
      <trkpt lat="47.81818" lon="-3.64991">
        <ele>34</ele>
        <time>2021-08-31T06:43:26Z</time>
      </trkpt>
      <trkpt lat="47.81816" lon="-3.65003">
        <ele>34</ele>
        <time>2021-08-31T06:43:27Z</time>
      </trkpt>
      <trkpt lat="47.81816" lon="-3.65008">
        <ele>34</ele>
        <time>2021-08-31T06:43:28Z</time>
      </trkpt>
      <trkpt lat="47.81814" lon="-3.65015">
        <ele>34</ele>
        <time>2021-08-31T06:43:29Z</time>
      </trkpt>
      <trkpt lat="47.81814" lon="-3.65018">
        <ele>34</ele>
        <time>2021-08-31T06:43:30Z</time>
      </trkpt>
      <trkpt lat="47.81812" lon="-3.65023">
        <ele>33</ele>
        <time>2021-08-31T06:43:31Z</time>
      </trkpt>
      <trkpt lat="47.81808" lon="-3.65026">
        <ele>33</ele>
        <time>2021-08-31T06:43:32Z</time>
      </trkpt>
      <trkpt lat="47.81804" lon="-3.65031">
        <ele>33</ele>
        <time>2021-08-31T06:43:33Z</time>
      </trkpt>
      <trkpt lat="47.81798" lon="-3.65035">
        <ele>33</ele>
        <time>2021-08-31T06:43:34Z</time>
      </trkpt>
      <trkpt lat="47.81789" lon="-3.65044">
        <ele>33</ele>
        <time>2021-08-31T06:43:35Z</time>
      </trkpt>
      <trkpt lat="47.81786" lon="-3.65048">
        <ele>33</ele>
        <time>2021-08-31T06:43:36Z</time>
      </trkpt>
      <trkpt lat="47.81781" lon="-3.65051">
        <ele>33</ele>
        <time>2021-08-31T06:43:37Z</time>
      </trkpt>
      <trkpt lat="47.81773" lon="-3.65061">
        <ele>33</ele>
        <time>2021-08-31T06:43:38Z</time>
      </trkpt>
      <trkpt lat="47.81767" lon="-3.65071">
        <ele>33</ele>
        <time>2021-08-31T06:43:39Z</time>
      </trkpt>
      <trkpt lat="47.81764" lon="-3.65083">
        <ele>33</ele>
        <time>2021-08-31T06:43:40Z</time>
      </trkpt>
      <trkpt lat="47.81764" lon="-3.65096">
        <ele>33</ele>
        <time>2021-08-31T06:43:41Z</time>
      </trkpt>
      <trkpt lat="47.81764" lon="-3.65112">
        <ele>29</ele>
        <time>2021-08-31T06:43:42Z</time>
      </trkpt>
      <trkpt lat="47.81768" lon="-3.65123">
        <ele>29</ele>
        <time>2021-08-31T06:43:43Z</time>
      </trkpt>
      <trkpt lat="47.81773" lon="-3.65133">
        <ele>29</ele>
        <time>2021-08-31T06:43:44Z</time>
      </trkpt>
      <trkpt lat="47.8178" lon="-3.65143">
        <ele>29</ele>
        <time>2021-08-31T06:43:45Z</time>
      </trkpt>
      <trkpt lat="47.81782" lon="-3.65148">
        <ele>29</ele>
        <time>2021-08-31T06:43:46Z</time>
      </trkpt>
      <trkpt lat="47.81783" lon="-3.65152">
        <ele>29</ele>
        <time>2021-08-31T06:43:47Z</time>
      </trkpt>
      <trkpt lat="47.81783" lon="-3.65157">
        <ele>29</ele>
        <time>2021-08-31T06:43:48Z</time>
      </trkpt>
      <trkpt lat="47.81782" lon="-3.65162">
        <ele>29</ele>
        <time>2021-08-31T06:43:49Z</time>
      </trkpt>
      <trkpt lat="47.81781" lon="-3.6517">
        <ele>29</ele>
        <time>2021-08-31T06:43:50Z</time>
      </trkpt>
      <trkpt lat="47.81778" lon="-3.6518">
        <ele>29</ele>
        <time>2021-08-31T06:43:51Z</time>
      </trkpt>
      <trkpt lat="47.8177" lon="-3.65193">
        <ele>29</ele>
        <time>2021-08-31T06:43:52Z</time>
      </trkpt>
      <trkpt lat="47.81759" lon="-3.65198">
        <ele>29</ele>
        <time>2021-08-31T06:43:53Z</time>
      </trkpt>
      <trkpt lat="47.81755" lon="-3.65203">
        <ele>35</ele>
        <time>2021-08-31T06:43:54Z</time>
      </trkpt>
      <trkpt lat="47.81759" lon="-3.6521">
        <ele>29</ele>
        <time>2021-08-31T06:43:55Z</time>
      </trkpt>
      <trkpt lat="47.81765" lon="-3.65222">
        <ele>29</ele>
        <time>2021-08-31T06:43:56Z</time>
      </trkpt>
      <trkpt lat="47.81769" lon="-3.65238">
        <ele>29</ele>
        <time>2021-08-31T06:43:57Z</time>
      </trkpt>
      <trkpt lat="47.81769" lon="-3.65247">
        <ele>29</ele>
        <time>2021-08-31T06:43:58Z</time>
      </trkpt>
      <trkpt lat="47.81765" lon="-3.65253">
        <ele>29</ele>
        <time>2021-08-31T06:43:59Z</time>
      </trkpt>
      <trkpt lat="47.81767" lon="-3.65257">
        <ele>29</ele>
        <time>2021-08-31T06:44:00Z</time>
      </trkpt>
      <trkpt lat="47.81762" lon="-3.65261">
        <ele>29</ele>
        <time>2021-08-31T06:44:01Z</time>
      </trkpt>
      <trkpt lat="47.81759" lon="-3.65266">
        <ele>29</ele>
        <time>2021-08-31T06:44:02Z</time>
      </trkpt>
      <trkpt lat="47.81756" lon="-3.65282">
        <ele>33</ele>
        <time>2021-08-31T06:44:03Z</time>
      </trkpt>
      <trkpt lat="47.81755" lon="-3.65292">
        <ele>36</ele>
        <time>2021-08-31T06:44:04Z</time>
      </trkpt>
      <trkpt lat="47.81757" lon="-3.65302">
        <ele>33</ele>
        <time>2021-08-31T06:44:05Z</time>
      </trkpt>
      <trkpt lat="47.81759" lon="-3.65325">
        <ele>33</ele>
        <time>2021-08-31T06:44:06Z</time>
      </trkpt>
      <trkpt lat="47.81765" lon="-3.65373">
        <ele>35</ele>
        <time>2021-08-31T06:44:07Z</time>
      </trkpt>
      <trkpt lat="47.81765" lon="-3.65388">
        <ele>35</ele>
        <time>2021-08-31T06:44:08Z</time>
      </trkpt>
      <trkpt lat="47.81763" lon="-3.65405">
        <ele>35</ele>
        <time>2021-08-31T06:44:09Z</time>
      </trkpt>
      <trkpt lat="47.81761" lon="-3.65445">
        <ele>36</ele>
        <time>2021-08-31T06:44:10Z</time>
      </trkpt>
      <trkpt lat="47.81725" lon="-3.65388">
        <ele>38</ele>
        <time>2021-08-31T06:44:11Z</time>
      </trkpt>
      <trkpt lat="47.81702" lon="-3.65352">
        <ele>36</ele>
        <time>2021-08-31T06:44:12Z</time>
      </trkpt>
      <trkpt lat="47.81685" lon="-3.65339">
        <ele>36</ele>
        <time>2021-08-31T06:44:13Z</time>
      </trkpt>
      <trkpt lat="47.81651" lon="-3.65339">
        <ele>37</ele>
        <time>2021-08-31T06:44:14Z</time>
      </trkpt>
      <trkpt lat="47.8159" lon="-3.65339">
        <ele>37</ele>
        <time>2021-08-31T06:44:15Z</time>
      </trkpt>
      <trkpt lat="47.81582" lon="-3.65337">
        <ele>40</ele>
        <time>2021-08-31T06:44:16Z</time>
      </trkpt>
      <trkpt lat="47.8157" lon="-3.65334">
        <ele>40</ele>
        <time>2021-08-31T06:44:17Z</time>
      </trkpt>
      <trkpt lat="47.81562" lon="-3.65332">
        <ele>40</ele>
        <time>2021-08-31T06:44:18Z</time>
      </trkpt>
      <trkpt lat="47.81448" lon="-3.65302">
        <ele>40</ele>
        <time>2021-08-31T06:44:19Z</time>
      </trkpt>
      <trkpt lat="47.81437" lon="-3.65299">
        <ele>40</ele>
        <time>2021-08-31T06:44:20Z</time>
      </trkpt>
      <trkpt lat="47.81399" lon="-3.65284">
        <ele>41</ele>
        <time>2021-08-31T06:44:21Z</time>
      </trkpt>
      <trkpt lat="47.81337" lon="-3.65219">
        <ele>43</ele>
        <time>2021-08-31T06:44:22Z</time>
      </trkpt>
      <trkpt lat="47.81232" lon="-3.65175">
        <ele>45</ele>
        <time>2021-08-31T06:44:23Z</time>
      </trkpt>
      <trkpt lat="47.81205" lon="-3.65162">
        <ele>45</ele>
        <time>2021-08-31T06:44:24Z</time>
      </trkpt>
      <trkpt lat="47.8119" lon="-3.65155">
        <ele>45</ele>
        <time>2021-08-31T06:44:25Z</time>
      </trkpt>
      <trkpt lat="47.81149" lon="-3.65135">
        <ele>49</ele>
        <time>2021-08-31T06:44:26Z</time>
      </trkpt>
      <trkpt lat="47.8115" lon="-3.65109">
        <ele>49</ele>
        <time>2021-08-31T06:44:27Z</time>
      </trkpt>
      <trkpt lat="47.81141" lon="-3.65071">
        <ele>47</ele>
        <time>2021-08-31T06:44:28Z</time>
      </trkpt>
      <trkpt lat="47.81138" lon="-3.6506">
        <ele>47</ele>
        <time>2021-08-31T06:44:29Z</time>
      </trkpt>
      <trkpt lat="47.81135" lon="-3.65067">
        <ele>47</ele>
        <time>2021-08-31T06:44:30Z</time>
      </trkpt>
      <trkpt lat="47.81104" lon="-3.65089">
        <ele>47</ele>
        <time>2021-08-31T06:44:31Z</time>
      </trkpt>
      <trkpt lat="47.81093" lon="-3.6508">
        <ele>47</ele>
        <time>2021-08-31T06:44:32Z</time>
      </trkpt>
      <trkpt lat="47.8097" lon="-3.65033">
        <ele>53</ele>
        <time>2021-08-31T06:44:33Z</time>
      </trkpt>
      <trkpt lat="47.80954" lon="-3.6503">
        <ele>53</ele>
        <time>2021-08-31T06:44:34Z</time>
      </trkpt>
      <trkpt lat="47.8088" lon="-3.65024">
        <ele>54</ele>
        <time>2021-08-31T06:44:35Z</time>
      </trkpt>
      <trkpt lat="47.8088" lon="-3.65045">
        <ele>54</ele>
        <time>2021-08-31T06:44:36Z</time>
      </trkpt>
      <trkpt lat="47.80881" lon="-3.65065">
        <ele>54</ele>
        <time>2021-08-31T06:44:37Z</time>
      </trkpt>
      <trkpt lat="47.80881" lon="-3.65093">
        <ele>54</ele>
        <time>2021-08-31T06:44:38Z</time>
      </trkpt>
      <trkpt lat="47.80878" lon="-3.65098">
        <ele>54</ele>
        <time>2021-08-31T06:44:39Z</time>
      </trkpt>
      <trkpt lat="47.80868" lon="-3.65098">
        <ele>54</ele>
        <time>2021-08-31T06:44:40Z</time>
      </trkpt>
      <trkpt lat="47.80854" lon="-3.65096">
        <ele>54</ele>
        <time>2021-08-31T06:44:41Z</time>
      </trkpt>
      <trkpt lat="47.80754" lon="-3.65069">
        <ele>49</ele>
        <time>2021-08-31T06:44:42Z</time>
      </trkpt>
      <trkpt lat="47.80744" lon="-3.65066">
        <ele>49</ele>
        <time>2021-08-31T06:44:43Z</time>
      </trkpt>
      <trkpt lat="47.80736" lon="-3.65078">
        <ele>49</ele>
        <time>2021-08-31T06:44:44Z</time>
      </trkpt>
      <trkpt lat="47.80726" lon="-3.65105">
        <ele>52</ele>
        <time>2021-08-31T06:44:45Z</time>
      </trkpt>
      <trkpt lat="47.80715" lon="-3.6513">
        <ele>52</ele>
        <time>2021-08-31T06:44:46Z</time>
      </trkpt>
      <trkpt lat="47.80708" lon="-3.65152">
        <ele>52</ele>
        <time>2021-08-31T06:44:47Z</time>
      </trkpt>
      <trkpt lat="47.80702" lon="-3.65179">
        <ele>52</ele>
        <time>2021-08-31T06:44:48Z</time>
      </trkpt>
      <trkpt lat="47.80699" lon="-3.65187">
        <ele>54</ele>
        <time>2021-08-31T06:44:49Z</time>
      </trkpt>
      <trkpt lat="47.80692" lon="-3.65207">
        <ele>54</ele>
        <time>2021-08-31T06:44:50Z</time>
      </trkpt>
      <trkpt lat="47.80678" lon="-3.65241">
        <ele>54</ele>
        <time>2021-08-31T06:44:51Z</time>
      </trkpt>
      <trkpt lat="47.80667" lon="-3.65268">
        <ele>51</ele>
        <time>2021-08-31T06:44:52Z</time>
      </trkpt>
      <trkpt lat="47.80661" lon="-3.6529">
        <ele>54</ele>
        <time>2021-08-31T06:44:53Z</time>
      </trkpt>
      <trkpt lat="47.80651" lon="-3.65304">
        <ele>54</ele>
        <time>2021-08-31T06:44:54Z</time>
      </trkpt>
      <trkpt lat="47.80638" lon="-3.65318">
        <ele>54</ele>
        <time>2021-08-31T06:44:55Z</time>
      </trkpt>
      <trkpt lat="47.80624" lon="-3.65337">
        <ele>54</ele>
        <time>2021-08-31T06:44:56Z</time>
      </trkpt>
      <trkpt lat="47.80611" lon="-3.65356">
        <ele>53</ele>
        <time>2021-08-31T06:44:57Z</time>
      </trkpt>
      <trkpt lat="47.80605" lon="-3.6538">
        <ele>53</ele>
        <time>2021-08-31T06:44:58Z</time>
      </trkpt>
      <trkpt lat="47.80594" lon="-3.65402">
        <ele>53</ele>
        <time>2021-08-31T06:44:59Z</time>
      </trkpt>
      <trkpt lat="47.80583" lon="-3.65425">
        <ele>47</ele>
        <time>2021-08-31T06:45:00Z</time>
      </trkpt>
      <trkpt lat="47.8057" lon="-3.65456">
        <ele>47</ele>
        <time>2021-08-31T06:45:01Z</time>
      </trkpt>
      <trkpt lat="47.80559" lon="-3.65493">
        <ele>47</ele>
        <time>2021-08-31T06:45:02Z</time>
      </trkpt>
      <trkpt lat="47.80542" lon="-3.65538">
        <ele>48</ele>
        <time>2021-08-31T06:45:03Z</time>
      </trkpt>
      <trkpt lat="47.80531" lon="-3.65584">
        <ele>48</ele>
        <time>2021-08-31T06:45:04Z</time>
      </trkpt>
      <trkpt lat="47.80519" lon="-3.65621">
        <ele>49</ele>
        <time>2021-08-31T06:45:05Z</time>
      </trkpt>
      <trkpt lat="47.8051" lon="-3.65664">
        <ele>49</ele>
        <time>2021-08-31T06:45:06Z</time>
      </trkpt>
      <trkpt lat="47.80504" lon="-3.65695">
        <ele>45</ele>
        <time>2021-08-31T06:45:07Z</time>
      </trkpt>
      <trkpt lat="47.80495" lon="-3.65735">
        <ele>45</ele>
        <time>2021-08-31T06:45:08Z</time>
      </trkpt>
      <trkpt lat="47.80491" lon="-3.65749">
        <ele>45</ele>
        <time>2021-08-31T06:45:09Z</time>
      </trkpt>
      <trkpt lat="47.80491" lon="-3.65758">
        <ele>45</ele>
        <time>2021-08-31T06:45:10Z</time>
      </trkpt>
      <trkpt lat="47.80414" lon="-3.65617">
        <ele>45</ele>
        <time>2021-08-31T06:45:11Z</time>
      </trkpt>
      <trkpt lat="47.80379" lon="-3.65591">
        <ele>44</ele>
        <time>2021-08-31T06:45:12Z</time>
      </trkpt>
      <trkpt lat="47.80327" lon="-3.65403">
        <ele>46</ele>
        <time>2021-08-31T06:45:13Z</time>
      </trkpt>
      <trkpt lat="47.80301" lon="-3.65422">
        <ele>46</ele>
        <time>2021-08-31T06:45:14Z</time>
      </trkpt>
      <trkpt lat="47.8026" lon="-3.65451">
        <ele>43</ele>
        <time>2021-08-31T06:45:15Z</time>
      </trkpt>
      <trkpt lat="47.80229" lon="-3.65242">
        <ele>46</ele>
        <time>2021-08-31T06:45:16Z</time>
      </trkpt>
      <trkpt lat="47.80195" lon="-3.65055">
        <ele>48</ele>
        <time>2021-08-31T06:45:17Z</time>
      </trkpt>
      <trkpt lat="47.8021" lon="-3.6488">
        <ele>50</ele>
        <time>2021-08-31T06:45:18Z</time>
      </trkpt>
      <trkpt lat="47.8017" lon="-3.64693">
        <ele>48</ele>
        <time>2021-08-31T06:45:19Z</time>
      </trkpt>
      <trkpt lat="47.80144" lon="-3.64699">
        <ele>48</ele>
        <time>2021-08-31T06:45:20Z</time>
      </trkpt>
      <trkpt lat="47.80127" lon="-3.64702">
        <ele>48</ele>
        <time>2021-08-31T06:45:21Z</time>
      </trkpt>
      <trkpt lat="47.80111" lon="-3.64702">
        <ele>48</ele>
        <time>2021-08-31T06:45:22Z</time>
      </trkpt>
      <trkpt lat="47.80092" lon="-3.64698">
        <ele>48</ele>
        <time>2021-08-31T06:45:23Z</time>
      </trkpt>
      <trkpt lat="47.80052" lon="-3.64685">
        <ele>46</ele>
        <time>2021-08-31T06:45:24Z</time>
      </trkpt>
      <trkpt lat="47.80024" lon="-3.64683">
        <ele>46</ele>
        <time>2021-08-31T06:45:25Z</time>
      </trkpt>
      <trkpt lat="47.80003" lon="-3.64685">
        <ele>45</ele>
        <time>2021-08-31T06:45:26Z</time>
      </trkpt>
      <trkpt lat="47.79862" lon="-3.64703">
        <ele>43</ele>
        <time>2021-08-31T06:45:27Z</time>
      </trkpt>
      <trkpt lat="47.7985" lon="-3.64703">
        <ele>43</ele>
        <time>2021-08-31T06:45:28Z</time>
      </trkpt>
      <trkpt lat="47.79848" lon="-3.64703">
        <ele>43</ele>
        <time>2021-08-31T06:45:29Z</time>
      </trkpt>
      <trkpt lat="47.797" lon="-3.64712">
        <ele>39</ele>
        <time>2021-08-31T06:45:30Z</time>
      </trkpt>
      <trkpt lat="47.79694" lon="-3.64678">
        <ele>41</ele>
        <time>2021-08-31T06:45:31Z</time>
      </trkpt>
      <trkpt lat="47.79696" lon="-3.64646">
        <ele>41</ele>
        <time>2021-08-31T06:45:32Z</time>
      </trkpt>
      <trkpt lat="47.79696" lon="-3.64613">
        <ele>41</ele>
        <time>2021-08-31T06:45:33Z</time>
      </trkpt>
      <trkpt lat="47.79698" lon="-3.64562">
        <ele>41</ele>
        <time>2021-08-31T06:45:34Z</time>
      </trkpt>
      <trkpt lat="47.7967" lon="-3.64557">
        <ele>39</ele>
        <time>2021-08-31T06:45:35Z</time>
      </trkpt>
      <trkpt lat="47.79626" lon="-3.64562">
        <ele>39</ele>
        <time>2021-08-31T06:45:36Z</time>
      </trkpt>
      <trkpt lat="47.79629" lon="-3.64467">
        <ele>38</ele>
        <time>2021-08-31T06:45:37Z</time>
      </trkpt>
      <trkpt lat="47.79629" lon="-3.64454">
        <ele>38</ele>
        <time>2021-08-31T06:45:38Z</time>
      </trkpt>
      <trkpt lat="47.79626" lon="-3.64398">
        <ele>36</ele>
        <time>2021-08-31T06:45:39Z</time>
      </trkpt>
      <trkpt lat="47.79626" lon="-3.64291">
        <ele>36</ele>
        <time>2021-08-31T06:45:40Z</time>
      </trkpt>
      <trkpt lat="47.79612" lon="-3.64214">
        <ele>34</ele>
        <time>2021-08-31T06:45:41Z</time>
      </trkpt>
      <trkpt lat="47.79583" lon="-3.64188">
        <ele>31</ele>
        <time>2021-08-31T06:45:42Z</time>
      </trkpt>
      <trkpt lat="47.79543" lon="-3.64154">
        <ele>35</ele>
        <time>2021-08-31T06:45:43Z</time>
      </trkpt>
      <trkpt lat="47.79476" lon="-3.64132">
        <ele>34</ele>
        <time>2021-08-31T06:45:44Z</time>
      </trkpt>
      <trkpt lat="47.79436" lon="-3.64102">
        <ele>34</ele>
        <time>2021-08-31T06:45:45Z</time>
      </trkpt>
      <trkpt lat="47.79415" lon="-3.64086">
        <ele>39</ele>
        <time>2021-08-31T06:45:46Z</time>
      </trkpt>
      <trkpt lat="47.79389" lon="-3.64066">
        <ele>39</ele>
        <time>2021-08-31T06:45:47Z</time>
      </trkpt>
      <trkpt lat="47.79396" lon="-3.64132">
        <ele>38</ele>
        <time>2021-08-31T06:45:48Z</time>
      </trkpt>
      <trkpt lat="47.79387" lon="-3.64218">
        <ele>36</ele>
        <time>2021-08-31T06:45:49Z</time>
      </trkpt>
      <trkpt lat="47.79387" lon="-3.64287">
        <ele>35</ele>
        <time>2021-08-31T06:45:50Z</time>
      </trkpt>
      <trkpt lat="47.79383" lon="-3.6438">
        <ele>34</ele>
        <time>2021-08-31T06:45:51Z</time>
      </trkpt>
      <trkpt lat="47.79383" lon="-3.64483">
        <ele>34</ele>
        <time>2021-08-31T06:45:52Z</time>
      </trkpt>
      <trkpt lat="47.79381" lon="-3.64553">
        <ele>34</ele>
        <time>2021-08-31T06:45:53Z</time>
      </trkpt>
      <trkpt lat="47.79383" lon="-3.64627">
        <ele>32</ele>
        <time>2021-08-31T06:45:54Z</time>
      </trkpt>
      <trkpt lat="47.79396" lon="-3.64716">
        <ele>31</ele>
        <time>2021-08-31T06:45:55Z</time>
      </trkpt>
      <trkpt lat="47.79399" lon="-3.64749">
        <ele>31</ele>
        <time>2021-08-31T06:45:56Z</time>
      </trkpt>
      <trkpt lat="47.794" lon="-3.64765">
        <ele>31</ele>
        <time>2021-08-31T06:45:57Z</time>
      </trkpt>
      <trkpt lat="47.79302" lon="-3.64783">
        <ele>32</ele>
        <time>2021-08-31T06:45:58Z</time>
      </trkpt>
      <trkpt lat="47.79272" lon="-3.64788">
        <ele>32</ele>
        <time>2021-08-31T06:45:59Z</time>
      </trkpt>
      <trkpt lat="47.7914" lon="-3.64775">
        <ele>30</ele>
        <time>2021-08-31T06:46:00Z</time>
      </trkpt>
      <trkpt lat="47.7908" lon="-3.64779">
        <ele>30</ele>
        <time>2021-08-31T06:46:01Z</time>
      </trkpt>
      <trkpt lat="47.79069" lon="-3.64781">
        <ele>30</ele>
        <time>2021-08-31T06:46:02Z</time>
      </trkpt>
      <trkpt lat="47.78989" lon="-3.64802">
        <ele>29</ele>
        <time>2021-08-31T06:46:03Z</time>
      </trkpt>
      <trkpt lat="47.78912" lon="-3.64821">
        <ele>29</ele>
        <time>2021-08-31T06:46:04Z</time>
      </trkpt>
      <trkpt lat="47.78726" lon="-3.64909">
        <ele>29</ele>
        <time>2021-08-31T06:46:05Z</time>
      </trkpt>
      <trkpt lat="47.78726" lon="-3.64911">
        <ele>29</ele>
        <time>2021-08-31T06:46:06Z</time>
      </trkpt>
      <trkpt lat="47.78693" lon="-3.64929">
        <ele>29</ele>
        <time>2021-08-31T06:46:07Z</time>
      </trkpt>
      <trkpt lat="47.78689" lon="-3.65123">
        <ele>35</ele>
        <time>2021-08-31T06:46:08Z</time>
      </trkpt>
      <trkpt lat="47.78674" lon="-3.65177">
        <ele>35</ele>
        <time>2021-08-31T06:46:09Z</time>
      </trkpt>
      <trkpt lat="47.78675" lon="-3.65177">
        <ele>35</ele>
        <time>2021-08-31T06:46:10Z</time>
      </trkpt>
      <trkpt lat="47.78675" lon="-3.65177">
        <ele>35</ele>
        <time>2021-08-31T06:46:11Z</time>
      </trkpt>
      <trkpt lat="47.78679" lon="-3.65181">
        <ele>35</ele>
        <time>2021-08-31T06:46:12Z</time>
      </trkpt>
      <trkpt lat="47.78699" lon="-3.65182">
        <ele>35</ele>
        <time>2021-08-31T06:46:13Z</time>
      </trkpt>
      <trkpt lat="47.78715" lon="-3.65183">
        <ele>35</ele>
        <time>2021-08-31T06:46:14Z</time>
      </trkpt>
      <trkpt lat="47.78754" lon="-3.65187">
        <ele>33</ele>
        <time>2021-08-31T06:46:15Z</time>
      </trkpt>
      <trkpt lat="47.78774" lon="-3.65194">
        <ele>33</ele>
        <time>2021-08-31T06:46:16Z</time>
      </trkpt>
      <trkpt lat="47.78797" lon="-3.65191">
        <ele>33</ele>
        <time>2021-08-31T06:46:17Z</time>
      </trkpt>
      <trkpt lat="47.78806" lon="-3.65185">
        <ele>34</ele>
        <time>2021-08-31T06:46:18Z</time>
      </trkpt>
      <trkpt lat="47.78809" lon="-3.6518">
        <ele>34</ele>
        <time>2021-08-31T06:46:19Z</time>
      </trkpt>
      <trkpt lat="47.78812" lon="-3.65176">
        <ele>34</ele>
        <time>2021-08-31T06:46:20Z</time>
      </trkpt>
      <trkpt lat="47.78829" lon="-3.65239">
        <ele>33</ele>
        <time>2021-08-31T06:46:21Z</time>
      </trkpt>
      <trkpt lat="47.78842" lon="-3.65281">
        <ele>29</ele>
        <time>2021-08-31T06:46:22Z</time>
      </trkpt>
      <trkpt lat="47.78838" lon="-3.65281">
        <ele>31</ele>
        <time>2021-08-31T06:46:23Z</time>
      </trkpt>
      <trkpt lat="47.78835" lon="-3.65281">
        <ele>31</ele>
        <time>2021-08-31T06:46:24Z</time>
      </trkpt>
      <trkpt lat="47.78841" lon="-3.65277">
        <ele>29</ele>
        <time>2021-08-31T06:46:25Z</time>
      </trkpt>
      <trkpt lat="47.78842" lon="-3.65278">
        <ele>29</ele>
        <time>2021-08-31T06:46:26Z</time>
      </trkpt>
      <trkpt lat="47.78838" lon="-3.65281">
        <ele>31</ele>
        <time>2021-08-31T06:46:27Z</time>
      </trkpt>
      <trkpt lat="47.7884" lon="-3.65281">
        <ele>29</ele>
        <time>2021-08-31T06:46:28Z</time>
      </trkpt>
      <trkpt lat="47.78883" lon="-3.65284">
        <ele>29</ele>
        <time>2021-08-31T06:46:29Z</time>
      </trkpt>
      <trkpt lat="47.78855" lon="-3.65359">
        <ele>28</ele>
        <time>2021-08-31T06:46:30Z</time>
      </trkpt>
      <trkpt lat="47.78828" lon="-3.65422">
        <ele>28</ele>
        <time>2021-08-31T06:46:31Z</time>
      </trkpt>
      <trkpt lat="47.78819" lon="-3.65511">
        <ele>26</ele>
        <time>2021-08-31T06:46:32Z</time>
      </trkpt>
      <trkpt lat="47.78858" lon="-3.65569">
        <ele>29</ele>
        <time>2021-08-31T06:46:33Z</time>
      </trkpt>
      <trkpt lat="47.78865" lon="-3.65575">
        <ele>29</ele>
        <time>2021-08-31T06:46:34Z</time>
      </trkpt>
      <trkpt lat="47.78865" lon="-3.65575">
        <ele>29</ele>
        <time>2021-08-31T06:46:35Z</time>
      </trkpt>
      <trkpt lat="47.78879" lon="-3.65571">
        <ele>29</ele>
        <time>2021-08-31T06:46:36Z</time>
      </trkpt>
      <trkpt lat="47.78901" lon="-3.65599">
        <ele>29</ele>
        <time>2021-08-31T06:46:37Z</time>
      </trkpt>
      <trkpt lat="47.78892" lon="-3.65604">
        <ele>30</ele>
        <time>2021-08-31T06:46:38Z</time>
      </trkpt>
      <trkpt lat="47.78882" lon="-3.6562">
        <ele>30</ele>
        <time>2021-08-31T06:46:39Z</time>
      </trkpt>
      <trkpt lat="47.78873" lon="-3.65643">
        <ele>30</ele>
        <time>2021-08-31T06:46:40Z</time>
      </trkpt>
      <trkpt lat="47.78866" lon="-3.65664">
        <ele>30</ele>
        <time>2021-08-31T06:46:41Z</time>
      </trkpt>
      <trkpt lat="47.78837" lon="-3.6574">
        <ele>24</ele>
        <time>2021-08-31T06:46:42Z</time>
      </trkpt>
      <trkpt lat="47.78832" lon="-3.65754">
        <ele>24</ele>
        <time>2021-08-31T06:46:43Z</time>
      </trkpt>
      <trkpt lat="47.78829" lon="-3.65773">
        <ele>23</ele>
        <time>2021-08-31T06:46:44Z</time>
      </trkpt>
      <trkpt lat="47.78822" lon="-3.65798">
        <ele>23</ele>
        <time>2021-08-31T06:46:45Z</time>
      </trkpt>
      <trkpt lat="47.78815" lon="-3.65831">
        <ele>23</ele>
        <time>2021-08-31T06:46:46Z</time>
      </trkpt>
      <trkpt lat="47.78806" lon="-3.65887">
        <ele>23</ele>
        <time>2021-08-31T06:46:47Z</time>
      </trkpt>
      <trkpt lat="47.78793" lon="-3.65951">
        <ele>24</ele>
        <time>2021-08-31T06:46:48Z</time>
      </trkpt>
      <trkpt lat="47.78778" lon="-3.66013">
        <ele>24</ele>
        <time>2021-08-31T06:46:49Z</time>
      </trkpt>
      <trkpt lat="47.78766" lon="-3.66034">
        <ele>24</ele>
        <time>2021-08-31T06:46:50Z</time>
      </trkpt>
      <trkpt lat="47.78752" lon="-3.66053">
        <ele>24</ele>
        <time>2021-08-31T06:46:51Z</time>
      </trkpt>
      <trkpt lat="47.78748" lon="-3.66077">
        <ele>24</ele>
        <time>2021-08-31T06:46:52Z</time>
      </trkpt>
      <trkpt lat="47.7874" lon="-3.66078">
        <ele>24</ele>
        <time>2021-08-31T06:46:53Z</time>
      </trkpt>
      <trkpt lat="47.78728" lon="-3.6607">
        <ele>24</ele>
        <time>2021-08-31T06:46:54Z</time>
      </trkpt>
      <trkpt lat="47.78714" lon="-3.66073">
        <ele>24</ele>
        <time>2021-08-31T06:46:55Z</time>
      </trkpt>
      <trkpt lat="47.78716" lon="-3.66073">
        <ele>24</ele>
        <time>2021-08-31T06:46:56Z</time>
      </trkpt>
      <trkpt lat="47.78714" lon="-3.66084">
        <ele>24</ele>
        <time>2021-08-31T06:46:57Z</time>
      </trkpt>
      <trkpt lat="47.78714" lon="-3.66113">
        <ele>27</ele>
        <time>2021-08-31T06:46:58Z</time>
      </trkpt>
      <trkpt lat="47.78712" lon="-3.66155">
        <ele>27</ele>
        <time>2021-08-31T06:46:59Z</time>
      </trkpt>
      <trkpt lat="47.78714" lon="-3.66179">
        <ele>27</ele>
        <time>2021-08-31T06:47:00Z</time>
      </trkpt>
      <trkpt lat="47.78717" lon="-3.66202">
        <ele>29</ele>
        <time>2021-08-31T06:47:01Z</time>
      </trkpt>
      <trkpt lat="47.7872" lon="-3.66235">
        <ele>29</ele>
        <time>2021-08-31T06:47:02Z</time>
      </trkpt>
      <trkpt lat="47.78722" lon="-3.66261">
        <ele>29</ele>
        <time>2021-08-31T06:47:03Z</time>
      </trkpt>
      <trkpt lat="47.78713" lon="-3.66262">
        <ele>29</ele>
        <time>2021-08-31T06:47:04Z</time>
      </trkpt>
      <trkpt lat="47.78696" lon="-3.66263">
        <ele>29</ele>
        <time>2021-08-31T06:47:05Z</time>
      </trkpt>
      <trkpt lat="47.7868" lon="-3.66264">
        <ele>29</ele>
        <time>2021-08-31T06:47:06Z</time>
      </trkpt>
      <trkpt lat="47.78664" lon="-3.6626">
        <ele>27</ele>
        <time>2021-08-31T06:47:07Z</time>
      </trkpt>
      <trkpt lat="47.78657" lon="-3.66265">
        <ele>27</ele>
        <time>2021-08-31T06:47:08Z</time>
      </trkpt>
      <trkpt lat="47.78652" lon="-3.66279">
        <ele>29</ele>
        <time>2021-08-31T06:47:09Z</time>
      </trkpt>
      <trkpt lat="47.78645" lon="-3.66309">
        <ele>29</ele>
        <time>2021-08-31T06:47:10Z</time>
      </trkpt>
      <trkpt lat="47.7864" lon="-3.66334">
        <ele>29</ele>
        <time>2021-08-31T06:47:11Z</time>
      </trkpt>
      <trkpt lat="47.78637" lon="-3.66337">
        <ele>29</ele>
        <time>2021-08-31T06:47:12Z</time>
      </trkpt>
      <trkpt lat="47.78633" lon="-3.6634">
        <ele>29</ele>
        <time>2021-08-31T06:47:13Z</time>
      </trkpt>
      <trkpt lat="47.7862" lon="-3.66344">
        <ele>29</ele>
        <time>2021-08-31T06:47:14Z</time>
      </trkpt>
      <trkpt lat="47.78613" lon="-3.66345">
        <ele>29</ele>
        <time>2021-08-31T06:47:15Z</time>
      </trkpt>
      <trkpt lat="47.78606" lon="-3.66342">
        <ele>29</ele>
        <time>2021-08-31T06:47:16Z</time>
      </trkpt>
      <trkpt lat="47.78585" lon="-3.66338">
        <ele>23</ele>
        <time>2021-08-31T06:47:17Z</time>
      </trkpt>
      <trkpt lat="47.78564" lon="-3.66337">
        <ele>23</ele>
        <time>2021-08-31T06:47:18Z</time>
      </trkpt>
      <trkpt lat="47.78544" lon="-3.66333">
        <ele>23</ele>
        <time>2021-08-31T06:47:19Z</time>
      </trkpt>
      <trkpt lat="47.78532" lon="-3.66326">
        <ele>23</ele>
        <time>2021-08-31T06:47:20Z</time>
      </trkpt>
      <trkpt lat="47.78517" lon="-3.6632">
        <ele>23</ele>
        <time>2021-08-31T06:47:21Z</time>
      </trkpt>
      <trkpt lat="47.78513" lon="-3.66318">
        <ele>23</ele>
        <time>2021-08-31T06:47:22Z</time>
      </trkpt>
      <trkpt lat="47.78501" lon="-3.66313">
        <ele>22</ele>
        <time>2021-08-31T06:47:23Z</time>
      </trkpt>
      <trkpt lat="47.78488" lon="-3.66321">
        <ele>22</ele>
        <time>2021-08-31T06:47:24Z</time>
      </trkpt>
      <trkpt lat="47.78482" lon="-3.66329">
        <ele>22</ele>
        <time>2021-08-31T06:47:25Z</time>
      </trkpt>
      <trkpt lat="47.78476" lon="-3.66354">
        <ele>23</ele>
        <time>2021-08-31T06:47:26Z</time>
      </trkpt>
      <trkpt lat="47.78472" lon="-3.66363">
        <ele>23</ele>
        <time>2021-08-31T06:47:27Z</time>
      </trkpt>
      <trkpt lat="47.78472" lon="-3.66363">
        <ele>23</ele>
        <time>2021-08-31T06:47:28Z</time>
      </trkpt>
      <trkpt lat="47.78465" lon="-3.66332">
        <ele>22</ele>
        <time>2021-08-31T06:47:29Z</time>
      </trkpt>
      <trkpt lat="47.78449" lon="-3.6629">
        <ele>22</ele>
        <time>2021-08-31T06:47:30Z</time>
      </trkpt>
      <trkpt lat="47.78415" lon="-3.66249">
        <ele>12</ele>
        <time>2021-08-31T06:47:31Z</time>
      </trkpt>
      <trkpt lat="47.78386" lon="-3.66198">
        <ele>12</ele>
        <time>2021-08-31T06:47:32Z</time>
      </trkpt>
      <trkpt lat="47.78372" lon="-3.66174">
        <ele>14</ele>
        <time>2021-08-31T06:47:33Z</time>
      </trkpt>
      <trkpt lat="47.78367" lon="-3.66161">
        <ele>14</ele>
        <time>2021-08-31T06:47:34Z</time>
      </trkpt>
      <trkpt lat="47.7837" lon="-3.66158">
        <ele>14</ele>
        <time>2021-08-31T06:47:35Z</time>
      </trkpt>
      <trkpt lat="47.78385" lon="-3.6613">
        <ele>14</ele>
        <time>2021-08-31T06:47:36Z</time>
      </trkpt>
      <trkpt lat="47.78386" lon="-3.66128">
        <ele>14</ele>
        <time>2021-08-31T06:47:37Z</time>
      </trkpt>
      <trkpt lat="47.78396" lon="-3.66107">
        <ele>14</ele>
        <time>2021-08-31T06:47:38Z</time>
      </trkpt>
      <trkpt lat="47.78407" lon="-3.66093">
        <ele>21</ele>
        <time>2021-08-31T06:47:39Z</time>
      </trkpt>
      <trkpt lat="47.78422" lon="-3.66066">
        <ele>17</ele>
        <time>2021-08-31T06:47:40Z</time>
      </trkpt>
      <trkpt lat="47.78437" lon="-3.66053">
        <ele>17</ele>
        <time>2021-08-31T06:47:41Z</time>
      </trkpt>
      <trkpt lat="47.78452" lon="-3.6605">
        <ele>17</ele>
        <time>2021-08-31T06:47:42Z</time>
      </trkpt>
      <trkpt lat="47.78467" lon="-3.66032">
        <ele>17</ele>
        <time>2021-08-31T06:47:43Z</time>
      </trkpt>
      <trkpt lat="47.78511" lon="-3.65997">
        <ele>20</ele>
        <time>2021-08-31T06:47:44Z</time>
      </trkpt>
      <trkpt lat="47.78528" lon="-3.65987">
        <ele>20</ele>
        <time>2021-08-31T06:47:45Z</time>
      </trkpt>
      <trkpt lat="47.78542" lon="-3.65975">
        <ele>20</ele>
        <time>2021-08-31T06:47:46Z</time>
      </trkpt>
      <trkpt lat="47.78545" lon="-3.65969">
        <ele>20</ele>
        <time>2021-08-31T06:47:47Z</time>
      </trkpt>
      <trkpt lat="47.78547" lon="-3.65957">
        <ele>20</ele>
        <time>2021-08-31T06:47:48Z</time>
      </trkpt>
      <trkpt lat="47.78552" lon="-3.65912">
        <ele>24</ele>
        <time>2021-08-31T06:47:49Z</time>
      </trkpt>
      <trkpt lat="47.78558" lon="-3.65855">
        <ele>24</ele>
        <time>2021-08-31T06:47:50Z</time>
      </trkpt>
      <trkpt lat="47.7857" lon="-3.65834">
        <ele>27</ele>
        <time>2021-08-31T06:47:51Z</time>
      </trkpt>
      <trkpt lat="47.78581" lon="-3.65766">
        <ele>28</ele>
        <time>2021-08-31T06:47:52Z</time>
      </trkpt>
      <trkpt lat="47.78595" lon="-3.65704">
        <ele>24</ele>
        <time>2021-08-31T06:47:53Z</time>
      </trkpt>
      <trkpt lat="47.78609" lon="-3.65662">
        <ele>28</ele>
        <time>2021-08-31T06:47:54Z</time>
      </trkpt>
      <trkpt lat="47.78593" lon="-3.65642">
        <ele>28</ele>
        <time>2021-08-31T06:47:55Z</time>
      </trkpt>
      <trkpt lat="47.78568" lon="-3.65623">
        <ele>31</ele>
        <time>2021-08-31T06:47:56Z</time>
      </trkpt>
      <trkpt lat="47.78537" lon="-3.65607">
        <ele>31</ele>
        <time>2021-08-31T06:47:57Z</time>
      </trkpt>
      <trkpt lat="47.78537" lon="-3.65606">
        <ele>31</ele>
        <time>2021-08-31T06:47:58Z</time>
      </trkpt>
      <trkpt lat="47.78538" lon="-3.65603">
        <ele>31</ele>
        <time>2021-08-31T06:47:59Z</time>
      </trkpt>
      <trkpt lat="47.78529" lon="-3.6564">
        <ele>31</ele>
        <time>2021-08-31T06:48:00Z</time>
      </trkpt>
      <trkpt lat="47.78443" lon="-3.65613">
        <ele>32</ele>
        <time>2021-08-31T06:48:01Z</time>
      </trkpt>
      <trkpt lat="47.78442" lon="-3.65613">
        <ele>32</ele>
        <time>2021-08-31T06:48:02Z</time>
      </trkpt>
      <trkpt lat="47.78446" lon="-3.65555">
        <ele>34</ele>
        <time>2021-08-31T06:48:03Z</time>
      </trkpt>
      <trkpt lat="47.78447" lon="-3.65549">
        <ele>34</ele>
        <time>2021-08-31T06:48:04Z</time>
      </trkpt>
      <trkpt lat="47.78449" lon="-3.65528">
        <ele>34</ele>
        <time>2021-08-31T06:48:05Z</time>
      </trkpt>
      <trkpt lat="47.78452" lon="-3.65482">
        <ele>33</ele>
        <time>2021-08-31T06:48:06Z</time>
      </trkpt>
      <trkpt lat="47.78456" lon="-3.65424">
        <ele>31</ele>
        <time>2021-08-31T06:48:07Z</time>
      </trkpt>
      <trkpt lat="47.78461" lon="-3.65369">
        <ele>31</ele>
        <time>2021-08-31T06:48:08Z</time>
      </trkpt>
      <trkpt lat="47.78467" lon="-3.65308">
        <ele>31</ele>
        <time>2021-08-31T06:48:09Z</time>
      </trkpt>
      <trkpt lat="47.78467" lon="-3.65308">
        <ele>31</ele>
        <time>2021-08-31T06:48:10Z</time>
      </trkpt>
      <trkpt lat="47.78447" lon="-3.65303">
        <ele>31</ele>
        <time>2021-08-31T06:48:11Z</time>
      </trkpt>
      <trkpt lat="47.78333" lon="-3.65294">
        <ele>27</ele>
        <time>2021-08-31T06:48:12Z</time>
      </trkpt>
      <trkpt lat="47.78292" lon="-3.65292">
        <ele>27</ele>
        <time>2021-08-31T06:48:13Z</time>
      </trkpt>
      <trkpt lat="47.78223" lon="-3.65275">
        <ele>27</ele>
        <time>2021-08-31T06:48:14Z</time>
      </trkpt>
      <trkpt lat="47.78233" lon="-3.65277">
        <ele>27</ele>
        <time>2021-08-31T06:48:15Z</time>
      </trkpt>
      <trkpt lat="47.78189" lon="-3.65259">
        <ele>25</ele>
        <time>2021-08-31T06:48:16Z</time>
      </trkpt>
      <trkpt lat="47.78188" lon="-3.65257">
        <ele>25</ele>
        <time>2021-08-31T06:48:17Z</time>
      </trkpt>
      <trkpt lat="47.78182" lon="-3.65245">
        <ele>25</ele>
        <time>2021-08-31T06:48:18Z</time>
      </trkpt>
      <trkpt lat="47.78169" lon="-3.65199">
        <ele>24</ele>
        <time>2021-08-31T06:48:19Z</time>
      </trkpt>
      <trkpt lat="47.78166" lon="-3.65173">
        <ele>20</ele>
        <time>2021-08-31T06:48:20Z</time>
      </trkpt>
      <trkpt lat="47.78159" lon="-3.65165">
        <ele>20</ele>
        <time>2021-08-31T06:48:21Z</time>
      </trkpt>
      <trkpt lat="47.78126" lon="-3.65175">
        <ele>20</ele>
        <time>2021-08-31T06:48:22Z</time>
      </trkpt>
      <trkpt lat="47.78097" lon="-3.65198">
        <ele>24</ele>
        <time>2021-08-31T06:48:23Z</time>
      </trkpt>
      <trkpt lat="47.78091" lon="-3.65202">
        <ele>24</ele>
        <time>2021-08-31T06:48:24Z</time>
      </trkpt>
      <trkpt lat="47.78088" lon="-3.65192">
        <ele>19</ele>
        <time>2021-08-31T06:48:25Z</time>
      </trkpt>
      <trkpt lat="47.78059" lon="-3.6519">
        <ele>19</ele>
        <time>2021-08-31T06:48:26Z</time>
      </trkpt>
      <trkpt lat="47.78057" lon="-3.65188">
        <ele>19</ele>
        <time>2021-08-31T06:48:27Z</time>
      </trkpt>
      <trkpt lat="47.78034" lon="-3.65165">
        <ele>13</ele>
        <time>2021-08-31T06:48:28Z</time>
      </trkpt>
      <trkpt lat="47.78033" lon="-3.65167">
        <ele>13</ele>
        <time>2021-08-31T06:48:29Z</time>
      </trkpt>
      <trkpt lat="47.78021" lon="-3.65173">
        <ele>13</ele>
        <time>2021-08-31T06:48:30Z</time>
      </trkpt>
      <trkpt lat="47.7802" lon="-3.65173">
        <ele>13</ele>
        <time>2021-08-31T06:48:31Z</time>
      </trkpt>
      <trkpt lat="47.7802" lon="-3.65223">
        <ele>19</ele>
        <time>2021-08-31T06:48:32Z</time>
      </trkpt>
      <trkpt lat="47.78021" lon="-3.65249">
        <ele>19</ele>
        <time>2021-08-31T06:48:33Z</time>
      </trkpt>
      <trkpt lat="47.78022" lon="-3.65261">
        <ele>19</ele>
        <time>2021-08-31T06:48:34Z</time>
      </trkpt>
      <trkpt lat="47.78025" lon="-3.65266">
        <ele>19</ele>
        <time>2021-08-31T06:48:35Z</time>
      </trkpt>
      <trkpt lat="47.78025" lon="-3.65267">
        <ele>19</ele>
        <time>2021-08-31T06:48:36Z</time>
      </trkpt>
      <trkpt lat="47.78035" lon="-3.65267">
        <ele>19</ele>
        <time>2021-08-31T06:48:37Z</time>
      </trkpt>
      <trkpt lat="47.78053" lon="-3.65268">
        <ele>19</ele>
        <time>2021-08-31T06:48:38Z</time>
      </trkpt>
      <trkpt lat="47.7806" lon="-3.65269">
        <ele>19</ele>
        <time>2021-08-31T06:48:39Z</time>
      </trkpt>
      <trkpt lat="47.78066" lon="-3.6527">
        <ele>19</ele>
        <time>2021-08-31T06:48:40Z</time>
      </trkpt>
      <trkpt lat="47.78067" lon="-3.65273">
        <ele>19</ele>
        <time>2021-08-31T06:48:41Z</time>
      </trkpt>
      <trkpt lat="47.78068" lon="-3.65276">
        <ele>19</ele>
        <time>2021-08-31T06:48:42Z</time>
      </trkpt>
      <trkpt lat="47.78068" lon="-3.65292">
        <ele>19</ele>
        <time>2021-08-31T06:48:43Z</time>
      </trkpt>
      <trkpt lat="47.78068" lon="-3.65304">
        <ele>19</ele>
        <time>2021-08-31T06:48:44Z</time>
      </trkpt>
      <trkpt lat="47.78068" lon="-3.65335">
        <ele>19</ele>
        <time>2021-08-31T06:48:45Z</time>
      </trkpt>
      <trkpt lat="47.78069" lon="-3.65351">
        <ele>19</ele>
        <time>2021-08-31T06:48:46Z</time>
      </trkpt>
      <trkpt lat="47.78071" lon="-3.65363">
        <ele>17</ele>
        <time>2021-08-31T06:48:47Z</time>
      </trkpt>
      <trkpt lat="47.78072" lon="-3.65369">
        <ele>17</ele>
        <time>2021-08-31T06:48:48Z</time>
      </trkpt>
      <trkpt lat="47.78073" lon="-3.65369">
        <ele>17</ele>
        <time>2021-08-31T06:48:49Z</time>
      </trkpt>
      <trkpt lat="47.78085" lon="-3.65362">
        <ele>17</ele>
        <time>2021-08-31T06:48:50Z</time>
      </trkpt>
      <trkpt lat="47.78104" lon="-3.65339">
        <ele>26</ele>
        <time>2021-08-31T06:48:51Z</time>
      </trkpt>
      <trkpt lat="47.78114" lon="-3.65324">
        <ele>26</ele>
        <time>2021-08-31T06:48:52Z</time>
      </trkpt>
      <trkpt lat="47.78127" lon="-3.65304">
        <ele>26</ele>
        <time>2021-08-31T06:48:53Z</time>
      </trkpt>
      <trkpt lat="47.7814" lon="-3.65291">
        <ele>26</ele>
        <time>2021-08-31T06:48:54Z</time>
      </trkpt>
      <trkpt lat="47.78165" lon="-3.65266">
        <ele>24</ele>
        <time>2021-08-31T06:48:55Z</time>
      </trkpt>
      <trkpt lat="47.7817" lon="-3.65261">
        <ele>24</ele>
        <time>2021-08-31T06:48:56Z</time>
      </trkpt>
      <trkpt lat="47.78204" lon="-3.65252">
        <ele>25</ele>
        <time>2021-08-31T06:48:57Z</time>
      </trkpt>
      <trkpt lat="47.78237" lon="-3.65258">
        <ele>25</ele>
        <time>2021-08-31T06:48:58Z</time>
      </trkpt>
      <trkpt lat="47.7825" lon="-3.6526">
        <ele>25</ele>
        <time>2021-08-31T06:48:59Z</time>
      </trkpt>
      <trkpt lat="47.78285" lon="-3.65278">
        <ele>27</ele>
        <time>2021-08-31T06:49:00Z</time>
      </trkpt>
      <trkpt lat="47.78285" lon="-3.65278">
        <ele>27</ele>
        <time>2021-08-31T06:49:01Z</time>
      </trkpt>
      <trkpt lat="47.78339" lon="-3.65282">
        <ele>30</ele>
        <time>2021-08-31T06:49:02Z</time>
      </trkpt>
      <trkpt lat="47.78339" lon="-3.65288">
        <ele>30</ele>
        <time>2021-08-31T06:49:03Z</time>
      </trkpt>
      <trkpt lat="47.7836" lon="-3.65289">
        <ele>30</ele>
        <time>2021-08-31T06:49:04Z</time>
      </trkpt>
      <trkpt lat="47.78374" lon="-3.65285">
        <ele>30</ele>
        <time>2021-08-31T06:49:05Z</time>
      </trkpt>
      <trkpt lat="47.78469" lon="-3.65298">
        <ele>31</ele>
        <time>2021-08-31T06:49:06Z</time>
      </trkpt>
      <trkpt lat="47.78481" lon="-3.65291">
        <ele>31</ele>
        <time>2021-08-31T06:49:07Z</time>
      </trkpt>
      <trkpt lat="47.78482" lon="-3.65293">
        <ele>31</ele>
        <time>2021-08-31T06:49:08Z</time>
      </trkpt>
      <trkpt lat="47.78575" lon="-3.6526">
        <ele>31</ele>
        <time>2021-08-31T06:49:09Z</time>
      </trkpt>
      <trkpt lat="47.78629" lon="-3.65226">
        <ele>33</ele>
        <time>2021-08-31T06:49:10Z</time>
      </trkpt>
      <trkpt lat="47.78647" lon="-3.65215">
        <ele>33</ele>
        <time>2021-08-31T06:49:11Z</time>
      </trkpt>
      <trkpt lat="47.78648" lon="-3.65214">
        <ele>33</ele>
        <time>2021-08-31T06:49:12Z</time>
      </trkpt>
      <trkpt lat="47.78645" lon="-3.6521">
        <ele>33</ele>
        <time>2021-08-31T06:49:13Z</time>
      </trkpt>
      <trkpt lat="47.78669" lon="-3.6518">
        <ele>32</ele>
        <time>2021-08-31T06:49:14Z</time>
      </trkpt>
      <trkpt lat="47.78684" lon="-3.65124">
        <ele>35</ele>
        <time>2021-08-31T06:49:15Z</time>
      </trkpt>
      <trkpt lat="47.78689" lon="-3.64926">
        <ele>29</ele>
        <time>2021-08-31T06:49:16Z</time>
      </trkpt>
      <trkpt lat="47.78689" lon="-3.64925">
        <ele>29</ele>
        <time>2021-08-31T06:49:17Z</time>
      </trkpt>
      <trkpt lat="47.78672" lon="-3.64926">
        <ele>29</ele>
        <time>2021-08-31T06:49:18Z</time>
      </trkpt>
      <trkpt lat="47.78634" lon="-3.64926">
        <ele>30</ele>
        <time>2021-08-31T06:49:19Z</time>
      </trkpt>
      <trkpt lat="47.78607" lon="-3.64919">
        <ele>30</ele>
        <time>2021-08-31T06:49:20Z</time>
      </trkpt>
      <trkpt lat="47.78589" lon="-3.64914">
        <ele>30</ele>
        <time>2021-08-31T06:49:21Z</time>
      </trkpt>
      <trkpt lat="47.78574" lon="-3.64905">
        <ele>26</ele>
        <time>2021-08-31T06:49:22Z</time>
      </trkpt>
      <trkpt lat="47.78449" lon="-3.64835">
        <ele>20</ele>
        <time>2021-08-31T06:49:23Z</time>
      </trkpt>
      <trkpt lat="47.78428" lon="-3.64824">
        <ele>20</ele>
        <time>2021-08-31T06:49:24Z</time>
      </trkpt>
      <trkpt lat="47.7846" lon="-3.64702">
        <ele>17</ele>
        <time>2021-08-31T06:49:25Z</time>
      </trkpt>
      <trkpt lat="47.78467" lon="-3.64688">
        <ele>17</ele>
        <time>2021-08-31T06:49:26Z</time>
      </trkpt>
      <trkpt lat="47.78483" lon="-3.64689">
        <ele>17</ele>
        <time>2021-08-31T06:49:27Z</time>
      </trkpt>
      <trkpt lat="47.78508" lon="-3.64698">
        <ele>24</ele>
        <time>2021-08-31T06:49:28Z</time>
      </trkpt>
      <trkpt lat="47.78541" lon="-3.64715">
        <ele>24</ele>
        <time>2021-08-31T06:49:29Z</time>
      </trkpt>
      <trkpt lat="47.78554" lon="-3.64715">
        <ele>24</ele>
        <time>2021-08-31T06:49:30Z</time>
      </trkpt>
      <trkpt lat="47.786" lon="-3.64704">
        <ele>26</ele>
        <time>2021-08-31T06:49:31Z</time>
      </trkpt>
      <trkpt lat="47.7862" lon="-3.64711">
        <ele>26</ele>
        <time>2021-08-31T06:49:32Z</time>
      </trkpt>
      <trkpt lat="47.78681" lon="-3.6473">
        <ele>24</ele>
        <time>2021-08-31T06:49:33Z</time>
      </trkpt>
      <trkpt lat="47.78691" lon="-3.64725">
        <ele>24</ele>
        <time>2021-08-31T06:49:34Z</time>
      </trkpt>
      <trkpt lat="47.78696" lon="-3.64713">
        <ele>24</ele>
        <time>2021-08-31T06:49:35Z</time>
      </trkpt>
      <trkpt lat="47.78698" lon="-3.64708">
        <ele>24</ele>
        <time>2021-08-31T06:49:36Z</time>
      </trkpt>
      <trkpt lat="47.78695" lon="-3.64694">
        <ele>24</ele>
        <time>2021-08-31T06:49:37Z</time>
      </trkpt>
      <trkpt lat="47.78707" lon="-3.64621">
        <ele>23</ele>
        <time>2021-08-31T06:49:38Z</time>
      </trkpt>
      <trkpt lat="47.78717" lon="-3.64611">
        <ele>23</ele>
        <time>2021-08-31T06:49:39Z</time>
      </trkpt>
      <trkpt lat="47.78752" lon="-3.6462">
        <ele>23</ele>
        <time>2021-08-31T06:49:40Z</time>
      </trkpt>
      <trkpt lat="47.78779" lon="-3.64619">
        <ele>25</ele>
        <time>2021-08-31T06:49:41Z</time>
      </trkpt>
      <trkpt lat="47.78794" lon="-3.64611">
        <ele>25</ele>
        <time>2021-08-31T06:49:42Z</time>
      </trkpt>
      <trkpt lat="47.78813" lon="-3.64613">
        <ele>25</ele>
        <time>2021-08-31T06:49:43Z</time>
      </trkpt>
      <trkpt lat="47.78847" lon="-3.6463">
        <ele>28</ele>
        <time>2021-08-31T06:49:44Z</time>
      </trkpt>
      <trkpt lat="47.78852" lon="-3.6463">
        <ele>28</ele>
        <time>2021-08-31T06:49:45Z</time>
      </trkpt>
      <trkpt lat="47.78866" lon="-3.64631">
        <ele>28</ele>
        <time>2021-08-31T06:49:46Z</time>
      </trkpt>
      <trkpt lat="47.78873" lon="-3.64632">
        <ele>28</ele>
        <time>2021-08-31T06:49:47Z</time>
      </trkpt>
      <trkpt lat="47.78899" lon="-3.64627">
        <ele>28</ele>
        <time>2021-08-31T06:49:48Z</time>
      </trkpt>
      <trkpt lat="47.78935" lon="-3.64624">
        <ele>29</ele>
        <time>2021-08-31T06:49:49Z</time>
      </trkpt>
      <trkpt lat="47.78954" lon="-3.64624">
        <ele>29</ele>
        <time>2021-08-31T06:49:50Z</time>
      </trkpt>
      <trkpt lat="47.78965" lon="-3.64589">
        <ele>27</ele>
        <time>2021-08-31T06:49:51Z</time>
      </trkpt>
      <trkpt lat="47.7896" lon="-3.64579">
        <ele>27</ele>
        <time>2021-08-31T06:49:52Z</time>
      </trkpt>
      <trkpt lat="47.78978" lon="-3.64453">
        <ele>23</ele>
        <time>2021-08-31T06:49:53Z</time>
      </trkpt>
      <trkpt lat="47.7898" lon="-3.64447">
        <ele>23</ele>
        <time>2021-08-31T06:49:54Z</time>
      </trkpt>
      <trkpt lat="47.78993" lon="-3.64449">
        <ele>23</ele>
        <time>2021-08-31T06:49:55Z</time>
      </trkpt>
      <trkpt lat="47.79097" lon="-3.64465">
        <ele>27</ele>
        <time>2021-08-31T06:49:56Z</time>
      </trkpt>
      <trkpt lat="47.79109" lon="-3.64448">
        <ele>27</ele>
        <time>2021-08-31T06:49:57Z</time>
      </trkpt>
      <trkpt lat="47.79122" lon="-3.64387">
        <ele>24</ele>
        <time>2021-08-31T06:49:58Z</time>
      </trkpt>
      <trkpt lat="47.79126" lon="-3.64381">
        <ele>24</ele>
        <time>2021-08-31T06:49:59Z</time>
      </trkpt>
      <trkpt lat="47.79151" lon="-3.64371">
        <ele>24</ele>
        <time>2021-08-31T06:50:00Z</time>
      </trkpt>
      <trkpt lat="47.79182" lon="-3.64364">
        <ele>29</ele>
        <time>2021-08-31T06:50:01Z</time>
      </trkpt>
      <trkpt lat="47.79213" lon="-3.64358">
        <ele>29</ele>
        <time>2021-08-31T06:50:02Z</time>
      </trkpt>
      <trkpt lat="47.79232" lon="-3.64345">
        <ele>24</ele>
        <time>2021-08-31T06:50:03Z</time>
      </trkpt>
      <trkpt lat="47.79249" lon="-3.64348">
        <ele>24</ele>
        <time>2021-08-31T06:50:04Z</time>
      </trkpt>
      <trkpt lat="47.79266" lon="-3.6435">
        <ele>28</ele>
        <time>2021-08-31T06:50:05Z</time>
      </trkpt>
      <trkpt lat="47.7927" lon="-3.64345">
        <ele>28</ele>
        <time>2021-08-31T06:50:06Z</time>
      </trkpt>
      <trkpt lat="47.79271" lon="-3.64343">
        <ele>28</ele>
        <time>2021-08-31T06:50:07Z</time>
      </trkpt>
      <trkpt lat="47.79278" lon="-3.64324">
        <ele>28</ele>
        <time>2021-08-31T06:50:08Z</time>
      </trkpt>
      <trkpt lat="47.7929" lon="-3.64243">
        <ele>30</ele>
        <time>2021-08-31T06:50:09Z</time>
      </trkpt>
      <trkpt lat="47.79299" lon="-3.64184">
        <ele>33</ele>
        <time>2021-08-31T06:50:10Z</time>
      </trkpt>
      <trkpt lat="47.793" lon="-3.64169">
        <ele>33</ele>
        <time>2021-08-31T06:50:11Z</time>
      </trkpt>
      <trkpt lat="47.79301" lon="-3.64153">
        <ele>33</ele>
        <time>2021-08-31T06:50:12Z</time>
      </trkpt>
      <trkpt lat="47.79309" lon="-3.6411">
        <ele>33</ele>
        <time>2021-08-31T06:50:13Z</time>
      </trkpt>
      <trkpt lat="47.79313" lon="-3.64089">
        <ele>35</ele>
        <time>2021-08-31T06:50:14Z</time>
      </trkpt>
      <trkpt lat="47.79324" lon="-3.64036">
        <ele>35</ele>
        <time>2021-08-31T06:50:15Z</time>
      </trkpt>
      <trkpt lat="47.79334" lon="-3.64038">
        <ele>35</ele>
        <time>2021-08-31T06:50:16Z</time>
      </trkpt>
      <trkpt lat="47.79376" lon="-3.64063">
        <ele>39</ele>
        <time>2021-08-31T06:50:17Z</time>
      </trkpt>
      <trkpt lat="47.79359" lon="-3.64017">
        <ele>35</ele>
        <time>2021-08-31T06:50:18Z</time>
      </trkpt>
      <trkpt lat="47.79354" lon="-3.63965">
        <ele>35</ele>
        <time>2021-08-31T06:50:19Z</time>
      </trkpt>
      <trkpt lat="47.79352" lon="-3.63914">
        <ele>28</ele>
        <time>2021-08-31T06:50:20Z</time>
      </trkpt>
      <trkpt lat="47.79352" lon="-3.63871">
        <ele>28</ele>
        <time>2021-08-31T06:50:21Z</time>
      </trkpt>
      <trkpt lat="47.79351" lon="-3.63842">
        <ele>16</ele>
        <time>2021-08-31T06:50:22Z</time>
      </trkpt>
      <trkpt lat="47.79345" lon="-3.63825">
        <ele>16</ele>
        <time>2021-08-31T06:50:23Z</time>
      </trkpt>
      <trkpt lat="47.79343" lon="-3.63821">
        <ele>16</ele>
        <time>2021-08-31T06:50:24Z</time>
      </trkpt>
      <trkpt lat="47.79332" lon="-3.63809">
        <ele>12</ele>
        <time>2021-08-31T06:50:25Z</time>
      </trkpt>
      <trkpt lat="47.79308" lon="-3.63808">
        <ele>12</ele>
        <time>2021-08-31T06:50:26Z</time>
      </trkpt>
      <trkpt lat="47.79292" lon="-3.63818">
        <ele>12</ele>
        <time>2021-08-31T06:50:27Z</time>
      </trkpt>
      <trkpt lat="47.79284" lon="-3.63826">
        <ele>12</ele>
        <time>2021-08-31T06:50:28Z</time>
      </trkpt>
      <trkpt lat="47.79266" lon="-3.63793">
        <ele>12</ele>
        <time>2021-08-31T06:50:29Z</time>
      </trkpt>
      <trkpt lat="47.7929" lon="-3.6376">
        <ele>19</ele>
        <time>2021-08-31T06:50:30Z</time>
      </trkpt>
      <trkpt lat="47.79299" lon="-3.63736">
        <ele>19</ele>
        <time>2021-08-31T06:50:31Z</time>
      </trkpt>
      <trkpt lat="47.79305" lon="-3.63713">
        <ele>19</ele>
        <time>2021-08-31T06:50:32Z</time>
      </trkpt>
      <trkpt lat="47.79308" lon="-3.63691">
        <ele>19</ele>
        <time>2021-08-31T06:50:33Z</time>
      </trkpt>
      <trkpt lat="47.79312" lon="-3.6367">
        <ele>23</ele>
        <time>2021-08-31T06:50:34Z</time>
      </trkpt>
      <trkpt lat="47.79309" lon="-3.63648">
        <ele>23</ele>
        <time>2021-08-31T06:50:35Z</time>
      </trkpt>
      <trkpt lat="47.79303" lon="-3.63654">
        <ele>23</ele>
        <time>2021-08-31T06:50:36Z</time>
      </trkpt>
      <trkpt lat="47.79303" lon="-3.63655">
        <ele>23</ele>
        <time>2021-08-31T06:50:37Z</time>
      </trkpt>
      <trkpt lat="47.793" lon="-3.63657">
        <ele>23</ele>
        <time>2021-08-31T06:50:38Z</time>
      </trkpt>
      <trkpt lat="47.79285" lon="-3.63675">
        <ele>23</ele>
        <time>2021-08-31T06:50:39Z</time>
      </trkpt>
      <trkpt lat="47.79255" lon="-3.63715">
        <ele>27</ele>
        <time>2021-08-31T06:50:40Z</time>
      </trkpt>
      <trkpt lat="47.7922" lon="-3.63747">
        <ele>27</ele>
        <time>2021-08-31T06:50:41Z</time>
      </trkpt>
      <trkpt lat="47.79184" lon="-3.63776">
        <ele>19</ele>
        <time>2021-08-31T06:50:42Z</time>
      </trkpt>
      <trkpt lat="47.79153" lon="-3.638">
        <ele>20</ele>
        <time>2021-08-31T06:50:43Z</time>
      </trkpt>
      <trkpt lat="47.79136" lon="-3.63812">
        <ele>20</ele>
        <time>2021-08-31T06:50:44Z</time>
      </trkpt>
      <trkpt lat="47.79125" lon="-3.63814">
        <ele>20</ele>
        <time>2021-08-31T06:50:45Z</time>
      </trkpt>
      <trkpt lat="47.79095" lon="-3.63816">
        <ele>20</ele>
        <time>2021-08-31T06:50:46Z</time>
      </trkpt>
      <trkpt lat="47.79051" lon="-3.63816">
        <ele>20</ele>
        <time>2021-08-31T06:50:47Z</time>
      </trkpt>
      <trkpt lat="47.79042" lon="-3.63814">
        <ele>20</ele>
        <time>2021-08-31T06:50:48Z</time>
      </trkpt>
      <trkpt lat="47.79033" lon="-3.63809">
        <ele>20</ele>
        <time>2021-08-31T06:50:49Z</time>
      </trkpt>
      <trkpt lat="47.79023" lon="-3.638">
        <ele>20</ele>
        <time>2021-08-31T06:50:50Z</time>
      </trkpt>
      <trkpt lat="47.79016" lon="-3.6379">
        <ele>20</ele>
        <time>2021-08-31T06:50:51Z</time>
      </trkpt>
      <trkpt lat="47.79013" lon="-3.63786">
        <ele>20</ele>
        <time>2021-08-31T06:50:52Z</time>
      </trkpt>
      <trkpt lat="47.79001" lon="-3.63761">
        <ele>28</ele>
        <time>2021-08-31T06:50:53Z</time>
      </trkpt>
      <trkpt lat="47.78996" lon="-3.63737">
        <ele>28</ele>
        <time>2021-08-31T06:50:54Z</time>
      </trkpt>
      <trkpt lat="47.7899" lon="-3.63708">
        <ele>28</ele>
        <time>2021-08-31T06:50:55Z</time>
      </trkpt>
      <trkpt lat="47.78986" lon="-3.637">
        <ele>28</ele>
        <time>2021-08-31T06:50:56Z</time>
      </trkpt>
      <trkpt lat="47.78981" lon="-3.63692">
        <ele>28</ele>
        <time>2021-08-31T06:50:57Z</time>
      </trkpt>
      <trkpt lat="47.78978" lon="-3.63689">
        <ele>28</ele>
        <time>2021-08-31T06:50:58Z</time>
      </trkpt>
      <trkpt lat="47.78971" lon="-3.63686">
        <ele>28</ele>
        <time>2021-08-31T06:50:59Z</time>
      </trkpt>
      <trkpt lat="47.78965" lon="-3.63684">
        <ele>25</ele>
        <time>2021-08-31T06:51:00Z</time>
      </trkpt>
      <trkpt lat="47.78962" lon="-3.63684">
        <ele>25</ele>
        <time>2021-08-31T06:51:01Z</time>
      </trkpt>
      <trkpt lat="47.78951" lon="-3.63684">
        <ele>25</ele>
        <time>2021-08-31T06:51:02Z</time>
      </trkpt>
      <trkpt lat="47.78947" lon="-3.63685">
        <ele>25</ele>
        <time>2021-08-31T06:51:03Z</time>
      </trkpt>
      <trkpt lat="47.7894" lon="-3.63689">
        <ele>28</ele>
        <time>2021-08-31T06:51:04Z</time>
      </trkpt>
      <trkpt lat="47.78932" lon="-3.63692">
        <ele>28</ele>
        <time>2021-08-31T06:51:05Z</time>
      </trkpt>
      <trkpt lat="47.78919" lon="-3.63698">
        <ele>28</ele>
        <time>2021-08-31T06:51:06Z</time>
      </trkpt>
      <trkpt lat="47.78906" lon="-3.63698">
        <ele>28</ele>
        <time>2021-08-31T06:51:07Z</time>
      </trkpt>
      <trkpt lat="47.78886" lon="-3.63681">
        <ele>30</ele>
        <time>2021-08-31T06:51:08Z</time>
      </trkpt>
      <trkpt lat="47.78872" lon="-3.63647">
        <ele>30</ele>
        <time>2021-08-31T06:51:09Z</time>
      </trkpt>
      <trkpt lat="47.78886" lon="-3.63603">
        <ele>30</ele>
        <time>2021-08-31T06:51:10Z</time>
      </trkpt>
      <trkpt lat="47.78898" lon="-3.63563">
        <ele>33</ele>
        <time>2021-08-31T06:51:11Z</time>
      </trkpt>
      <trkpt lat="47.78901" lon="-3.63553">
        <ele>33</ele>
        <time>2021-08-31T06:51:12Z</time>
      </trkpt>
      <trkpt lat="47.78906" lon="-3.63535">
        <ele>33</ele>
        <time>2021-08-31T06:51:13Z</time>
      </trkpt>
      <trkpt lat="47.78916" lon="-3.63503">
        <ele>34</ele>
        <time>2021-08-31T06:51:14Z</time>
      </trkpt>
      <trkpt lat="47.78923" lon="-3.63485">
        <ele>30</ele>
        <time>2021-08-31T06:51:15Z</time>
      </trkpt>
      <trkpt lat="47.78916" lon="-3.63477">
        <ele>34</ele>
        <time>2021-08-31T06:51:16Z</time>
      </trkpt>
      <trkpt lat="47.78914" lon="-3.63474">
        <ele>34</ele>
        <time>2021-08-31T06:51:17Z</time>
      </trkpt>
      <trkpt lat="47.78907" lon="-3.6346">
        <ele>34</ele>
        <time>2021-08-31T06:51:18Z</time>
      </trkpt>
      <trkpt lat="47.78898" lon="-3.63439">
        <ele>34</ele>
        <time>2021-08-31T06:51:19Z</time>
      </trkpt>
      <trkpt lat="47.78894" lon="-3.63432">
        <ele>37</ele>
        <time>2021-08-31T06:51:20Z</time>
      </trkpt>
      <trkpt lat="47.78888" lon="-3.63425">
        <ele>37</ele>
        <time>2021-08-31T06:51:21Z</time>
      </trkpt>
      <trkpt lat="47.78879" lon="-3.63419">
        <ele>37</ele>
        <time>2021-08-31T06:51:22Z</time>
      </trkpt>
      <trkpt lat="47.78873" lon="-3.63419">
        <ele>37</ele>
        <time>2021-08-31T06:51:23Z</time>
      </trkpt>
      <trkpt lat="47.7887" lon="-3.63417">
        <ele>37</ele>
        <time>2021-08-31T06:51:24Z</time>
      </trkpt>
      <trkpt lat="47.78867" lon="-3.63416">
        <ele>37</ele>
        <time>2021-08-31T06:51:25Z</time>
      </trkpt>
      <trkpt lat="47.78856" lon="-3.63415">
        <ele>37</ele>
        <time>2021-08-31T06:51:26Z</time>
      </trkpt>
      <trkpt lat="47.78852" lon="-3.63412">
        <ele>37</ele>
        <time>2021-08-31T06:51:27Z</time>
      </trkpt>
      <trkpt lat="47.78848" lon="-3.63406">
        <ele>37</ele>
        <time>2021-08-31T06:51:28Z</time>
      </trkpt>
      <trkpt lat="47.78841" lon="-3.63388">
        <ele>37</ele>
        <time>2021-08-31T06:51:29Z</time>
      </trkpt>
      <trkpt lat="47.78837" lon="-3.63373">
        <ele>34</ele>
        <time>2021-08-31T06:51:30Z</time>
      </trkpt>
      <trkpt lat="47.78834" lon="-3.63358">
        <ele>34</ele>
        <time>2021-08-31T06:51:31Z</time>
      </trkpt>
      <trkpt lat="47.78832" lon="-3.63352">
        <ele>34</ele>
        <time>2021-08-31T06:51:32Z</time>
      </trkpt>
      <trkpt lat="47.78832" lon="-3.63341">
        <ele>34</ele>
        <time>2021-08-31T06:51:33Z</time>
      </trkpt>
      <trkpt lat="47.78833" lon="-3.63327">
        <ele>34</ele>
        <time>2021-08-31T06:51:34Z</time>
      </trkpt>
      <trkpt lat="47.78834" lon="-3.6331">
        <ele>34</ele>
        <time>2021-08-31T06:51:35Z</time>
      </trkpt>
      <trkpt lat="47.78835" lon="-3.6328">
        <ele>34</ele>
        <time>2021-08-31T06:51:36Z</time>
      </trkpt>
      <trkpt lat="47.78797" lon="-3.63274">
        <ele>34</ele>
        <time>2021-08-31T06:51:37Z</time>
      </trkpt>
      <trkpt lat="47.78759" lon="-3.63268">
        <ele>35</ele>
        <time>2021-08-31T06:51:38Z</time>
      </trkpt>
      <trkpt lat="47.78746" lon="-3.63212">
        <ele>33</ele>
        <time>2021-08-31T06:51:39Z</time>
      </trkpt>
      <trkpt lat="47.78736" lon="-3.63171">
        <ele>32</ele>
        <time>2021-08-31T06:51:40Z</time>
      </trkpt>
      <trkpt lat="47.78593" lon="-3.63265">
        <ele>30</ele>
        <time>2021-08-31T06:51:41Z</time>
      </trkpt>
      <trkpt lat="47.78567" lon="-3.63282">
        <ele>28</ele>
        <time>2021-08-31T06:51:42Z</time>
      </trkpt>
      <trkpt lat="47.78543" lon="-3.63351">
        <ele>28</ele>
        <time>2021-08-31T06:51:43Z</time>
      </trkpt>
      <trkpt lat="47.78548" lon="-3.63376">
        <ele>28</ele>
        <time>2021-08-31T06:51:44Z</time>
      </trkpt>
      <trkpt lat="47.78547" lon="-3.63377">
        <ele>28</ele>
        <time>2021-08-31T06:51:45Z</time>
      </trkpt>
      <trkpt lat="47.78548" lon="-3.63416">
        <ele>28</ele>
        <time>2021-08-31T06:51:46Z</time>
      </trkpt>
      <trkpt lat="47.78524" lon="-3.63455">
        <ele>29</ele>
        <time>2021-08-31T06:51:47Z</time>
      </trkpt>
      <trkpt lat="47.7849" lon="-3.63481">
        <ele>25</ele>
        <time>2021-08-31T06:51:48Z</time>
      </trkpt>
      <trkpt lat="47.78462" lon="-3.63525">
        <ele>27</ele>
        <time>2021-08-31T06:51:49Z</time>
      </trkpt>
      <trkpt lat="47.78466" lon="-3.63592">
        <ele>27</ele>
        <time>2021-08-31T06:51:50Z</time>
      </trkpt>
      <trkpt lat="47.78479" lon="-3.63642">
        <ele>28</ele>
        <time>2021-08-31T06:51:51Z</time>
      </trkpt>
      <trkpt lat="47.78487" lon="-3.63708">
        <ele>30</ele>
        <time>2021-08-31T06:51:52Z</time>
      </trkpt>
      <trkpt lat="47.78487" lon="-3.63708">
        <ele>30</ele>
        <time>2021-08-31T06:51:53Z</time>
      </trkpt>
      <trkpt lat="47.78472" lon="-3.63717">
        <ele>30</ele>
        <time>2021-08-31T06:51:54Z</time>
      </trkpt>
      <trkpt lat="47.78455" lon="-3.63737">
        <ele>30</ele>
        <time>2021-08-31T06:51:55Z</time>
      </trkpt>
      <trkpt lat="47.78435" lon="-3.63779">
        <ele>30</ele>
        <time>2021-08-31T06:51:56Z</time>
      </trkpt>
      <trkpt lat="47.78418" lon="-3.63804">
        <ele>30</ele>
        <time>2021-08-31T06:51:57Z</time>
      </trkpt>
      <trkpt lat="47.78409" lon="-3.6383">
        <ele>30</ele>
        <time>2021-08-31T06:51:58Z</time>
      </trkpt>
      <trkpt lat="47.78384" lon="-3.63851">
        <ele>30</ele>
        <time>2021-08-31T06:51:59Z</time>
      </trkpt>
      <trkpt lat="47.78365" lon="-3.63873">
        <ele>32</ele>
        <time>2021-08-31T06:52:00Z</time>
      </trkpt>
      <trkpt lat="47.78364" lon="-3.63875">
        <ele>32</ele>
        <time>2021-08-31T06:52:01Z</time>
      </trkpt>
      <trkpt lat="47.78346" lon="-3.63895">
        <ele>32</ele>
        <time>2021-08-31T06:52:02Z</time>
      </trkpt>
      <trkpt lat="47.7833" lon="-3.63919">
        <ele>30</ele>
        <time>2021-08-31T06:52:03Z</time>
      </trkpt>
      <trkpt lat="47.78317" lon="-3.63945">
        <ele>29</ele>
        <time>2021-08-31T06:52:04Z</time>
      </trkpt>
      <trkpt lat="47.7831" lon="-3.63964">
        <ele>29</ele>
        <time>2021-08-31T06:52:05Z</time>
      </trkpt>
      <trkpt lat="47.78307" lon="-3.63986">
        <ele>29</ele>
        <time>2021-08-31T06:52:06Z</time>
      </trkpt>
      <trkpt lat="47.78304" lon="-3.64017">
        <ele>29</ele>
        <time>2021-08-31T06:52:07Z</time>
      </trkpt>
      <trkpt lat="47.783" lon="-3.64029">
        <ele>30</ele>
        <time>2021-08-31T06:52:08Z</time>
      </trkpt>
      <trkpt lat="47.783" lon="-3.6403">
        <ele>30</ele>
        <time>2021-08-31T06:52:09Z</time>
      </trkpt>
      <trkpt lat="47.78293" lon="-3.64044">
        <ele>30</ele>
        <time>2021-08-31T06:52:10Z</time>
      </trkpt>
      <trkpt lat="47.78285" lon="-3.64061">
        <ele>30</ele>
        <time>2021-08-31T06:52:11Z</time>
      </trkpt>
      <trkpt lat="47.78281" lon="-3.64073">
        <ele>30</ele>
        <time>2021-08-31T06:52:12Z</time>
      </trkpt>
      <trkpt lat="47.78267" lon="-3.64134">
        <ele>30</ele>
        <time>2021-08-31T06:52:13Z</time>
      </trkpt>
      <trkpt lat="47.78262" lon="-3.64154">
        <ele>30</ele>
        <time>2021-08-31T06:52:14Z</time>
      </trkpt>
      <trkpt lat="47.78257" lon="-3.64171">
        <ele>30</ele>
        <time>2021-08-31T06:52:15Z</time>
      </trkpt>
      <trkpt lat="47.78251" lon="-3.64184">
        <ele>29</ele>
        <time>2021-08-31T06:52:16Z</time>
      </trkpt>
      <trkpt lat="47.78244" lon="-3.64197">
        <ele>30</ele>
        <time>2021-08-31T06:52:17Z</time>
      </trkpt>
      <trkpt lat="47.78215" lon="-3.64234">
        <ele>30</ele>
        <time>2021-08-31T06:52:18Z</time>
      </trkpt>
      <trkpt lat="47.78201" lon="-3.64249">
        <ele>30</ele>
        <time>2021-08-31T06:52:19Z</time>
      </trkpt>
      <trkpt lat="47.78192" lon="-3.64264">
        <ele>30</ele>
        <time>2021-08-31T06:52:20Z</time>
      </trkpt>
      <trkpt lat="47.78188" lon="-3.64275">
        <ele>29</ele>
        <time>2021-08-31T06:52:21Z</time>
      </trkpt>
      <trkpt lat="47.78186" lon="-3.64282">
        <ele>29</ele>
        <time>2021-08-31T06:52:22Z</time>
      </trkpt>
      <trkpt lat="47.78183" lon="-3.64296">
        <ele>29</ele>
        <time>2021-08-31T06:52:23Z</time>
      </trkpt>
      <trkpt lat="47.78183" lon="-3.64312">
        <ele>29</ele>
        <time>2021-08-31T06:52:24Z</time>
      </trkpt>
      <trkpt lat="47.78183" lon="-3.64317">
        <ele>29</ele>
        <time>2021-08-31T06:52:25Z</time>
      </trkpt>
      <trkpt lat="47.78183" lon="-3.64328">
        <ele>29</ele>
        <time>2021-08-31T06:52:26Z</time>
      </trkpt>
      <trkpt lat="47.78161" lon="-3.64334">
        <ele>27</ele>
        <time>2021-08-31T06:52:27Z</time>
      </trkpt>
      <trkpt lat="47.78149" lon="-3.64337">
        <ele>27</ele>
        <time>2021-08-31T06:52:28Z</time>
      </trkpt>
      <trkpt lat="47.78132" lon="-3.6434">
        <ele>27</ele>
        <time>2021-08-31T06:52:29Z</time>
      </trkpt>
      <trkpt lat="47.7811" lon="-3.64336">
        <ele>27</ele>
        <time>2021-08-31T06:52:30Z</time>
      </trkpt>
      <trkpt lat="47.78103" lon="-3.64332">
        <ele>27</ele>
        <time>2021-08-31T06:52:31Z</time>
      </trkpt>
      <trkpt lat="47.78089" lon="-3.64324">
        <ele>27</ele>
        <time>2021-08-31T06:52:32Z</time>
      </trkpt>
      <trkpt lat="47.78065" lon="-3.64311">
        <ele>26</ele>
        <time>2021-08-31T06:52:33Z</time>
      </trkpt>
      <trkpt lat="47.78062" lon="-3.64311">
        <ele>26</ele>
        <time>2021-08-31T06:52:34Z</time>
      </trkpt>
      <trkpt lat="47.78062" lon="-3.64315">
        <ele>26</ele>
        <time>2021-08-31T06:52:35Z</time>
      </trkpt>
      <trkpt lat="47.78059" lon="-3.64349">
        <ele>26</ele>
        <time>2021-08-31T06:52:36Z</time>
      </trkpt>
      <trkpt lat="47.78054" lon="-3.64378">
        <ele>25</ele>
        <time>2021-08-31T06:52:37Z</time>
      </trkpt>
      <trkpt lat="47.78053" lon="-3.64385">
        <ele>25</ele>
        <time>2021-08-31T06:52:38Z</time>
      </trkpt>
      <trkpt lat="47.7805" lon="-3.64404">
        <ele>25</ele>
        <time>2021-08-31T06:52:39Z</time>
      </trkpt>
      <trkpt lat="47.78048" lon="-3.64412">
        <ele>25</ele>
        <time>2021-08-31T06:52:40Z</time>
      </trkpt>
      <trkpt lat="47.78045" lon="-3.64418">
        <ele>25</ele>
        <time>2021-08-31T06:52:41Z</time>
      </trkpt>
      <trkpt lat="47.78027" lon="-3.64443">
        <ele>23</ele>
        <time>2021-08-31T06:52:42Z</time>
      </trkpt>
      <trkpt lat="47.78021" lon="-3.64447">
        <ele>23</ele>
        <time>2021-08-31T06:52:43Z</time>
      </trkpt>
      <trkpt lat="47.78019" lon="-3.64449">
        <ele>23</ele>
        <time>2021-08-31T06:52:44Z</time>
      </trkpt>
      <trkpt lat="47.78013" lon="-3.64453">
        <ele>23</ele>
        <time>2021-08-31T06:52:45Z</time>
      </trkpt>
      <trkpt lat="47.78008" lon="-3.64459">
        <ele>23</ele>
        <time>2021-08-31T06:52:46Z</time>
      </trkpt>
      <trkpt lat="47.78004" lon="-3.6447">
        <ele>22</ele>
        <time>2021-08-31T06:52:47Z</time>
      </trkpt>
      <trkpt lat="47.77993" lon="-3.6448">
        <ele>22</ele>
        <time>2021-08-31T06:52:48Z</time>
      </trkpt>
      <trkpt lat="47.77982" lon="-3.6449">
        <ele>22</ele>
        <time>2021-08-31T06:52:49Z</time>
      </trkpt>
      <trkpt lat="47.7796" lon="-3.64498">
        <ele>22</ele>
        <time>2021-08-31T06:52:50Z</time>
      </trkpt>
      <trkpt lat="47.77951" lon="-3.64501">
        <ele>22</ele>
        <time>2021-08-31T06:52:51Z</time>
      </trkpt>
      <trkpt lat="47.7793" lon="-3.64503">
        <ele>22</ele>
        <time>2021-08-31T06:52:52Z</time>
      </trkpt>
      <trkpt lat="47.77919" lon="-3.64501">
        <ele>21</ele>
        <time>2021-08-31T06:52:53Z</time>
      </trkpt>
      <trkpt lat="47.77906" lon="-3.64505">
        <ele>21</ele>
        <time>2021-08-31T06:52:54Z</time>
      </trkpt>
      <trkpt lat="47.77888" lon="-3.64509">
        <ele>21</ele>
        <time>2021-08-31T06:52:55Z</time>
      </trkpt>
      <trkpt lat="47.77871" lon="-3.64516">
        <ele>21</ele>
        <time>2021-08-31T06:52:56Z</time>
      </trkpt>
      <trkpt lat="47.77854" lon="-3.64523">
        <ele>11</ele>
        <time>2021-08-31T06:52:57Z</time>
      </trkpt>
      <trkpt lat="47.77838" lon="-3.64527">
        <ele>5</ele>
        <time>2021-08-31T06:52:58Z</time>
      </trkpt>
      <trkpt lat="47.77822" lon="-3.64528">
        <ele>5</ele>
        <time>2021-08-31T06:52:59Z</time>
      </trkpt>
      <trkpt lat="47.77806" lon="-3.64529">
        <ele>5</ele>
        <time>2021-08-31T06:53:00Z</time>
      </trkpt>
      <trkpt lat="47.77787" lon="-3.64527">
        <ele>5</ele>
        <time>2021-08-31T06:53:01Z</time>
      </trkpt>
      <trkpt lat="47.77767" lon="-3.64519">
        <ele>5</ele>
        <time>2021-08-31T06:53:02Z</time>
      </trkpt>
      <trkpt lat="47.77752" lon="-3.64516">
        <ele>17</ele>
        <time>2021-08-31T06:53:03Z</time>
      </trkpt>
      <trkpt lat="47.77751" lon="-3.6449">
        <ele>17</ele>
        <time>2021-08-31T06:53:04Z</time>
      </trkpt>
      <trkpt lat="47.77754" lon="-3.64479">
        <ele>17</ele>
        <time>2021-08-31T06:53:05Z</time>
      </trkpt>
      <trkpt lat="47.77756" lon="-3.64473">
        <ele>17</ele>
        <time>2021-08-31T06:53:06Z</time>
      </trkpt>
      <trkpt lat="47.7776" lon="-3.6445">
        <ele>17</ele>
        <time>2021-08-31T06:53:07Z</time>
      </trkpt>
      <trkpt lat="47.77763" lon="-3.64425">
        <ele>23</ele>
        <time>2021-08-31T06:53:08Z</time>
      </trkpt>
      <trkpt lat="47.77759" lon="-3.64407">
        <ele>23</ele>
        <time>2021-08-31T06:53:09Z</time>
      </trkpt>
      <trkpt lat="47.77756" lon="-3.6441">
        <ele>23</ele>
        <time>2021-08-31T06:53:10Z</time>
      </trkpt>
      <trkpt lat="47.77756" lon="-3.6441">
        <ele>23</ele>
        <time>2021-08-31T06:53:11Z</time>
      </trkpt>
      <trkpt lat="47.77754" lon="-3.6441">
        <ele>22</ele>
        <time>2021-08-31T06:53:12Z</time>
      </trkpt>
      <trkpt lat="47.77744" lon="-3.64411">
        <ele>22</ele>
        <time>2021-08-31T06:53:13Z</time>
      </trkpt>
      <trkpt lat="47.77726" lon="-3.64411">
        <ele>22</ele>
        <time>2021-08-31T06:53:14Z</time>
      </trkpt>
      <trkpt lat="47.77708" lon="-3.64412">
        <ele>22</ele>
        <time>2021-08-31T06:53:15Z</time>
      </trkpt>
      <trkpt lat="47.77684" lon="-3.64413">
        <ele>22</ele>
        <time>2021-08-31T06:53:16Z</time>
      </trkpt>
      <trkpt lat="47.77677" lon="-3.64413">
        <ele>22</ele>
        <time>2021-08-31T06:53:17Z</time>
      </trkpt>
      <trkpt lat="47.77674" lon="-3.64406">
        <ele>22</ele>
        <time>2021-08-31T06:53:18Z</time>
      </trkpt>
      <trkpt lat="47.77643" lon="-3.64326">
        <ele>20</ele>
        <time>2021-08-31T06:53:19Z</time>
      </trkpt>
      <trkpt lat="47.77647" lon="-3.64289">
        <ele>20</ele>
        <time>2021-08-31T06:53:20Z</time>
      </trkpt>
      <trkpt lat="47.77662" lon="-3.64148">
        <ele>13</ele>
        <time>2021-08-31T06:53:21Z</time>
      </trkpt>
      <trkpt lat="47.77631" lon="-3.64136">
        <ele>13</ele>
        <time>2021-08-31T06:53:22Z</time>
      </trkpt>
      <trkpt lat="47.7763" lon="-3.64076">
        <ele>12</ele>
        <time>2021-08-31T06:53:23Z</time>
      </trkpt>
      <trkpt lat="47.77634" lon="-3.64054">
        <ele>12</ele>
        <time>2021-08-31T06:53:24Z</time>
      </trkpt>
      <trkpt lat="47.77637" lon="-3.64045">
        <ele>12</ele>
        <time>2021-08-31T06:53:25Z</time>
      </trkpt>
      <trkpt lat="47.77642" lon="-3.64044">
        <ele>12</ele>
        <time>2021-08-31T06:53:26Z</time>
      </trkpt>
      <trkpt lat="47.77658" lon="-3.64036">
        <ele>12</ele>
        <time>2021-08-31T06:53:27Z</time>
      </trkpt>
      <trkpt lat="47.77663" lon="-3.64044">
        <ele>12</ele>
        <time>2021-08-31T06:53:28Z</time>
      </trkpt>
      <trkpt lat="47.77674" lon="-3.64056">
        <ele>21</ele>
        <time>2021-08-31T06:53:29Z</time>
      </trkpt>
      <trkpt lat="47.77681" lon="-3.64065">
        <ele>21</ele>
        <time>2021-08-31T06:53:30Z</time>
      </trkpt>
      <trkpt lat="47.77686" lon="-3.64065">
        <ele>21</ele>
        <time>2021-08-31T06:53:31Z</time>
      </trkpt>
      <trkpt lat="47.77691" lon="-3.64065">
        <ele>21</ele>
        <time>2021-08-31T06:53:32Z</time>
      </trkpt>
      <trkpt lat="47.7771" lon="-3.64064">
        <ele>21</ele>
        <time>2021-08-31T06:53:33Z</time>
      </trkpt>
      <trkpt lat="47.77728" lon="-3.6406">
        <ele>21</ele>
        <time>2021-08-31T06:53:34Z</time>
      </trkpt>
      <trkpt lat="47.77731" lon="-3.6406">
        <ele>21</ele>
        <time>2021-08-31T06:53:35Z</time>
      </trkpt>
      <trkpt lat="47.77744" lon="-3.64061">
        <ele>21</ele>
        <time>2021-08-31T06:53:36Z</time>
      </trkpt>
      <trkpt lat="47.77758" lon="-3.64071">
        <ele>24</ele>
        <time>2021-08-31T06:53:37Z</time>
      </trkpt>
      <trkpt lat="47.77763" lon="-3.64079">
        <ele>24</ele>
        <time>2021-08-31T06:53:38Z</time>
      </trkpt>
      <trkpt lat="47.77765" lon="-3.64085">
        <ele>24</ele>
        <time>2021-08-31T06:53:39Z</time>
      </trkpt>
      <trkpt lat="47.77764" lon="-3.64093">
        <ele>24</ele>
        <time>2021-08-31T06:53:40Z</time>
      </trkpt>
      <trkpt lat="47.77763" lon="-3.64104">
        <ele>24</ele>
        <time>2021-08-31T06:53:41Z</time>
      </trkpt>
      <trkpt lat="47.77763" lon="-3.64111">
        <ele>24</ele>
        <time>2021-08-31T06:53:42Z</time>
      </trkpt>
      <trkpt lat="47.77767" lon="-3.64116">
        <ele>24</ele>
        <time>2021-08-31T06:53:43Z</time>
      </trkpt>
      <trkpt lat="47.77772" lon="-3.64119">
        <ele>24</ele>
        <time>2021-08-31T06:53:44Z</time>
      </trkpt>
      <trkpt lat="47.77778" lon="-3.64121">
        <ele>24</ele>
        <time>2021-08-31T06:53:45Z</time>
      </trkpt>
      <trkpt lat="47.77784" lon="-3.64121">
        <ele>24</ele>
        <time>2021-08-31T06:53:46Z</time>
      </trkpt>
      <trkpt lat="47.77785" lon="-3.64121">
        <ele>24</ele>
        <time>2021-08-31T06:53:47Z</time>
      </trkpt>
      <trkpt lat="47.77798" lon="-3.64121">
        <ele>24</ele>
        <time>2021-08-31T06:53:48Z</time>
      </trkpt>
      <trkpt lat="47.77804" lon="-3.64122">
        <ele>24</ele>
        <time>2021-08-31T06:53:49Z</time>
      </trkpt>
      <trkpt lat="47.77809" lon="-3.64126">
        <ele>24</ele>
        <time>2021-08-31T06:53:50Z</time>
      </trkpt>
      <trkpt lat="47.77813" lon="-3.64137">
        <ele>24</ele>
        <time>2021-08-31T06:53:51Z</time>
      </trkpt>
      <trkpt lat="47.77816" lon="-3.64154">
        <ele>24</ele>
        <time>2021-08-31T06:53:52Z</time>
      </trkpt>
      <trkpt lat="47.77819" lon="-3.64172">
        <ele>24</ele>
        <time>2021-08-31T06:53:53Z</time>
      </trkpt>
      <trkpt lat="47.77827" lon="-3.64189">
        <ele>25</ele>
        <time>2021-08-31T06:53:54Z</time>
      </trkpt>
      <trkpt lat="47.77834" lon="-3.64203">
        <ele>25</ele>
        <time>2021-08-31T06:53:55Z</time>
      </trkpt>
      <trkpt lat="47.77835" lon="-3.64203">
        <ele>25</ele>
        <time>2021-08-31T06:53:56Z</time>
      </trkpt>
      <trkpt lat="47.77841" lon="-3.64203">
        <ele>27</ele>
        <time>2021-08-31T06:53:57Z</time>
      </trkpt>
      <trkpt lat="47.77867" lon="-3.64207">
        <ele>27</ele>
        <time>2021-08-31T06:53:58Z</time>
      </trkpt>
      <trkpt lat="47.779" lon="-3.64213">
        <ele>27</ele>
        <time>2021-08-31T06:53:59Z</time>
      </trkpt>
      <trkpt lat="47.77906" lon="-3.64215">
        <ele>27</ele>
        <time>2021-08-31T06:54:00Z</time>
      </trkpt>
      <trkpt lat="47.77932" lon="-3.64222">
        <ele>28</ele>
        <time>2021-08-31T06:54:01Z</time>
      </trkpt>
      <trkpt lat="47.77965" lon="-3.64228">
        <ele>28</ele>
        <time>2021-08-31T06:54:02Z</time>
      </trkpt>
      <trkpt lat="47.77973" lon="-3.64228">
        <ele>28</ele>
        <time>2021-08-31T06:54:03Z</time>
      </trkpt>
      <trkpt lat="47.78021" lon="-3.64229">
        <ele>28</ele>
        <time>2021-08-31T06:54:04Z</time>
      </trkpt>
      <trkpt lat="47.78037" lon="-3.64229">
        <ele>28</ele>
        <time>2021-08-31T06:54:05Z</time>
      </trkpt>
      <trkpt lat="47.78047" lon="-3.64231">
        <ele>28</ele>
        <time>2021-08-31T06:54:06Z</time>
      </trkpt>
      <trkpt lat="47.78047" lon="-3.64213">
        <ele>28</ele>
        <time>2021-08-31T06:54:07Z</time>
      </trkpt>
      <trkpt lat="47.78048" lon="-3.64197">
        <ele>28</ele>
        <time>2021-08-31T06:54:08Z</time>
      </trkpt>
      <trkpt lat="47.78051" lon="-3.64179">
        <ele>29</ele>
        <time>2021-08-31T06:54:09Z</time>
      </trkpt>
      <trkpt lat="47.78052" lon="-3.64173">
        <ele>29</ele>
        <time>2021-08-31T06:54:10Z</time>
      </trkpt>
      <trkpt lat="47.78054" lon="-3.64164">
        <ele>29</ele>
        <time>2021-08-31T06:54:11Z</time>
      </trkpt>
      <trkpt lat="47.78055" lon="-3.6415">
        <ele>29</ele>
        <time>2021-08-31T06:54:12Z</time>
      </trkpt>
      <trkpt lat="47.78055" lon="-3.64142">
        <ele>29</ele>
        <time>2021-08-31T06:54:13Z</time>
      </trkpt>
      <trkpt lat="47.78061" lon="-3.64137">
        <ele>29</ele>
        <time>2021-08-31T06:54:14Z</time>
      </trkpt>
      <trkpt lat="47.78068" lon="-3.6413">
        <ele>29</ele>
        <time>2021-08-31T06:54:15Z</time>
      </trkpt>
      <trkpt lat="47.78074" lon="-3.64126">
        <ele>29</ele>
        <time>2021-08-31T06:54:16Z</time>
      </trkpt>
      <trkpt lat="47.78079" lon="-3.64123">
        <ele>29</ele>
        <time>2021-08-31T06:54:17Z</time>
      </trkpt>
      <trkpt lat="47.78084" lon="-3.6412">
        <ele>29</ele>
        <time>2021-08-31T06:54:18Z</time>
      </trkpt>
      <trkpt lat="47.7809" lon="-3.64121">
        <ele>29</ele>
        <time>2021-08-31T06:54:19Z</time>
      </trkpt>
      <trkpt lat="47.78102" lon="-3.6412">
        <ele>29</ele>
        <time>2021-08-31T06:54:20Z</time>
      </trkpt>
      <trkpt lat="47.78109" lon="-3.64121">
        <ele>29</ele>
        <time>2021-08-31T06:54:21Z</time>
      </trkpt>
      <trkpt lat="47.78112" lon="-3.64121">
        <ele>29</ele>
        <time>2021-08-31T06:54:22Z</time>
      </trkpt>
      <trkpt lat="47.78122" lon="-3.64122">
        <ele>29</ele>
        <time>2021-08-31T06:54:23Z</time>
      </trkpt>
      <trkpt lat="47.78129" lon="-3.64121">
        <ele>29</ele>
        <time>2021-08-31T06:54:24Z</time>
      </trkpt>
      <trkpt lat="47.78142" lon="-3.64116">
        <ele>29</ele>
        <time>2021-08-31T06:54:25Z</time>
      </trkpt>
      <trkpt lat="47.78151" lon="-3.64112">
        <ele>29</ele>
        <time>2021-08-31T06:54:26Z</time>
      </trkpt>
      <trkpt lat="47.78164" lon="-3.64109">
        <ele>29</ele>
        <time>2021-08-31T06:54:27Z</time>
      </trkpt>
      <trkpt lat="47.78179" lon="-3.64108">
        <ele>29</ele>
        <time>2021-08-31T06:54:28Z</time>
      </trkpt>
      <trkpt lat="47.78197" lon="-3.64104">
        <ele>29</ele>
        <time>2021-08-31T06:54:29Z</time>
      </trkpt>
      <trkpt lat="47.78226" lon="-3.64095">
        <ele>29</ele>
        <time>2021-08-31T06:54:30Z</time>
      </trkpt>
      <trkpt lat="47.78235" lon="-3.64091">
        <ele>29</ele>
        <time>2021-08-31T06:54:31Z</time>
      </trkpt>
      <trkpt lat="47.78242" lon="-3.64087">
        <ele>29</ele>
        <time>2021-08-31T06:54:32Z</time>
      </trkpt>
      <trkpt lat="47.78245" lon="-3.64086">
        <ele>29</ele>
        <time>2021-08-31T06:54:33Z</time>
      </trkpt>
      <trkpt lat="47.78248" lon="-3.64084">
        <ele>29</ele>
        <time>2021-08-31T06:54:34Z</time>
      </trkpt>
      <trkpt lat="47.78278" lon="-3.64065">
        <ele>30</ele>
        <time>2021-08-31T06:54:35Z</time>
      </trkpt>
      <trkpt lat="47.7828" lon="-3.64063">
        <ele>30</ele>
        <time>2021-08-31T06:54:36Z</time>
      </trkpt>
      <trkpt lat="47.78281" lon="-3.64064">
        <ele>30</ele>
        <time>2021-08-31T06:54:37Z</time>
      </trkpt>
      <trkpt lat="47.78298" lon="-3.64028">
        <ele>30</ele>
        <time>2021-08-31T06:54:38Z</time>
      </trkpt>
      <trkpt lat="47.78295" lon="-3.64012">
        <ele>29</ele>
        <time>2021-08-31T06:54:39Z</time>
      </trkpt>
      <trkpt lat="47.78295" lon="-3.64012">
        <ele>29</ele>
        <time>2021-08-31T06:54:40Z</time>
      </trkpt>
      <trkpt lat="47.78292" lon="-3.64004">
        <ele>29</ele>
        <time>2021-08-31T06:54:41Z</time>
      </trkpt>
      <trkpt lat="47.78287" lon="-3.6399">
        <ele>29</ele>
        <time>2021-08-31T06:54:42Z</time>
      </trkpt>
      <trkpt lat="47.78283" lon="-3.63979">
        <ele>29</ele>
        <time>2021-08-31T06:54:43Z</time>
      </trkpt>
      <trkpt lat="47.7828" lon="-3.63954">
        <ele>29</ele>
        <time>2021-08-31T06:54:44Z</time>
      </trkpt>
      <trkpt lat="47.78277" lon="-3.6393">
        <ele>30</ele>
        <time>2021-08-31T06:54:45Z</time>
      </trkpt>
      <trkpt lat="47.78272" lon="-3.6391">
        <ele>30</ele>
        <time>2021-08-31T06:54:46Z</time>
      </trkpt>
      <trkpt lat="47.78267" lon="-3.63883">
        <ele>30</ele>
        <time>2021-08-31T06:54:47Z</time>
      </trkpt>
      <trkpt lat="47.78266" lon="-3.63879">
        <ele>30</ele>
        <time>2021-08-31T06:54:48Z</time>
      </trkpt>
      <trkpt lat="47.78264" lon="-3.63867">
        <ele>30</ele>
        <time>2021-08-31T06:54:49Z</time>
      </trkpt>
      <trkpt lat="47.78261" lon="-3.63849">
        <ele>28</ele>
        <time>2021-08-31T06:54:50Z</time>
      </trkpt>
      <trkpt lat="47.78259" lon="-3.63843">
        <ele>28</ele>
        <time>2021-08-31T06:54:51Z</time>
      </trkpt>
      <trkpt lat="47.78255" lon="-3.63842">
        <ele>28</ele>
        <time>2021-08-31T06:54:52Z</time>
      </trkpt>
      <trkpt lat="47.78243" lon="-3.63846">
        <ele>27</ele>
        <time>2021-08-31T06:54:53Z</time>
      </trkpt>
      <trkpt lat="47.78223" lon="-3.63862">
        <ele>25</ele>
        <time>2021-08-31T06:54:54Z</time>
      </trkpt>
      <trkpt lat="47.78217" lon="-3.63865">
        <ele>25</ele>
        <time>2021-08-31T06:54:55Z</time>
      </trkpt>
      <trkpt lat="47.78211" lon="-3.63868">
        <ele>25</ele>
        <time>2021-08-31T06:54:56Z</time>
      </trkpt>
      <trkpt lat="47.78175" lon="-3.63883">
        <ele>25</ele>
        <time>2021-08-31T06:54:57Z</time>
      </trkpt>
      <trkpt lat="47.78165" lon="-3.63885">
        <ele>22</ele>
        <time>2021-08-31T06:54:58Z</time>
      </trkpt>
      <trkpt lat="47.78148" lon="-3.63885">
        <ele>22</ele>
        <time>2021-08-31T06:54:59Z</time>
      </trkpt>
      <trkpt lat="47.78141" lon="-3.63886">
        <ele>22</ele>
        <time>2021-08-31T06:55:00Z</time>
      </trkpt>
      <trkpt lat="47.7814" lon="-3.63903">
        <ele>22</ele>
        <time>2021-08-31T06:55:01Z</time>
      </trkpt>
      <trkpt lat="47.78138" lon="-3.63914">
        <ele>22</ele>
        <time>2021-08-31T06:55:02Z</time>
      </trkpt>
      <trkpt lat="47.78134" lon="-3.63921">
        <ele>22</ele>
        <time>2021-08-31T06:55:03Z</time>
      </trkpt>
      <trkpt lat="47.78128" lon="-3.63931">
        <ele>22</ele>
        <time>2021-08-31T06:55:04Z</time>
      </trkpt>
      <trkpt lat="47.78121" lon="-3.63938">
        <ele>26</ele>
        <time>2021-08-31T06:55:05Z</time>
      </trkpt>
      <trkpt lat="47.78113" lon="-3.63941">
        <ele>26</ele>
        <time>2021-08-31T06:55:06Z</time>
      </trkpt>
      <trkpt lat="47.78079" lon="-3.6392">
        <ele>20</ele>
        <time>2021-08-31T06:55:07Z</time>
      </trkpt>
      <trkpt lat="47.78043" lon="-3.63901">
        <ele>20</ele>
        <time>2021-08-31T06:55:08Z</time>
      </trkpt>
      <trkpt lat="47.78037" lon="-3.63898">
        <ele>20</ele>
        <time>2021-08-31T06:55:09Z</time>
      </trkpt>
      <trkpt lat="47.78035" lon="-3.63899">
        <ele>20</ele>
        <time>2021-08-31T06:55:10Z</time>
      </trkpt>
      <trkpt lat="47.77984" lon="-3.63924">
        <ele>21</ele>
        <time>2021-08-31T06:55:11Z</time>
      </trkpt>
      <trkpt lat="47.77847" lon="-3.63955">
        <ele>23</ele>
        <time>2021-08-31T06:55:12Z</time>
      </trkpt>
      <trkpt lat="47.77722" lon="-3.63931">
        <ele>9</ele>
        <time>2021-08-31T06:55:13Z</time>
      </trkpt>
      <trkpt lat="47.77727" lon="-3.63914">
        <ele>9</ele>
        <time>2021-08-31T06:55:14Z</time>
      </trkpt>
      <trkpt lat="47.77727" lon="-3.63907">
        <ele>9</ele>
        <time>2021-08-31T06:55:15Z</time>
      </trkpt>
      <trkpt lat="47.77718" lon="-3.63891">
        <ele>9</ele>
        <time>2021-08-31T06:55:16Z</time>
      </trkpt>
      <trkpt lat="47.77712" lon="-3.63877">
        <ele>9</ele>
        <time>2021-08-31T06:55:17Z</time>
      </trkpt>
      <trkpt lat="47.77712" lon="-3.63875">
        <ele>9</ele>
        <time>2021-08-31T06:55:18Z</time>
      </trkpt>
      <trkpt lat="47.77715" lon="-3.63843">
        <ele>16</ele>
        <time>2021-08-31T06:55:19Z</time>
      </trkpt>
      <trkpt lat="47.77724" lon="-3.6382">
        <ele>16</ele>
        <time>2021-08-31T06:55:20Z</time>
      </trkpt>
      <trkpt lat="47.77737" lon="-3.63792">
        <ele>16</ele>
        <time>2021-08-31T06:55:21Z</time>
      </trkpt>
      <trkpt lat="47.77754" lon="-3.63768">
        <ele>23</ele>
        <time>2021-08-31T06:55:22Z</time>
      </trkpt>
      <trkpt lat="47.77759" lon="-3.63755">
        <ele>22</ele>
        <time>2021-08-31T06:55:23Z</time>
      </trkpt>
      <trkpt lat="47.77764" lon="-3.63728">
        <ele>22</ele>
        <time>2021-08-31T06:55:24Z</time>
      </trkpt>
      <trkpt lat="47.77765" lon="-3.63725">
        <ele>22</ele>
        <time>2021-08-31T06:55:25Z</time>
      </trkpt>
      <trkpt lat="47.7777" lon="-3.63696">
        <ele>22</ele>
        <time>2021-08-31T06:55:26Z</time>
      </trkpt>
      <trkpt lat="47.77772" lon="-3.63688">
        <ele>22</ele>
        <time>2021-08-31T06:55:27Z</time>
      </trkpt>
      <trkpt lat="47.77774" lon="-3.63684">
        <ele>26</ele>
        <time>2021-08-31T06:55:28Z</time>
      </trkpt>
      <trkpt lat="47.77777" lon="-3.63682">
        <ele>26</ele>
        <time>2021-08-31T06:55:29Z</time>
      </trkpt>
      <trkpt lat="47.77781" lon="-3.6368">
        <ele>26</ele>
        <time>2021-08-31T06:55:30Z</time>
      </trkpt>
      <trkpt lat="47.77792" lon="-3.63684">
        <ele>26</ele>
        <time>2021-08-31T06:55:31Z</time>
      </trkpt>
      <trkpt lat="47.77798" lon="-3.63687">
        <ele>22</ele>
        <time>2021-08-31T06:55:32Z</time>
      </trkpt>
      <trkpt lat="47.778" lon="-3.63687">
        <ele>22</ele>
        <time>2021-08-31T06:55:33Z</time>
      </trkpt>
      <trkpt lat="47.778" lon="-3.6369">
        <ele>22</ele>
        <time>2021-08-31T06:55:34Z</time>
      </trkpt>
      <trkpt lat="47.77802" lon="-3.6369">
        <ele>22</ele>
        <time>2021-08-31T06:55:35Z</time>
      </trkpt>
      <trkpt lat="47.77836" lon="-3.63713">
        <ele>22</ele>
        <time>2021-08-31T06:55:36Z</time>
      </trkpt>
      <trkpt lat="47.77879" lon="-3.63733">
        <ele>26</ele>
        <time>2021-08-31T06:55:37Z</time>
      </trkpt>
      <trkpt lat="47.77926" lon="-3.63711">
        <ele>28</ele>
        <time>2021-08-31T06:55:38Z</time>
      </trkpt>
      <trkpt lat="47.77968" lon="-3.63734">
        <ele>28</ele>
        <time>2021-08-31T06:55:39Z</time>
      </trkpt>
      <trkpt lat="47.77967" lon="-3.63737">
        <ele>28</ele>
        <time>2021-08-31T06:55:40Z</time>
      </trkpt>
      <trkpt lat="47.78003" lon="-3.63748">
        <ele>28</ele>
        <time>2021-08-31T06:55:41Z</time>
      </trkpt>
      <trkpt lat="47.78024" lon="-3.63751">
        <ele>28</ele>
        <time>2021-08-31T06:55:42Z</time>
      </trkpt>
      <trkpt lat="47.78043" lon="-3.63748">
        <ele>28</ele>
        <time>2021-08-31T06:55:43Z</time>
      </trkpt>
      <trkpt lat="47.78073" lon="-3.63737">
        <ele>28</ele>
        <time>2021-08-31T06:55:44Z</time>
      </trkpt>
      <trkpt lat="47.78101" lon="-3.63717">
        <ele>24</ele>
        <time>2021-08-31T06:55:45Z</time>
      </trkpt>
      <trkpt lat="47.78115" lon="-3.63702">
        <ele>24</ele>
        <time>2021-08-31T06:55:46Z</time>
      </trkpt>
      <trkpt lat="47.78129" lon="-3.63691">
        <ele>24</ele>
        <time>2021-08-31T06:55:47Z</time>
      </trkpt>
      <trkpt lat="47.78133" lon="-3.63683">
        <ele>26</ele>
        <time>2021-08-31T06:55:48Z</time>
      </trkpt>
      <trkpt lat="47.78133" lon="-3.63664">
        <ele>26</ele>
        <time>2021-08-31T06:55:49Z</time>
      </trkpt>
      <trkpt lat="47.78133" lon="-3.63656">
        <ele>26</ele>
        <time>2021-08-31T06:55:50Z</time>
      </trkpt>
      <trkpt lat="47.78134" lon="-3.63613">
        <ele>26</ele>
        <time>2021-08-31T06:55:51Z</time>
      </trkpt>
      <trkpt lat="47.78133" lon="-3.63584">
        <ele>28</ele>
        <time>2021-08-31T06:55:52Z</time>
      </trkpt>
      <trkpt lat="47.78132" lon="-3.63566">
        <ele>28</ele>
        <time>2021-08-31T06:55:53Z</time>
      </trkpt>
      <trkpt lat="47.78134" lon="-3.63545">
        <ele>28</ele>
        <time>2021-08-31T06:55:54Z</time>
      </trkpt>
      <trkpt lat="47.78134" lon="-3.6354">
        <ele>28</ele>
        <time>2021-08-31T06:55:55Z</time>
      </trkpt>
      <trkpt lat="47.78136" lon="-3.63532">
        <ele>28</ele>
        <time>2021-08-31T06:55:56Z</time>
      </trkpt>
      <trkpt lat="47.78142" lon="-3.63534">
        <ele>28</ele>
        <time>2021-08-31T06:55:57Z</time>
      </trkpt>
      <trkpt lat="47.78151" lon="-3.63535">
        <ele>28</ele>
        <time>2021-08-31T06:55:58Z</time>
      </trkpt>
      <trkpt lat="47.78162" lon="-3.63538">
        <ele>28</ele>
        <time>2021-08-31T06:55:59Z</time>
      </trkpt>
      <trkpt lat="47.78173" lon="-3.63537">
        <ele>27</ele>
        <time>2021-08-31T06:56:00Z</time>
      </trkpt>
      <trkpt lat="47.78189" lon="-3.6353">
        <ele>27</ele>
        <time>2021-08-31T06:56:01Z</time>
      </trkpt>
      <trkpt lat="47.78199" lon="-3.63518">
        <ele>28</ele>
        <time>2021-08-31T06:56:02Z</time>
      </trkpt>
      <trkpt lat="47.78214" lon="-3.63506">
        <ele>28</ele>
        <time>2021-08-31T06:56:03Z</time>
      </trkpt>
      <trkpt lat="47.78229" lon="-3.63497">
        <ele>28</ele>
        <time>2021-08-31T06:56:04Z</time>
      </trkpt>
      <trkpt lat="47.78241" lon="-3.6349">
        <ele>28</ele>
        <time>2021-08-31T06:56:05Z</time>
      </trkpt>
      <trkpt lat="47.78254" lon="-3.63488">
        <ele>28</ele>
        <time>2021-08-31T06:56:06Z</time>
      </trkpt>
      <trkpt lat="47.78279" lon="-3.6349">
        <ele>27</ele>
        <time>2021-08-31T06:56:07Z</time>
      </trkpt>
      <trkpt lat="47.78292" lon="-3.63491">
        <ele>27</ele>
        <time>2021-08-31T06:56:08Z</time>
      </trkpt>
      <trkpt lat="47.78305" lon="-3.63489">
        <ele>27</ele>
        <time>2021-08-31T06:56:09Z</time>
      </trkpt>
      <trkpt lat="47.78316" lon="-3.63483">
        <ele>27</ele>
        <time>2021-08-31T06:56:10Z</time>
      </trkpt>
      <trkpt lat="47.78341" lon="-3.63473">
        <ele>28</ele>
        <time>2021-08-31T06:56:11Z</time>
      </trkpt>
      <trkpt lat="47.78356" lon="-3.63465">
        <ele>28</ele>
        <time>2021-08-31T06:56:12Z</time>
      </trkpt>
      <trkpt lat="47.78369" lon="-3.63454">
        <ele>28</ele>
        <time>2021-08-31T06:56:13Z</time>
      </trkpt>
      <trkpt lat="47.78379" lon="-3.63443">
        <ele>28</ele>
        <time>2021-08-31T06:56:14Z</time>
      </trkpt>
      <trkpt lat="47.78399" lon="-3.63417">
        <ele>28</ele>
        <time>2021-08-31T06:56:15Z</time>
      </trkpt>
      <trkpt lat="47.78409" lon="-3.63403">
        <ele>28</ele>
        <time>2021-08-31T06:56:16Z</time>
      </trkpt>
      <trkpt lat="47.78421" lon="-3.63383">
        <ele>28</ele>
        <time>2021-08-31T06:56:17Z</time>
      </trkpt>
      <trkpt lat="47.78435" lon="-3.6336">
        <ele>27</ele>
        <time>2021-08-31T06:56:18Z</time>
      </trkpt>
      <trkpt lat="47.78441" lon="-3.63349">
        <ele>30</ele>
        <time>2021-08-31T06:56:19Z</time>
      </trkpt>
      <trkpt lat="47.78444" lon="-3.63344">
        <ele>30</ele>
        <time>2021-08-31T06:56:20Z</time>
      </trkpt>
      <trkpt lat="47.78453" lon="-3.63329">
        <ele>30</ele>
        <time>2021-08-31T06:56:21Z</time>
      </trkpt>
      <trkpt lat="47.78455" lon="-3.63318">
        <ele>30</ele>
        <time>2021-08-31T06:56:22Z</time>
      </trkpt>
      <trkpt lat="47.78456" lon="-3.63303">
        <ele>30</ele>
        <time>2021-08-31T06:56:23Z</time>
      </trkpt>
      <trkpt lat="47.78456" lon="-3.63283">
        <ele>30</ele>
        <time>2021-08-31T06:56:24Z</time>
      </trkpt>
      <trkpt lat="47.78458" lon="-3.6327">
        <ele>30</ele>
        <time>2021-08-31T06:56:25Z</time>
      </trkpt>
      <trkpt lat="47.78458" lon="-3.63256">
        <ele>29</ele>
        <time>2021-08-31T06:56:26Z</time>
      </trkpt>
      <trkpt lat="47.78454" lon="-3.63239">
        <ele>29</ele>
        <time>2021-08-31T06:56:27Z</time>
      </trkpt>
      <trkpt lat="47.78448" lon="-3.63218">
        <ele>29</ele>
        <time>2021-08-31T06:56:28Z</time>
      </trkpt>
      <trkpt lat="47.78387" lon="-3.63124">
        <ele>32</ele>
        <time>2021-08-31T06:56:29Z</time>
      </trkpt>
      <trkpt lat="47.78382" lon="-3.6312">
        <ele>32</ele>
        <time>2021-08-31T06:56:30Z</time>
      </trkpt>
      <trkpt lat="47.78346" lon="-3.6309">
        <ele>33</ele>
        <time>2021-08-31T06:56:31Z</time>
      </trkpt>
      <trkpt lat="47.78343" lon="-3.63102">
        <ele>33</ele>
        <time>2021-08-31T06:56:32Z</time>
      </trkpt>
      <trkpt lat="47.78335" lon="-3.63116">
        <ele>33</ele>
        <time>2021-08-31T06:56:33Z</time>
      </trkpt>
      <trkpt lat="47.78319" lon="-3.63124">
        <ele>33</ele>
        <time>2021-08-31T06:56:34Z</time>
      </trkpt>
      <trkpt lat="47.78296" lon="-3.63131">
        <ele>33</ele>
        <time>2021-08-31T06:56:35Z</time>
      </trkpt>
      <trkpt lat="47.78259" lon="-3.63146">
        <ele>33</ele>
        <time>2021-08-31T06:56:36Z</time>
      </trkpt>
      <trkpt lat="47.78227" lon="-3.6316">
        <ele>33</ele>
        <time>2021-08-31T06:56:37Z</time>
      </trkpt>
      <trkpt lat="47.7821" lon="-3.63168">
        <ele>33</ele>
        <time>2021-08-31T06:56:38Z</time>
      </trkpt>
      <trkpt lat="47.78188" lon="-3.63183">
        <ele>33</ele>
        <time>2021-08-31T06:56:39Z</time>
      </trkpt>
      <trkpt lat="47.78174" lon="-3.63193">
        <ele>31</ele>
        <time>2021-08-31T06:56:40Z</time>
      </trkpt>
      <trkpt lat="47.78151" lon="-3.63212">
        <ele>34</ele>
        <time>2021-08-31T06:56:41Z</time>
      </trkpt>
      <trkpt lat="47.78132" lon="-3.63231">
        <ele>34</ele>
        <time>2021-08-31T06:56:42Z</time>
      </trkpt>
      <trkpt lat="47.78121" lon="-3.63255">
        <ele>34</ele>
        <time>2021-08-31T06:56:43Z</time>
      </trkpt>
      <trkpt lat="47.78118" lon="-3.63255">
        <ele>34</ele>
        <time>2021-08-31T06:56:44Z</time>
      </trkpt>
      <trkpt lat="47.78106" lon="-3.63259">
        <ele>34</ele>
        <time>2021-08-31T06:56:45Z</time>
      </trkpt>
      <trkpt lat="47.78077" lon="-3.63275">
        <ele>31</ele>
        <time>2021-08-31T06:56:46Z</time>
      </trkpt>
      <trkpt lat="47.78073" lon="-3.63277">
        <ele>31</ele>
        <time>2021-08-31T06:56:47Z</time>
      </trkpt>
      <trkpt lat="47.7806" lon="-3.63284">
        <ele>31</ele>
        <time>2021-08-31T06:56:48Z</time>
      </trkpt>
      <trkpt lat="47.78054" lon="-3.63284">
        <ele>31</ele>
        <time>2021-08-31T06:56:49Z</time>
      </trkpt>
      <trkpt lat="47.78055" lon="-3.63268">
        <ele>32</ele>
        <time>2021-08-31T06:56:50Z</time>
      </trkpt>
      <trkpt lat="47.78055" lon="-3.63252">
        <ele>32</ele>
        <time>2021-08-31T06:56:51Z</time>
      </trkpt>
      <trkpt lat="47.78051" lon="-3.63237">
        <ele>32</ele>
        <time>2021-08-31T06:56:52Z</time>
      </trkpt>
      <trkpt lat="47.78048" lon="-3.63216">
        <ele>32</ele>
        <time>2021-08-31T06:56:53Z</time>
      </trkpt>
      <trkpt lat="47.78041" lon="-3.63189">
        <ele>32</ele>
        <time>2021-08-31T06:56:54Z</time>
      </trkpt>
      <trkpt lat="47.78026" lon="-3.63215">
        <ele>32</ele>
        <time>2021-08-31T06:56:55Z</time>
      </trkpt>
      <trkpt lat="47.78007" lon="-3.63252">
        <ele>32</ele>
        <time>2021-08-31T06:56:56Z</time>
      </trkpt>
      <trkpt lat="47.77981" lon="-3.63303">
        <ele>29</ele>
        <time>2021-08-31T06:56:57Z</time>
      </trkpt>
      <trkpt lat="47.77975" lon="-3.63312">
        <ele>29</ele>
        <time>2021-08-31T06:56:58Z</time>
      </trkpt>
      <trkpt lat="47.77963" lon="-3.63328">
        <ele>29</ele>
        <time>2021-08-31T06:56:59Z</time>
      </trkpt>
      <trkpt lat="47.77924" lon="-3.63368">
        <ele>30</ele>
        <time>2021-08-31T06:57:00Z</time>
      </trkpt>
      <trkpt lat="47.77912" lon="-3.63379">
        <ele>29</ele>
        <time>2021-08-31T06:57:01Z</time>
      </trkpt>
      <trkpt lat="47.77911" lon="-3.63379">
        <ele>29</ele>
        <time>2021-08-31T06:57:02Z</time>
      </trkpt>
      <trkpt lat="47.77894" lon="-3.63396">
        <ele>29</ele>
        <time>2021-08-31T06:57:03Z</time>
      </trkpt>
      <trkpt lat="47.77868" lon="-3.63419">
        <ele>29</ele>
        <time>2021-08-31T06:57:04Z</time>
      </trkpt>
      <trkpt lat="47.77854" lon="-3.63446">
        <ele>29</ele>
        <time>2021-08-31T06:57:05Z</time>
      </trkpt>
      <trkpt lat="47.77846" lon="-3.63466">
        <ele>29</ele>
        <time>2021-08-31T06:57:06Z</time>
      </trkpt>
      <trkpt lat="47.77842" lon="-3.63469">
        <ele>29</ele>
        <time>2021-08-31T06:57:07Z</time>
      </trkpt>
      <trkpt lat="47.77837" lon="-3.63472">
        <ele>27</ele>
        <time>2021-08-31T06:57:08Z</time>
      </trkpt>
      <trkpt lat="47.77829" lon="-3.63475">
        <ele>27</ele>
        <time>2021-08-31T06:57:09Z</time>
      </trkpt>
      <trkpt lat="47.77823" lon="-3.63476">
        <ele>27</ele>
        <time>2021-08-31T06:57:10Z</time>
      </trkpt>
      <trkpt lat="47.77803" lon="-3.63476">
        <ele>27</ele>
        <time>2021-08-31T06:57:11Z</time>
      </trkpt>
      <trkpt lat="47.77786" lon="-3.63477">
        <ele>27</ele>
        <time>2021-08-31T06:57:12Z</time>
      </trkpt>
      <trkpt lat="47.77772" lon="-3.63477">
        <ele>27</ele>
        <time>2021-08-31T06:57:13Z</time>
      </trkpt>
      <trkpt lat="47.77752" lon="-3.63477">
        <ele>24</ele>
        <time>2021-08-31T06:57:14Z</time>
      </trkpt>
      <trkpt lat="47.77738" lon="-3.6348">
        <ele>24</ele>
        <time>2021-08-31T06:57:15Z</time>
      </trkpt>
      <trkpt lat="47.77727" lon="-3.63483">
        <ele>24</ele>
        <time>2021-08-31T06:57:16Z</time>
      </trkpt>
      <trkpt lat="47.77711" lon="-3.63486">
        <ele>24</ele>
        <time>2021-08-31T06:57:17Z</time>
      </trkpt>
      <trkpt lat="47.77689" lon="-3.63493">
        <ele>24</ele>
        <time>2021-08-31T06:57:18Z</time>
      </trkpt>
      <trkpt lat="47.77672" lon="-3.63497">
        <ele>24</ele>
        <time>2021-08-31T06:57:19Z</time>
      </trkpt>
      <trkpt lat="47.77663" lon="-3.63499">
        <ele>20</ele>
        <time>2021-08-31T06:57:20Z</time>
      </trkpt>
      <trkpt lat="47.77657" lon="-3.63497">
        <ele>20</ele>
        <time>2021-08-31T06:57:21Z</time>
      </trkpt>
      <trkpt lat="47.77653" lon="-3.6349">
        <ele>20</ele>
        <time>2021-08-31T06:57:22Z</time>
      </trkpt>
      <trkpt lat="47.77649" lon="-3.63481">
        <ele>20</ele>
        <time>2021-08-31T06:57:23Z</time>
      </trkpt>
      <trkpt lat="47.77644" lon="-3.63469">
        <ele>20</ele>
        <time>2021-08-31T06:57:24Z</time>
      </trkpt>
      <trkpt lat="47.77639" lon="-3.63462">
        <ele>20</ele>
        <time>2021-08-31T06:57:25Z</time>
      </trkpt>
      <trkpt lat="47.77632" lon="-3.63454">
        <ele>20</ele>
        <time>2021-08-31T06:57:26Z</time>
      </trkpt>
      <trkpt lat="47.77629" lon="-3.63441">
        <ele>20</ele>
        <time>2021-08-31T06:57:27Z</time>
      </trkpt>
      <trkpt lat="47.77629" lon="-3.63437">
        <ele>20</ele>
        <time>2021-08-31T06:57:28Z</time>
      </trkpt>
      <trkpt lat="47.7763" lon="-3.63432">
        <ele>23</ele>
        <time>2021-08-31T06:57:29Z</time>
      </trkpt>
      <trkpt lat="47.77627" lon="-3.63425">
        <ele>23</ele>
        <time>2021-08-31T06:57:30Z</time>
      </trkpt>
      <trkpt lat="47.77614" lon="-3.63416">
        <ele>23</ele>
        <time>2021-08-31T06:57:31Z</time>
      </trkpt>
      <trkpt lat="47.77605" lon="-3.63413">
        <ele>23</ele>
        <time>2021-08-31T06:57:32Z</time>
      </trkpt>
      <trkpt lat="47.77597" lon="-3.63412">
        <ele>23</ele>
        <time>2021-08-31T06:57:33Z</time>
      </trkpt>
      <trkpt lat="47.77586" lon="-3.63418">
        <ele>17</ele>
        <time>2021-08-31T06:57:34Z</time>
      </trkpt>
      <trkpt lat="47.77574" lon="-3.63424">
        <ele>17</ele>
        <time>2021-08-31T06:57:35Z</time>
      </trkpt>
      <trkpt lat="47.77555" lon="-3.63432">
        <ele>17</ele>
        <time>2021-08-31T06:57:36Z</time>
      </trkpt>
      <trkpt lat="47.77546" lon="-3.63433">
        <ele>17</ele>
        <time>2021-08-31T06:57:37Z</time>
      </trkpt>
      <trkpt lat="47.77541" lon="-3.63436">
        <ele>15</ele>
        <time>2021-08-31T06:57:38Z</time>
      </trkpt>
      <trkpt lat="47.77532" lon="-3.63447">
        <ele>15</ele>
        <time>2021-08-31T06:57:39Z</time>
      </trkpt>
      <trkpt lat="47.77522" lon="-3.63458">
        <ele>15</ele>
        <time>2021-08-31T06:57:40Z</time>
      </trkpt>
      <trkpt lat="47.77512" lon="-3.63465">
        <ele>15</ele>
        <time>2021-08-31T06:57:41Z</time>
      </trkpt>
      <trkpt lat="47.77503" lon="-3.63465">
        <ele>3</ele>
        <time>2021-08-31T06:57:42Z</time>
      </trkpt>
      <trkpt lat="47.77493" lon="-3.63462">
        <ele>3</ele>
        <time>2021-08-31T06:57:43Z</time>
      </trkpt>
      <trkpt lat="47.77483" lon="-3.6346">
        <ele>3</ele>
        <time>2021-08-31T06:57:44Z</time>
      </trkpt>
      <trkpt lat="47.77474" lon="-3.63458">
        <ele>3</ele>
        <time>2021-08-31T06:57:45Z</time>
      </trkpt>
      <trkpt lat="47.77466" lon="-3.63454">
        <ele>3</ele>
        <time>2021-08-31T06:57:46Z</time>
      </trkpt>
      <trkpt lat="47.77455" lon="-3.63447">
        <ele>3</ele>
        <time>2021-08-31T06:57:47Z</time>
      </trkpt>
      <trkpt lat="47.77449" lon="-3.63434">
        <ele>9</ele>
        <time>2021-08-31T06:57:48Z</time>
      </trkpt>
      <trkpt lat="47.7745" lon="-3.63407">
        <ele>9</ele>
        <time>2021-08-31T06:57:49Z</time>
      </trkpt>
      <trkpt lat="47.77455" lon="-3.6337">
        <ele>9</ele>
        <time>2021-08-31T06:57:50Z</time>
      </trkpt>
      <trkpt lat="47.77457" lon="-3.63357">
        <ele>9</ele>
        <time>2021-08-31T06:57:51Z</time>
      </trkpt>
      <trkpt lat="47.77464" lon="-3.63346">
        <ele>15</ele>
        <time>2021-08-31T06:57:52Z</time>
      </trkpt>
      <trkpt lat="47.77467" lon="-3.63325">
        <ele>15</ele>
        <time>2021-08-31T06:57:53Z</time>
      </trkpt>
      <trkpt lat="47.77459" lon="-3.63319">
        <ele>15</ele>
        <time>2021-08-31T06:57:54Z</time>
      </trkpt>
      <trkpt lat="47.77434" lon="-3.63314">
        <ele>15</ele>
        <time>2021-08-31T06:57:55Z</time>
      </trkpt>
      <trkpt lat="47.77415" lon="-3.63315">
        <ele>10</ele>
        <time>2021-08-31T06:57:56Z</time>
      </trkpt>
      <trkpt lat="47.77385" lon="-3.6331">
        <ele>10</ele>
        <time>2021-08-31T06:57:57Z</time>
      </trkpt>
      <trkpt lat="47.77363" lon="-3.63298">
        <ele>10</ele>
        <time>2021-08-31T06:57:58Z</time>
      </trkpt>
      <trkpt lat="47.77348" lon="-3.63284">
        <ele>10</ele>
        <time>2021-08-31T06:57:59Z</time>
      </trkpt>
      <trkpt lat="47.77346" lon="-3.6328">
        <ele>10</ele>
        <time>2021-08-31T06:58:00Z</time>
      </trkpt>
      <trkpt lat="47.77339" lon="-3.63269">
        <ele>13</ele>
        <time>2021-08-31T06:58:01Z</time>
      </trkpt>
      <trkpt lat="47.77336" lon="-3.63238">
        <ele>20.4</ele>
        <time>2021-08-31T06:58:02Z</time>
      </trkpt>
      <trkpt lat="47.7733" lon="-3.632">
        <ele>21.5</ele>
        <time>2021-08-31T06:58:03Z</time>
      </trkpt>
      <trkpt lat="47.77336" lon="-3.63177">
        <ele>2</ele>
        <time>2021-08-31T06:58:04Z</time>
      </trkpt>
      <trkpt lat="47.77334" lon="-3.63156">
        <ele>2</ele>
        <time>2021-08-31T06:58:05Z</time>
      </trkpt>
      <trkpt lat="47.77335" lon="-3.63122">
        <ele>2</ele>
        <time>2021-08-31T06:58:06Z</time>
      </trkpt>
      <trkpt lat="47.77337" lon="-3.63082">
        <ele>3</ele>
        <time>2021-08-31T06:58:07Z</time>
      </trkpt>
      <trkpt lat="47.77342" lon="-3.63005">
        <ele>14</ele>
        <time>2021-08-31T06:58:08Z</time>
      </trkpt>
      <trkpt lat="47.7734" lon="-3.6298">
        <ele>14</ele>
        <time>2021-08-31T06:58:09Z</time>
      </trkpt>
      <trkpt lat="47.77353" lon="-3.62977">
        <ele>14</ele>
        <time>2021-08-31T06:58:10Z</time>
      </trkpt>
      <trkpt lat="47.77361" lon="-3.62985">
        <ele>14</ele>
        <time>2021-08-31T06:58:11Z</time>
      </trkpt>
      <trkpt lat="47.7738" lon="-3.63003">
        <ele>14</ele>
        <time>2021-08-31T06:58:12Z</time>
      </trkpt>
      <trkpt lat="47.77396" lon="-3.63019">
        <ele>14</ele>
        <time>2021-08-31T06:58:13Z</time>
      </trkpt>
      <trkpt lat="47.77419" lon="-3.63039">
        <ele>17</ele>
        <time>2021-08-31T06:58:14Z</time>
      </trkpt>
      <trkpt lat="47.77426" lon="-3.63041">
        <ele>20</ele>
        <time>2021-08-31T06:58:15Z</time>
      </trkpt>
      <trkpt lat="47.77427" lon="-3.63035">
        <ele>20</ele>
        <time>2021-08-31T06:58:16Z</time>
      </trkpt>
      <trkpt lat="47.77427" lon="-3.63024">
        <ele>20</ele>
        <time>2021-08-31T06:58:17Z</time>
      </trkpt>
      <trkpt lat="47.77434" lon="-3.62953">
        <ele>18</ele>
        <time>2021-08-31T06:58:18Z</time>
      </trkpt>
      <trkpt lat="47.77447" lon="-3.62951">
        <ele>18</ele>
        <time>2021-08-31T06:58:19Z</time>
      </trkpt>
      <trkpt lat="47.77456" lon="-3.62948">
        <ele>18</ele>
        <time>2021-08-31T06:58:20Z</time>
      </trkpt>
      <trkpt lat="47.7747" lon="-3.62927">
        <ele>10</ele>
        <time>2021-08-31T06:58:21Z</time>
      </trkpt>
      <trkpt lat="47.7748" lon="-3.62923">
        <ele>10</ele>
        <time>2021-08-31T06:58:22Z</time>
      </trkpt>
      <trkpt lat="47.77484" lon="-3.62926">
        <ele>10</ele>
        <time>2021-08-31T06:58:23Z</time>
      </trkpt>
      <trkpt lat="47.77494" lon="-3.62931">
        <ele>10</ele>
        <time>2021-08-31T06:58:24Z</time>
      </trkpt>
      <trkpt lat="47.77499" lon="-3.6293">
        <ele>10</ele>
        <time>2021-08-31T06:58:25Z</time>
      </trkpt>
      <trkpt lat="47.7751" lon="-3.62924">
        <ele>18</ele>
        <time>2021-08-31T06:58:26Z</time>
      </trkpt>
      <trkpt lat="47.77518" lon="-3.62922">
        <ele>18</ele>
        <time>2021-08-31T06:58:27Z</time>
      </trkpt>
      <trkpt lat="47.77527" lon="-3.62923">
        <ele>18</ele>
        <time>2021-08-31T06:58:28Z</time>
      </trkpt>
      <trkpt lat="47.77538" lon="-3.62927">
        <ele>18</ele>
        <time>2021-08-31T06:58:29Z</time>
      </trkpt>
      <trkpt lat="47.77588" lon="-3.62954">
        <ele>24</ele>
        <time>2021-08-31T06:58:30Z</time>
      </trkpt>
      <trkpt lat="47.77604" lon="-3.62957">
        <ele>24</ele>
        <time>2021-08-31T06:58:31Z</time>
      </trkpt>
      <trkpt lat="47.77615" lon="-3.62965">
        <ele>24</ele>
        <time>2021-08-31T06:58:32Z</time>
      </trkpt>
      <trkpt lat="47.77625" lon="-3.62969">
        <ele>24</ele>
        <time>2021-08-31T06:58:33Z</time>
      </trkpt>
      <trkpt lat="47.77638" lon="-3.62969">
        <ele>24</ele>
        <time>2021-08-31T06:58:34Z</time>
      </trkpt>
      <trkpt lat="47.77654" lon="-3.62967">
        <ele>24</ele>
        <time>2021-08-31T06:58:35Z</time>
      </trkpt>
      <trkpt lat="47.77671" lon="-3.62972">
        <ele>24</ele>
        <time>2021-08-31T06:58:36Z</time>
      </trkpt>
      <trkpt lat="47.77671" lon="-3.62972">
        <ele>24</ele>
        <time>2021-08-31T06:58:37Z</time>
      </trkpt>
      <trkpt lat="47.7768" lon="-3.6298">
        <ele>27</ele>
        <time>2021-08-31T06:58:38Z</time>
      </trkpt>
      <trkpt lat="47.77688" lon="-3.62997">
        <ele>27</ele>
        <time>2021-08-31T06:58:39Z</time>
      </trkpt>
      <trkpt lat="47.77695" lon="-3.63007">
        <ele>27</ele>
        <time>2021-08-31T06:58:40Z</time>
      </trkpt>
      <trkpt lat="47.77701" lon="-3.63009">
        <ele>27</ele>
        <time>2021-08-31T06:58:41Z</time>
      </trkpt>
      <trkpt lat="47.77711" lon="-3.63008">
        <ele>27</ele>
        <time>2021-08-31T06:58:42Z</time>
      </trkpt>
      <trkpt lat="47.77727" lon="-3.62996">
        <ele>27</ele>
        <time>2021-08-31T06:58:43Z</time>
      </trkpt>
      <trkpt lat="47.77805" lon="-3.62969">
        <ele>27</ele>
        <time>2021-08-31T06:58:44Z</time>
      </trkpt>
      <trkpt lat="47.77822" lon="-3.62964">
        <ele>27</ele>
        <time>2021-08-31T06:58:45Z</time>
      </trkpt>
      <trkpt lat="47.77835" lon="-3.62958">
        <ele>27</ele>
        <time>2021-08-31T06:58:46Z</time>
      </trkpt>
      <trkpt lat="47.77862" lon="-3.62972">
        <ele>25</ele>
        <time>2021-08-31T06:58:47Z</time>
      </trkpt>
      <trkpt lat="47.77885" lon="-3.62987">
        <ele>25</ele>
        <time>2021-08-31T06:58:48Z</time>
      </trkpt>
      <trkpt lat="47.77893" lon="-3.62987">
        <ele>25</ele>
        <time>2021-08-31T06:58:49Z</time>
      </trkpt>
      <trkpt lat="47.77897" lon="-3.62982">
        <ele>25</ele>
        <time>2021-08-31T06:58:50Z</time>
      </trkpt>
      <trkpt lat="47.779" lon="-3.62976">
        <ele>25</ele>
        <time>2021-08-31T06:58:51Z</time>
      </trkpt>
      <trkpt lat="47.77918" lon="-3.62945">
        <ele>25</ele>
        <time>2021-08-31T06:58:52Z</time>
      </trkpt>
      <trkpt lat="47.77927" lon="-3.62931">
        <ele>22</ele>
        <time>2021-08-31T06:58:53Z</time>
      </trkpt>
      <trkpt lat="47.77939" lon="-3.62915">
        <ele>22</ele>
        <time>2021-08-31T06:58:54Z</time>
      </trkpt>
      <trkpt lat="47.77951" lon="-3.62906">
        <ele>22</ele>
        <time>2021-08-31T06:58:55Z</time>
      </trkpt>
      <trkpt lat="47.7796" lon="-3.62904">
        <ele>22</ele>
        <time>2021-08-31T06:58:56Z</time>
      </trkpt>
      <trkpt lat="47.77986" lon="-3.6291">
        <ele>22</ele>
        <time>2021-08-31T06:58:57Z</time>
      </trkpt>
      <trkpt lat="47.77993" lon="-3.62898">
        <ele>22</ele>
        <time>2021-08-31T06:58:58Z</time>
      </trkpt>
      <trkpt lat="47.78019" lon="-3.62911">
        <ele>24</ele>
        <time>2021-08-31T06:58:59Z</time>
      </trkpt>
      <trkpt lat="47.78031" lon="-3.62913">
        <ele>24</ele>
        <time>2021-08-31T06:59:00Z</time>
      </trkpt>
      <trkpt lat="47.78033" lon="-3.62905">
        <ele>24</ele>
        <time>2021-08-31T06:59:01Z</time>
      </trkpt>
      <trkpt lat="47.78039" lon="-3.62901">
        <ele>24</ele>
        <time>2021-08-31T06:59:02Z</time>
      </trkpt>
      <trkpt lat="47.78047" lon="-3.62898">
        <ele>24</ele>
        <time>2021-08-31T06:59:03Z</time>
      </trkpt>
      <trkpt lat="47.78055" lon="-3.62898">
        <ele>24</ele>
        <time>2021-08-31T06:59:04Z</time>
      </trkpt>
      <trkpt lat="47.78064" lon="-3.629">
        <ele>24</ele>
        <time>2021-08-31T06:59:05Z</time>
      </trkpt>
      <trkpt lat="47.78071" lon="-3.62901">
        <ele>24</ele>
        <time>2021-08-31T06:59:06Z</time>
      </trkpt>
      <trkpt lat="47.78074" lon="-3.62889">
        <ele>24</ele>
        <time>2021-08-31T06:59:07Z</time>
      </trkpt>
      <trkpt lat="47.78074" lon="-3.62872">
        <ele>24</ele>
        <time>2021-08-31T06:59:08Z</time>
      </trkpt>
      <trkpt lat="47.78073" lon="-3.62854">
        <ele>24</ele>
        <time>2021-08-31T06:59:09Z</time>
      </trkpt>
      <trkpt lat="47.7807" lon="-3.62845">
        <ele>16</ele>
        <time>2021-08-31T06:59:10Z</time>
      </trkpt>
      <trkpt lat="47.78066" lon="-3.62835">
        <ele>16</ele>
        <time>2021-08-31T06:59:11Z</time>
      </trkpt>
      <trkpt lat="47.78064" lon="-3.62821">
        <ele>16</ele>
        <time>2021-08-31T06:59:12Z</time>
      </trkpt>
      <trkpt lat="47.7806" lon="-3.62802">
        <ele>16</ele>
        <time>2021-08-31T06:59:13Z</time>
      </trkpt>
      <trkpt lat="47.78056" lon="-3.62793">
        <ele>16</ele>
        <time>2021-08-31T06:59:14Z</time>
      </trkpt>
      <trkpt lat="47.78058" lon="-3.62779">
        <ele>16</ele>
        <time>2021-08-31T06:59:15Z</time>
      </trkpt>
      <trkpt lat="47.7806" lon="-3.62771">
        <ele>16</ele>
        <time>2021-08-31T06:59:16Z</time>
      </trkpt>
      <trkpt lat="47.78067" lon="-3.62757">
        <ele>15</ele>
        <time>2021-08-31T06:59:17Z</time>
      </trkpt>
      <trkpt lat="47.78057" lon="-3.62745">
        <ele>15</ele>
        <time>2021-08-31T06:59:18Z</time>
      </trkpt>
      <trkpt lat="47.78039" lon="-3.6271">
        <ele>15</ele>
        <time>2021-08-31T06:59:19Z</time>
      </trkpt>
      <trkpt lat="47.78027" lon="-3.62683">
        <ele>20</ele>
        <time>2021-08-31T06:59:20Z</time>
      </trkpt>
      <trkpt lat="47.78026" lon="-3.62665">
        <ele>20</ele>
        <time>2021-08-31T06:59:21Z</time>
      </trkpt>
      <trkpt lat="47.78025" lon="-3.62644">
        <ele>20</ele>
        <time>2021-08-31T06:59:22Z</time>
      </trkpt>
      <trkpt lat="47.7799" lon="-3.62663">
        <ele>28</ele>
        <time>2021-08-31T06:59:23Z</time>
      </trkpt>
      <trkpt lat="47.77986" lon="-3.62665">
        <ele>28</ele>
        <time>2021-08-31T06:59:24Z</time>
      </trkpt>
      <trkpt lat="47.77957" lon="-3.62701">
        <ele>20</ele>
        <time>2021-08-31T06:59:25Z</time>
      </trkpt>
      <trkpt lat="47.77943" lon="-3.62707">
        <ele>20</ele>
        <time>2021-08-31T06:59:26Z</time>
      </trkpt>
      <trkpt lat="47.7792" lon="-3.62716">
        <ele>22</ele>
        <time>2021-08-31T06:59:27Z</time>
      </trkpt>
      <trkpt lat="47.77877" lon="-3.62693">
        <ele>22</ele>
        <time>2021-08-31T06:59:28Z</time>
      </trkpt>
      <trkpt lat="47.77874" lon="-3.62692">
        <ele>22</ele>
        <time>2021-08-31T06:59:29Z</time>
      </trkpt>
      <trkpt lat="47.77839" lon="-3.62674">
        <ele>27</ele>
        <time>2021-08-31T06:59:30Z</time>
      </trkpt>
      <trkpt lat="47.77787" lon="-3.6269">
        <ele>23</ele>
        <time>2021-08-31T06:59:31Z</time>
      </trkpt>
      <trkpt lat="47.77782" lon="-3.62692">
        <ele>23</ele>
        <time>2021-08-31T06:59:32Z</time>
      </trkpt>
      <trkpt lat="47.77764" lon="-3.62698">
        <ele>23</ele>
        <time>2021-08-31T06:59:33Z</time>
      </trkpt>
      <trkpt lat="47.77736" lon="-3.62692">
        <ele>22</ele>
        <time>2021-08-31T06:59:34Z</time>
      </trkpt>
      <trkpt lat="47.77708" lon="-3.62682">
        <ele>25</ele>
        <time>2021-08-31T06:59:35Z</time>
      </trkpt>
      <trkpt lat="47.77691" lon="-3.62668">
        <ele>25</ele>
        <time>2021-08-31T06:59:36Z</time>
      </trkpt>
      <trkpt lat="47.77705" lon="-3.62651">
        <ele>25</ele>
        <time>2021-08-31T06:59:37Z</time>
      </trkpt>
      <trkpt lat="47.77723" lon="-3.62645">
        <ele>25</ele>
        <time>2021-08-31T06:59:38Z</time>
      </trkpt>
      <trkpt lat="47.77727" lon="-3.62631">
        <ele>25</ele>
        <time>2021-08-31T06:59:39Z</time>
      </trkpt>
      <trkpt lat="47.77749" lon="-3.6257">
        <ele>24</ele>
        <time>2021-08-31T06:59:40Z</time>
      </trkpt>
      <trkpt lat="47.77778" lon="-3.62445">
        <ele>28</ele>
        <time>2021-08-31T06:59:41Z</time>
      </trkpt>
      <trkpt lat="47.77755" lon="-3.62441">
        <ele>25</ele>
        <time>2021-08-31T06:59:42Z</time>
      </trkpt>
      <trkpt lat="47.77755" lon="-3.62438">
        <ele>28</ele>
        <time>2021-08-31T06:59:43Z</time>
      </trkpt>
      <trkpt lat="47.77779" lon="-3.62362">
        <ele>28</ele>
        <time>2021-08-31T06:59:44Z</time>
      </trkpt>
      <trkpt lat="47.77792" lon="-3.62289">
        <ele>28</ele>
        <time>2021-08-31T06:59:45Z</time>
      </trkpt>
      <trkpt lat="47.77812" lon="-3.62214">
        <ele>26</ele>
        <time>2021-08-31T06:59:46Z</time>
      </trkpt>
      <trkpt lat="47.77817" lon="-3.62197">
        <ele>26</ele>
        <time>2021-08-31T06:59:47Z</time>
      </trkpt>
      <trkpt lat="47.7782" lon="-3.62185">
        <ele>26</ele>
        <time>2021-08-31T06:59:48Z</time>
      </trkpt>
      <trkpt lat="47.77823" lon="-3.62182">
        <ele>25</ele>
        <time>2021-08-31T06:59:49Z</time>
      </trkpt>
      <trkpt lat="47.77826" lon="-3.62179">
        <ele>25</ele>
        <time>2021-08-31T06:59:50Z</time>
      </trkpt>
      <trkpt lat="47.77829" lon="-3.62177">
        <ele>25</ele>
        <time>2021-08-31T06:59:51Z</time>
      </trkpt>
      <trkpt lat="47.77836" lon="-3.62179">
        <ele>25</ele>
        <time>2021-08-31T06:59:52Z</time>
      </trkpt>
      <trkpt lat="47.77836" lon="-3.6218">
        <ele>25</ele>
        <time>2021-08-31T06:59:53Z</time>
      </trkpt>
      <trkpt lat="47.77853" lon="-3.62184">
        <ele>30</ele>
        <time>2021-08-31T06:59:54Z</time>
      </trkpt>
      <trkpt lat="47.77878" lon="-3.62187">
        <ele>30</ele>
        <time>2021-08-31T06:59:55Z</time>
      </trkpt>
      <trkpt lat="47.77902" lon="-3.62192">
        <ele>30</ele>
        <time>2021-08-31T06:59:56Z</time>
      </trkpt>
      <trkpt lat="47.77912" lon="-3.62191">
        <ele>30</ele>
        <time>2021-08-31T06:59:57Z</time>
      </trkpt>
      <trkpt lat="47.77907" lon="-3.62164">
        <ele>30</ele>
        <time>2021-08-31T06:59:58Z</time>
      </trkpt>
      <trkpt lat="47.779" lon="-3.62135">
        <ele>30</ele>
        <time>2021-08-31T06:59:59Z</time>
      </trkpt>
      <trkpt lat="47.77896" lon="-3.62119">
        <ele>30</ele>
        <time>2021-08-31T07:00:00Z</time>
      </trkpt>
      <trkpt lat="47.77895" lon="-3.62096">
        <ele>29</ele>
        <time>2021-08-31T07:00:01Z</time>
      </trkpt>
      <trkpt lat="47.77893" lon="-3.62061">
        <ele>29</ele>
        <time>2021-08-31T07:00:02Z</time>
      </trkpt>
      <trkpt lat="47.77891" lon="-3.62023">
        <ele>29</ele>
        <time>2021-08-31T07:00:03Z</time>
      </trkpt>
      <trkpt lat="47.77891" lon="-3.62023">
        <ele>29</ele>
        <time>2021-08-31T07:00:04Z</time>
      </trkpt>
      <trkpt lat="47.7789" lon="-3.62009">
        <ele>29</ele>
        <time>2021-08-31T07:00:05Z</time>
      </trkpt>
      <trkpt lat="47.77943" lon="-3.62008">
        <ele>31</ele>
        <time>2021-08-31T07:00:06Z</time>
      </trkpt>
      <trkpt lat="47.77962" lon="-3.62004">
        <ele>31</ele>
        <time>2021-08-31T07:00:07Z</time>
      </trkpt>
      <trkpt lat="47.78018" lon="-3.61984">
        <ele>34</ele>
        <time>2021-08-31T07:00:08Z</time>
      </trkpt>
      <trkpt lat="47.77996" lon="-3.61942">
        <ele>31</ele>
        <time>2021-08-31T07:00:09Z</time>
      </trkpt>
      <trkpt lat="47.77979" lon="-3.61909">
        <ele>30</ele>
        <time>2021-08-31T07:00:10Z</time>
      </trkpt>
      <trkpt lat="47.77959" lon="-3.6187">
        <ele>30</ele>
        <time>2021-08-31T07:00:11Z</time>
      </trkpt>
      <trkpt lat="47.77955" lon="-3.61858">
        <ele>30</ele>
        <time>2021-08-31T07:00:12Z</time>
      </trkpt>
      <trkpt lat="47.77945" lon="-3.61826">
        <ele>31</ele>
        <time>2021-08-31T07:00:13Z</time>
      </trkpt>
      <trkpt lat="47.77938" lon="-3.61797">
        <ele>31</ele>
        <time>2021-08-31T07:00:14Z</time>
      </trkpt>
      <trkpt lat="47.77932" lon="-3.61755">
        <ele>30</ele>
        <time>2021-08-31T07:00:15Z</time>
      </trkpt>
      <trkpt lat="47.77926" lon="-3.61734">
        <ele>30</ele>
        <time>2021-08-31T07:00:16Z</time>
      </trkpt>
      <trkpt lat="47.77923" lon="-3.61726">
        <ele>30</ele>
        <time>2021-08-31T07:00:17Z</time>
      </trkpt>
      <trkpt lat="47.77915" lon="-3.61723">
        <ele>31</ele>
        <time>2021-08-31T07:00:18Z</time>
      </trkpt>
      <trkpt lat="47.779" lon="-3.61725">
        <ele>31</ele>
        <time>2021-08-31T07:00:19Z</time>
      </trkpt>
      <trkpt lat="47.77875" lon="-3.6173">
        <ele>31</ele>
        <time>2021-08-31T07:00:20Z</time>
      </trkpt>
      <trkpt lat="47.7786" lon="-3.61734">
        <ele>31</ele>
        <time>2021-08-31T07:00:21Z</time>
      </trkpt>
      <trkpt lat="47.77845" lon="-3.61733">
        <ele>31</ele>
        <time>2021-08-31T07:00:22Z</time>
      </trkpt>
      <trkpt lat="47.77837" lon="-3.61731">
        <ele>28</ele>
        <time>2021-08-31T07:00:23Z</time>
      </trkpt>
      <trkpt lat="47.7783" lon="-3.61727">
        <ele>28</ele>
        <time>2021-08-31T07:00:24Z</time>
      </trkpt>
      <trkpt lat="47.77813" lon="-3.61714">
        <ele>28</ele>
        <time>2021-08-31T07:00:25Z</time>
      </trkpt>
      <trkpt lat="47.77797" lon="-3.61693">
        <ele>28</ele>
        <time>2021-08-31T07:00:26Z</time>
      </trkpt>
      <trkpt lat="47.7779" lon="-3.61679">
        <ele>30</ele>
        <time>2021-08-31T07:00:27Z</time>
      </trkpt>
      <trkpt lat="47.77786" lon="-3.6167">
        <ele>30</ele>
        <time>2021-08-31T07:00:28Z</time>
      </trkpt>
      <trkpt lat="47.77771" lon="-3.61669">
        <ele>30</ele>
        <time>2021-08-31T07:00:29Z</time>
      </trkpt>
      <trkpt lat="47.77752" lon="-3.61673">
        <ele>31</ele>
        <time>2021-08-31T07:00:30Z</time>
      </trkpt>
      <trkpt lat="47.77719" lon="-3.61678">
        <ele>31</ele>
        <time>2021-08-31T07:00:31Z</time>
      </trkpt>
      <trkpt lat="47.77707" lon="-3.61688">
        <ele>28</ele>
        <time>2021-08-31T07:00:32Z</time>
      </trkpt>
      <trkpt lat="47.77686" lon="-3.61697">
        <ele>28</ele>
        <time>2021-08-31T07:00:33Z</time>
      </trkpt>
      <trkpt lat="47.77576" lon="-3.61748">
        <ele>30</ele>
        <time>2021-08-31T07:00:34Z</time>
      </trkpt>
      <trkpt lat="47.77562" lon="-3.61743">
        <ele>30</ele>
        <time>2021-08-31T07:00:35Z</time>
      </trkpt>
      <trkpt lat="47.77543" lon="-3.61735">
        <ele>30</ele>
        <time>2021-08-31T07:00:36Z</time>
      </trkpt>
      <trkpt lat="47.77535" lon="-3.61736">
        <ele>30</ele>
        <time>2021-08-31T07:00:37Z</time>
      </trkpt>
      <trkpt lat="47.77525" lon="-3.61736">
        <ele>30</ele>
        <time>2021-08-31T07:00:38Z</time>
      </trkpt>
      <trkpt lat="47.77523" lon="-3.61736">
        <ele>30</ele>
        <time>2021-08-31T07:00:39Z</time>
      </trkpt>
      <trkpt lat="47.7751" lon="-3.61723">
        <ele>30</ele>
        <time>2021-08-31T07:00:40Z</time>
      </trkpt>
      <trkpt lat="47.77508" lon="-3.61721">
        <ele>30</ele>
        <time>2021-08-31T07:00:41Z</time>
      </trkpt>
      <trkpt lat="47.77473" lon="-3.61714">
        <ele>27</ele>
        <time>2021-08-31T07:00:42Z</time>
      </trkpt>
      <trkpt lat="47.77469" lon="-3.61713">
        <ele>27</ele>
        <time>2021-08-31T07:00:43Z</time>
      </trkpt>
      <trkpt lat="47.77397" lon="-3.61721">
        <ele>29</ele>
        <time>2021-08-31T07:00:44Z</time>
      </trkpt>
      <trkpt lat="47.77384" lon="-3.61722">
        <ele>29</ele>
        <time>2021-08-31T07:00:45Z</time>
      </trkpt>
      <trkpt lat="47.77376" lon="-3.61723">
        <ele>29</ele>
        <time>2021-08-31T07:00:46Z</time>
      </trkpt>
      <trkpt lat="47.77353" lon="-3.61719">
        <ele>29</ele>
        <time>2021-08-31T07:00:47Z</time>
      </trkpt>
      <trkpt lat="47.77318" lon="-3.61712">
        <ele>28</ele>
        <time>2021-08-31T07:00:48Z</time>
      </trkpt>
      <trkpt lat="47.77295" lon="-3.61711">
        <ele>28</ele>
        <time>2021-08-31T07:00:49Z</time>
      </trkpt>
      <trkpt lat="47.7728" lon="-3.61711">
        <ele>28</ele>
        <time>2021-08-31T07:00:50Z</time>
      </trkpt>
      <trkpt lat="47.7725" lon="-3.6171">
        <ele>27</ele>
        <time>2021-08-31T07:00:51Z</time>
      </trkpt>
      <trkpt lat="47.7725" lon="-3.61709">
        <ele>27</ele>
        <time>2021-08-31T07:00:52Z</time>
      </trkpt>
      <trkpt lat="47.7723" lon="-3.61709">
        <ele>27</ele>
        <time>2021-08-31T07:00:53Z</time>
      </trkpt>
      <trkpt lat="47.77209" lon="-3.61706">
        <ele>27</ele>
        <time>2021-08-31T07:00:54Z</time>
      </trkpt>
      <trkpt lat="47.77188" lon="-3.61704">
        <ele>27</ele>
        <time>2021-08-31T07:00:55Z</time>
      </trkpt>
      <trkpt lat="47.77168" lon="-3.61699">
        <ele>21</ele>
        <time>2021-08-31T07:00:56Z</time>
      </trkpt>
      <trkpt lat="47.77153" lon="-3.61692">
        <ele>21</ele>
        <time>2021-08-31T07:00:57Z</time>
      </trkpt>
      <trkpt lat="47.77139" lon="-3.61684">
        <ele>22</ele>
        <time>2021-08-31T07:00:58Z</time>
      </trkpt>
      <trkpt lat="47.77138" lon="-3.61684">
        <ele>22</ele>
        <time>2021-08-31T07:00:59Z</time>
      </trkpt>
      <trkpt lat="47.77139" lon="-3.61684">
        <ele>22</ele>
        <time>2021-08-31T07:01:00Z</time>
      </trkpt>
      <trkpt lat="47.77145" lon="-3.61649">
        <ele>22</ele>
        <time>2021-08-31T07:01:01Z</time>
      </trkpt>
      <trkpt lat="47.77147" lon="-3.61643">
        <ele>22</ele>
        <time>2021-08-31T07:01:02Z</time>
      </trkpt>
      <trkpt lat="47.7715" lon="-3.61599">
        <ele>20</ele>
        <time>2021-08-31T07:01:03Z</time>
      </trkpt>
      <trkpt lat="47.77149" lon="-3.61588">
        <ele>20</ele>
        <time>2021-08-31T07:01:04Z</time>
      </trkpt>
      <trkpt lat="47.77141" lon="-3.61514">
        <ele>18</ele>
        <time>2021-08-31T07:01:05Z</time>
      </trkpt>
      <trkpt lat="47.7713" lon="-3.6147">
        <ele>18</ele>
        <time>2021-08-31T07:01:06Z</time>
      </trkpt>
      <trkpt lat="47.7712" lon="-3.61447">
        <ele>18</ele>
        <time>2021-08-31T07:01:07Z</time>
      </trkpt>
      <trkpt lat="47.77131" lon="-3.61394">
        <ele>15</ele>
        <time>2021-08-31T07:01:08Z</time>
      </trkpt>
      <trkpt lat="47.77132" lon="-3.6139">
        <ele>15</ele>
        <time>2021-08-31T07:01:09Z</time>
      </trkpt>
      <trkpt lat="47.77144" lon="-3.61345">
        <ele>11</ele>
        <time>2021-08-31T07:01:10Z</time>
      </trkpt>
      <trkpt lat="47.77158" lon="-3.61303">
        <ele>11</ele>
        <time>2021-08-31T07:01:11Z</time>
      </trkpt>
      <trkpt lat="47.77174" lon="-3.61256">
        <ele>19</ele>
        <time>2021-08-31T07:01:12Z</time>
      </trkpt>
      <trkpt lat="47.77194" lon="-3.612">
        <ele>19</ele>
        <time>2021-08-31T07:01:13Z</time>
      </trkpt>
      <trkpt lat="47.77205" lon="-3.61174">
        <ele>19</ele>
        <time>2021-08-31T07:01:14Z</time>
      </trkpt>
      <trkpt lat="47.77207" lon="-3.6117">
        <ele>19</ele>
        <time>2021-08-31T07:01:15Z</time>
      </trkpt>
      <trkpt lat="47.77218" lon="-3.61177">
        <ele>19</ele>
        <time>2021-08-31T07:01:16Z</time>
      </trkpt>
      <trkpt lat="47.7723" lon="-3.61188">
        <ele>19</ele>
        <time>2021-08-31T07:01:17Z</time>
      </trkpt>
      <trkpt lat="47.77239" lon="-3.61188">
        <ele>19</ele>
        <time>2021-08-31T07:01:18Z</time>
      </trkpt>
      <trkpt lat="47.77263" lon="-3.61173">
        <ele>21</ele>
        <time>2021-08-31T07:01:19Z</time>
      </trkpt>
      <trkpt lat="47.77283" lon="-3.61161">
        <ele>21</ele>
        <time>2021-08-31T07:01:20Z</time>
      </trkpt>
      <trkpt lat="47.77289" lon="-3.61155">
        <ele>21</ele>
        <time>2021-08-31T07:01:21Z</time>
      </trkpt>
      <trkpt lat="47.77315" lon="-3.61178">
        <ele>21</ele>
        <time>2021-08-31T07:01:22Z</time>
      </trkpt>
      <trkpt lat="47.77322" lon="-3.61184">
        <ele>21</ele>
        <time>2021-08-31T07:01:23Z</time>
      </trkpt>
      <trkpt lat="47.77343" lon="-3.61205">
        <ele>24</ele>
        <time>2021-08-31T07:01:24Z</time>
      </trkpt>
      <trkpt lat="47.77366" lon="-3.61214">
        <ele>24</ele>
        <time>2021-08-31T07:01:25Z</time>
      </trkpt>
      <trkpt lat="47.77381" lon="-3.61218">
        <ele>24</ele>
        <time>2021-08-31T07:01:26Z</time>
      </trkpt>
      <trkpt lat="47.77398" lon="-3.61222">
        <ele>24</ele>
        <time>2021-08-31T07:01:27Z</time>
      </trkpt>
      <trkpt lat="47.7739" lon="-3.61279">
        <ele>26</ele>
        <time>2021-08-31T07:01:28Z</time>
      </trkpt>
      <trkpt lat="47.77382" lon="-3.6131">
        <ele>26</ele>
        <time>2021-08-31T07:01:29Z</time>
      </trkpt>
      <trkpt lat="47.77373" lon="-3.61342">
        <ele>26</ele>
        <time>2021-08-31T07:01:30Z</time>
      </trkpt>
      <trkpt lat="47.77369" lon="-3.61364">
        <ele>28</ele>
        <time>2021-08-31T07:01:31Z</time>
      </trkpt>
      <trkpt lat="47.77365" lon="-3.61382">
        <ele>28</ele>
        <time>2021-08-31T07:01:32Z</time>
      </trkpt>
      <trkpt lat="47.77363" lon="-3.61391">
        <ele>28</ele>
        <time>2021-08-31T07:01:33Z</time>
      </trkpt>
      <trkpt lat="47.77361" lon="-3.61409">
        <ele>28</ele>
        <time>2021-08-31T07:01:34Z</time>
      </trkpt>
      <trkpt lat="47.77369" lon="-3.61511">
        <ele>31</ele>
        <time>2021-08-31T07:01:35Z</time>
      </trkpt>
      <trkpt lat="47.77375" lon="-3.61543">
        <ele>30</ele>
        <time>2021-08-31T07:01:36Z</time>
      </trkpt>
      <trkpt lat="47.77379" lon="-3.61567">
        <ele>30</ele>
        <time>2021-08-31T07:01:37Z</time>
      </trkpt>
      <trkpt lat="47.77384" lon="-3.61581">
        <ele>30</ele>
        <time>2021-08-31T07:01:38Z</time>
      </trkpt>
      <trkpt lat="47.77387" lon="-3.61592">
        <ele>30</ele>
        <time>2021-08-31T07:01:39Z</time>
      </trkpt>
      <trkpt lat="47.77395" lon="-3.6161">
        <ele>30</ele>
        <time>2021-08-31T07:01:40Z</time>
      </trkpt>
      <trkpt lat="47.77417" lon="-3.61631">
        <ele>30</ele>
        <time>2021-08-31T07:01:41Z</time>
      </trkpt>
      <trkpt lat="47.77447" lon="-3.61651">
        <ele>30</ele>
        <time>2021-08-31T07:01:42Z</time>
      </trkpt>
      <trkpt lat="47.7746" lon="-3.61684">
        <ele>30</ele>
        <time>2021-08-31T07:01:43Z</time>
      </trkpt>
      <trkpt lat="47.77468" lon="-3.61702">
        <ele>27</ele>
        <time>2021-08-31T07:01:44Z</time>
      </trkpt>
      <trkpt lat="47.7751" lon="-3.61694">
        <ele>30</ele>
        <time>2021-08-31T07:01:45Z</time>
      </trkpt>
      <trkpt lat="47.7753" lon="-3.6169">
        <ele>30</ele>
        <time>2021-08-31T07:01:46Z</time>
      </trkpt>
      <trkpt lat="47.77559" lon="-3.61651">
        <ele>31</ele>
        <time>2021-08-31T07:01:47Z</time>
      </trkpt>
      <trkpt lat="47.77573" lon="-3.61635">
        <ele>31</ele>
        <time>2021-08-31T07:01:48Z</time>
      </trkpt>
      <trkpt lat="47.77575" lon="-3.61632">
        <ele>31</ele>
        <time>2021-08-31T07:01:49Z</time>
      </trkpt>
      <trkpt lat="47.77609" lon="-3.61605">
        <ele>32</ele>
        <time>2021-08-31T07:01:50Z</time>
      </trkpt>
      <trkpt lat="47.7762" lon="-3.61584">
        <ele>30</ele>
        <time>2021-08-31T07:01:51Z</time>
      </trkpt>
      <trkpt lat="47.77621" lon="-3.6156">
        <ele>30</ele>
        <time>2021-08-31T07:01:52Z</time>
      </trkpt>
      <trkpt lat="47.77621" lon="-3.61484">
        <ele>27</ele>
        <time>2021-08-31T07:01:53Z</time>
      </trkpt>
      <trkpt lat="47.77621" lon="-3.61453">
        <ele>27</ele>
        <time>2021-08-31T07:01:54Z</time>
      </trkpt>
      <trkpt lat="47.77614" lon="-3.61411">
        <ele>24</ele>
        <time>2021-08-31T07:01:55Z</time>
      </trkpt>
      <trkpt lat="47.77616" lon="-3.61392">
        <ele>24</ele>
        <time>2021-08-31T07:01:56Z</time>
      </trkpt>
      <trkpt lat="47.77654" lon="-3.61314">
        <ele>24</ele>
        <time>2021-08-31T07:01:57Z</time>
      </trkpt>
      <trkpt lat="47.77652" lon="-3.61312">
        <ele>24</ele>
        <time>2021-08-31T07:01:58Z</time>
      </trkpt>
      <trkpt lat="47.77647" lon="-3.61308">
        <ele>24</ele>
        <time>2021-08-31T07:01:59Z</time>
      </trkpt>
      <trkpt lat="47.77636" lon="-3.61295">
        <ele>24</ele>
        <time>2021-08-31T07:02:00Z</time>
      </trkpt>
      <trkpt lat="47.77648" lon="-3.61244">
        <ele>24</ele>
        <time>2021-08-31T07:02:01Z</time>
      </trkpt>
      <trkpt lat="47.77699" lon="-3.61265">
        <ele>28</ele>
        <time>2021-08-31T07:02:02Z</time>
      </trkpt>
      <trkpt lat="47.77696" lon="-3.61193">
        <ele>28</ele>
        <time>2021-08-31T07:02:03Z</time>
      </trkpt>
      <trkpt lat="47.77699" lon="-3.61174">
        <ele>30</ele>
        <time>2021-08-31T07:02:04Z</time>
      </trkpt>
      <trkpt lat="47.77707" lon="-3.61128">
        <ele>30</ele>
        <time>2021-08-31T07:02:05Z</time>
      </trkpt>
      <trkpt lat="47.77728" lon="-3.61075">
        <ele>31</ele>
        <time>2021-08-31T07:02:06Z</time>
      </trkpt>
      <trkpt lat="47.7775" lon="-3.60991">
        <ele>30</ele>
        <time>2021-08-31T07:02:07Z</time>
      </trkpt>
      <trkpt lat="47.77756" lon="-3.60961">
        <ele>31</ele>
        <time>2021-08-31T07:02:08Z</time>
      </trkpt>
      <trkpt lat="47.77759" lon="-3.60948">
        <ele>31</ele>
        <time>2021-08-31T07:02:09Z</time>
      </trkpt>
      <trkpt lat="47.77804" lon="-3.60961">
        <ele>31</ele>
        <time>2021-08-31T07:02:10Z</time>
      </trkpt>
      <trkpt lat="47.77827" lon="-3.60967">
        <ele>31</ele>
        <time>2021-08-31T07:02:11Z</time>
      </trkpt>
      <trkpt lat="47.77844" lon="-3.60967">
        <ele>30</ele>
        <time>2021-08-31T07:02:12Z</time>
      </trkpt>
      <trkpt lat="47.77859" lon="-3.60968">
        <ele>30</ele>
        <time>2021-08-31T07:02:13Z</time>
      </trkpt>
      <trkpt lat="47.77872" lon="-3.60934">
        <ele>29</ele>
        <time>2021-08-31T07:02:14Z</time>
      </trkpt>
      <trkpt lat="47.77875" lon="-3.60925">
        <ele>29</ele>
        <time>2021-08-31T07:02:15Z</time>
      </trkpt>
      <trkpt lat="47.77876" lon="-3.60916">
        <ele>29</ele>
        <time>2021-08-31T07:02:16Z</time>
      </trkpt>
      <trkpt lat="47.77882" lon="-3.60894">
        <ele>29</ele>
        <time>2021-08-31T07:02:17Z</time>
      </trkpt>
      <trkpt lat="47.7792" lon="-3.60893">
        <ele>29</ele>
        <time>2021-08-31T07:02:18Z</time>
      </trkpt>
      <trkpt lat="47.77972" lon="-3.6089">
        <ele>25</ele>
        <time>2021-08-31T07:02:19Z</time>
      </trkpt>
      <trkpt lat="47.78004" lon="-3.60901">
        <ele>25</ele>
        <time>2021-08-31T07:02:20Z</time>
      </trkpt>
      <trkpt lat="47.78026" lon="-3.60912">
        <ele>29</ele>
        <time>2021-08-31T07:02:21Z</time>
      </trkpt>
      <trkpt lat="47.78035" lon="-3.60937">
        <ele>27</ele>
        <time>2021-08-31T07:02:22Z</time>
      </trkpt>
      <trkpt lat="47.7804" lon="-3.60948">
        <ele>27</ele>
        <time>2021-08-31T07:02:23Z</time>
      </trkpt>
      <trkpt lat="47.7805" lon="-3.60938">
        <ele>27</ele>
        <time>2021-08-31T07:02:24Z</time>
      </trkpt>
      <trkpt lat="47.78054" lon="-3.60922">
        <ele>29</ele>
        <time>2021-08-31T07:02:25Z</time>
      </trkpt>
      <trkpt lat="47.78093" lon="-3.60921">
        <ele>33</ele>
        <time>2021-08-31T07:02:26Z</time>
      </trkpt>
      <trkpt lat="47.78117" lon="-3.6093">
        <ele>33</ele>
        <time>2021-08-31T07:02:27Z</time>
      </trkpt>
      <trkpt lat="47.78137" lon="-3.60944">
        <ele>31</ele>
        <time>2021-08-31T07:02:28Z</time>
      </trkpt>
      <trkpt lat="47.78193" lon="-3.60967">
        <ele>40</ele>
        <time>2021-08-31T07:02:29Z</time>
      </trkpt>
      <trkpt lat="47.78281" lon="-3.61006">
        <ele>43</ele>
        <time>2021-08-31T07:02:30Z</time>
      </trkpt>
      <trkpt lat="47.7835" lon="-3.61044">
        <ele>43</ele>
        <time>2021-08-31T07:02:31Z</time>
      </trkpt>
      <trkpt lat="47.78393" lon="-3.61072">
        <ele>43</ele>
        <time>2021-08-31T07:02:32Z</time>
      </trkpt>
      <trkpt lat="47.78395" lon="-3.61073">
        <ele>43</ele>
        <time>2021-08-31T07:02:33Z</time>
      </trkpt>
      <trkpt lat="47.78406" lon="-3.61077">
        <ele>43</ele>
        <time>2021-08-31T07:02:34Z</time>
      </trkpt>
      <trkpt lat="47.7843" lon="-3.61097">
        <ele>45</ele>
        <time>2021-08-31T07:02:35Z</time>
      </trkpt>
      <trkpt lat="47.78435" lon="-3.61095">
        <ele>45</ele>
        <time>2021-08-31T07:02:36Z</time>
      </trkpt>
      <trkpt lat="47.78444" lon="-3.61093">
        <ele>45</ele>
        <time>2021-08-31T07:02:37Z</time>
      </trkpt>
      <trkpt lat="47.7846" lon="-3.6109">
        <ele>45</ele>
        <time>2021-08-31T07:02:38Z</time>
      </trkpt>
      <trkpt lat="47.78474" lon="-3.61088">
        <ele>45</ele>
        <time>2021-08-31T07:02:39Z</time>
      </trkpt>
      <trkpt lat="47.78506" lon="-3.61082">
        <ele>43</ele>
        <time>2021-08-31T07:02:40Z</time>
      </trkpt>
      <trkpt lat="47.78533" lon="-3.61076">
        <ele>43</ele>
        <time>2021-08-31T07:02:41Z</time>
      </trkpt>
      <trkpt lat="47.78607" lon="-3.61048">
        <ele>41</ele>
        <time>2021-08-31T07:02:42Z</time>
      </trkpt>
      <trkpt lat="47.78621" lon="-3.61043">
        <ele>41</ele>
        <time>2021-08-31T07:02:43Z</time>
      </trkpt>
      <trkpt lat="47.78645" lon="-3.61032">
        <ele>41</ele>
        <time>2021-08-31T07:02:44Z</time>
      </trkpt>
      <trkpt lat="47.78709" lon="-3.60994">
        <ele>38</ele>
        <time>2021-08-31T07:02:45Z</time>
      </trkpt>
      <trkpt lat="47.78723" lon="-3.61125">
        <ele>37</ele>
        <time>2021-08-31T07:02:46Z</time>
      </trkpt>
      <trkpt lat="47.78735" lon="-3.61262">
        <ele>35</ele>
        <time>2021-08-31T07:02:47Z</time>
      </trkpt>
      <trkpt lat="47.78743" lon="-3.61365">
        <ele>32</ele>
        <time>2021-08-31T07:02:48Z</time>
      </trkpt>
      <trkpt lat="47.78746" lon="-3.61419">
        <ele>32</ele>
        <time>2021-08-31T07:02:49Z</time>
      </trkpt>
      <trkpt lat="47.7876" lon="-3.61427">
        <ele>31</ele>
        <time>2021-08-31T07:02:50Z</time>
      </trkpt>
      <trkpt lat="47.78791" lon="-3.61435">
        <ele>31</ele>
        <time>2021-08-31T07:02:51Z</time>
      </trkpt>
      <trkpt lat="47.78809" lon="-3.61439">
        <ele>33</ele>
        <time>2021-08-31T07:02:52Z</time>
      </trkpt>
      <trkpt lat="47.78833" lon="-3.61443">
        <ele>33</ele>
        <time>2021-08-31T07:02:53Z</time>
      </trkpt>
      <trkpt lat="47.78856" lon="-3.61456">
        <ele>35</ele>
        <time>2021-08-31T07:02:54Z</time>
      </trkpt>
      <trkpt lat="47.7887" lon="-3.61457">
        <ele>35</ele>
        <time>2021-08-31T07:02:55Z</time>
      </trkpt>
      <trkpt lat="47.78903" lon="-3.61453">
        <ele>35</ele>
        <time>2021-08-31T07:02:56Z</time>
      </trkpt>
      <trkpt lat="47.78931" lon="-3.61444">
        <ele>38</ele>
        <time>2021-08-31T07:02:57Z</time>
      </trkpt>
      <trkpt lat="47.78981" lon="-3.6142">
        <ele>38</ele>
        <time>2021-08-31T07:02:58Z</time>
      </trkpt>
      <trkpt lat="47.79009" lon="-3.61401">
        <ele>38</ele>
        <time>2021-08-31T07:02:59Z</time>
      </trkpt>
      <trkpt lat="47.79012" lon="-3.61426">
        <ele>38</ele>
        <time>2021-08-31T07:03:00Z</time>
      </trkpt>
      <trkpt lat="47.79025" lon="-3.61496">
        <ele>39</ele>
        <time>2021-08-31T07:03:01Z</time>
      </trkpt>
      <trkpt lat="47.79029" lon="-3.6155">
        <ele>40</ele>
        <time>2021-08-31T07:03:02Z</time>
      </trkpt>
      <trkpt lat="47.7903" lon="-3.61602">
        <ele>39</ele>
        <time>2021-08-31T07:03:03Z</time>
      </trkpt>
      <trkpt lat="47.79035" lon="-3.61645">
        <ele>39</ele>
        <time>2021-08-31T07:03:04Z</time>
      </trkpt>
      <trkpt lat="47.79037" lon="-3.61671">
        <ele>39</ele>
        <time>2021-08-31T07:03:05Z</time>
      </trkpt>
      <trkpt lat="47.79038" lon="-3.61676">
        <ele>39</ele>
        <time>2021-08-31T07:03:06Z</time>
      </trkpt>
      <trkpt lat="47.79049" lon="-3.61751">
        <ele>40</ele>
        <time>2021-08-31T07:03:07Z</time>
      </trkpt>
      <trkpt lat="47.79061" lon="-3.61816">
        <ele>40</ele>
        <time>2021-08-31T07:03:08Z</time>
      </trkpt>
      <trkpt lat="47.79067" lon="-3.61846">
        <ele>40</ele>
        <time>2021-08-31T07:03:09Z</time>
      </trkpt>
      <trkpt lat="47.79061" lon="-3.6187">
        <ele>40</ele>
        <time>2021-08-31T07:03:10Z</time>
      </trkpt>
      <trkpt lat="47.79046" lon="-3.61891">
        <ele>40</ele>
        <time>2021-08-31T07:03:11Z</time>
      </trkpt>
      <trkpt lat="47.79001" lon="-3.61927">
        <ele>40</ele>
        <time>2021-08-31T07:03:12Z</time>
      </trkpt>
      <trkpt lat="47.79006" lon="-3.61973">
        <ele>40</ele>
        <time>2021-08-31T07:03:13Z</time>
      </trkpt>
      <trkpt lat="47.79002" lon="-3.6207">
        <ele>37</ele>
        <time>2021-08-31T07:03:14Z</time>
      </trkpt>
      <trkpt lat="47.79011" lon="-3.6215">
        <ele>39</ele>
        <time>2021-08-31T07:03:15Z</time>
      </trkpt>
      <trkpt lat="47.79025" lon="-3.62198">
        <ele>39</ele>
        <time>2021-08-31T07:03:16Z</time>
      </trkpt>
      <trkpt lat="47.79028" lon="-3.62206">
        <ele>39</ele>
        <time>2021-08-31T07:03:17Z</time>
      </trkpt>
      <trkpt lat="47.79035" lon="-3.62253">
        <ele>39</ele>
        <time>2021-08-31T07:03:18Z</time>
      </trkpt>
      <trkpt lat="47.79037" lon="-3.62268">
        <ele>39</ele>
        <time>2021-08-31T07:03:19Z</time>
      </trkpt>
      <trkpt lat="47.79037" lon="-3.62273">
        <ele>39</ele>
        <time>2021-08-31T07:03:20Z</time>
      </trkpt>
      <trkpt lat="47.79064" lon="-3.62265">
        <ele>39</ele>
        <time>2021-08-31T07:03:21Z</time>
      </trkpt>
      <trkpt lat="47.79084" lon="-3.62259">
        <ele>39</ele>
        <time>2021-08-31T07:03:22Z</time>
      </trkpt>
      <trkpt lat="47.79106" lon="-3.62256">
        <ele>37</ele>
        <time>2021-08-31T07:03:23Z</time>
      </trkpt>
      <trkpt lat="47.79108" lon="-3.62256">
        <ele>37</ele>
        <time>2021-08-31T07:03:24Z</time>
      </trkpt>
      <trkpt lat="47.79109" lon="-3.62258">
        <ele>37</ele>
        <time>2021-08-31T07:03:25Z</time>
      </trkpt>
      <trkpt lat="47.79114" lon="-3.62277">
        <ele>40</ele>
        <time>2021-08-31T07:03:26Z</time>
      </trkpt>
      <trkpt lat="47.79117" lon="-3.62288">
        <ele>40</ele>
        <time>2021-08-31T07:03:27Z</time>
      </trkpt>
      <trkpt lat="47.79121" lon="-3.62309">
        <ele>40</ele>
        <time>2021-08-31T07:03:28Z</time>
      </trkpt>
      <trkpt lat="47.79125" lon="-3.62313">
        <ele>40</ele>
        <time>2021-08-31T07:03:29Z</time>
      </trkpt>
      <trkpt lat="47.7913" lon="-3.62316">
        <ele>40</ele>
        <time>2021-08-31T07:03:30Z</time>
      </trkpt>
      <trkpt lat="47.79136" lon="-3.62318">
        <ele>40</ele>
        <time>2021-08-31T07:03:31Z</time>
      </trkpt>
      <trkpt lat="47.79151" lon="-3.62321">
        <ele>40</ele>
        <time>2021-08-31T07:03:32Z</time>
      </trkpt>
      <trkpt lat="47.79135" lon="-3.62507">
        <ele>38</ele>
        <time>2021-08-31T07:03:33Z</time>
      </trkpt>
      <trkpt lat="47.79201" lon="-3.6249">
        <ele>39</ele>
        <time>2021-08-31T07:03:34Z</time>
      </trkpt>
      <trkpt lat="47.79273" lon="-3.6247">
        <ele>44</ele>
        <time>2021-08-31T07:03:35Z</time>
      </trkpt>
      <trkpt lat="47.79275" lon="-3.62511">
        <ele>44</ele>
        <time>2021-08-31T07:03:36Z</time>
      </trkpt>
      <trkpt lat="47.79276" lon="-3.62533">
        <ele>43</ele>
        <time>2021-08-31T07:03:37Z</time>
      </trkpt>
      <trkpt lat="47.79275" lon="-3.62584">
        <ele>43</ele>
        <time>2021-08-31T07:03:38Z</time>
      </trkpt>
      <trkpt lat="47.79282" lon="-3.62615">
        <ele>41</ele>
        <time>2021-08-31T07:03:39Z</time>
      </trkpt>
      <trkpt lat="47.79291" lon="-3.62671">
        <ele>41</ele>
        <time>2021-08-31T07:03:40Z</time>
      </trkpt>
      <trkpt lat="47.79293" lon="-3.62708">
        <ele>41</ele>
        <time>2021-08-31T07:03:41Z</time>
      </trkpt>
      <trkpt lat="47.79293" lon="-3.62724">
        <ele>41</ele>
        <time>2021-08-31T07:03:42Z</time>
      </trkpt>
      <trkpt lat="47.79298" lon="-3.62732">
        <ele>41</ele>
        <time>2021-08-31T07:03:43Z</time>
      </trkpt>
      <trkpt lat="47.79299" lon="-3.62761">
        <ele>41</ele>
        <time>2021-08-31T07:03:44Z</time>
      </trkpt>
      <trkpt lat="47.79297" lon="-3.62815">
        <ele>38</ele>
        <time>2021-08-31T07:03:45Z</time>
      </trkpt>
      <trkpt lat="47.79293" lon="-3.62842">
        <ele>38</ele>
        <time>2021-08-31T07:03:46Z</time>
      </trkpt>
      <trkpt lat="47.79289" lon="-3.62898">
        <ele>36</ele>
        <time>2021-08-31T07:03:47Z</time>
      </trkpt>
      <trkpt lat="47.79283" lon="-3.62938">
        <ele>33</ele>
        <time>2021-08-31T07:03:48Z</time>
      </trkpt>
      <trkpt lat="47.79284" lon="-3.62959">
        <ele>33</ele>
        <time>2021-08-31T07:03:49Z</time>
      </trkpt>
      <trkpt lat="47.79286" lon="-3.63022">
        <ele>30</ele>
        <time>2021-08-31T07:03:50Z</time>
      </trkpt>
      <trkpt lat="47.79287" lon="-3.63034">
        <ele>30</ele>
        <time>2021-08-31T07:03:51Z</time>
      </trkpt>
      <trkpt lat="47.79287" lon="-3.63036">
        <ele>30</ele>
        <time>2021-08-31T07:03:52Z</time>
      </trkpt>
      <trkpt lat="47.7929" lon="-3.63108">
        <ele>29</ele>
        <time>2021-08-31T07:03:53Z</time>
      </trkpt>
      <trkpt lat="47.79294" lon="-3.63143">
        <ele>29</ele>
        <time>2021-08-31T07:03:54Z</time>
      </trkpt>
      <trkpt lat="47.79301" lon="-3.63163">
        <ele>29</ele>
        <time>2021-08-31T07:03:55Z</time>
      </trkpt>
      <trkpt lat="47.79321" lon="-3.63171">
        <ele>29</ele>
        <time>2021-08-31T07:03:56Z</time>
      </trkpt>
      <trkpt lat="47.79335" lon="-3.63189">
        <ele>25</ele>
        <time>2021-08-31T07:03:57Z</time>
      </trkpt>
      <trkpt lat="47.79336" lon="-3.63197">
        <ele>25</ele>
        <time>2021-08-31T07:03:58Z</time>
      </trkpt>
      <trkpt lat="47.79335" lon="-3.63214">
        <ele>25</ele>
        <time>2021-08-31T07:03:59Z</time>
      </trkpt>
      <trkpt lat="47.79326" lon="-3.63265">
        <ele>25</ele>
        <time>2021-08-31T07:04:00Z</time>
      </trkpt>
      <trkpt lat="47.7936" lon="-3.63275">
        <ele>30</ele>
        <time>2021-08-31T07:04:01Z</time>
      </trkpt>
      <trkpt lat="47.79374" lon="-3.63278">
        <ele>30</ele>
        <time>2021-08-31T07:04:02Z</time>
      </trkpt>
      <trkpt lat="47.79377" lon="-3.63278">
        <ele>30</ele>
        <time>2021-08-31T07:04:03Z</time>
      </trkpt>
      <trkpt lat="47.79383" lon="-3.63236">
        <ele>32</ele>
        <time>2021-08-31T07:04:04Z</time>
      </trkpt>
      <trkpt lat="47.79384" lon="-3.63217">
        <ele>32</ele>
        <time>2021-08-31T07:04:05Z</time>
      </trkpt>
      <trkpt lat="47.79383" lon="-3.63149">
        <ele>36</ele>
        <time>2021-08-31T07:04:06Z</time>
      </trkpt>
      <trkpt lat="47.7938" lon="-3.63103">
        <ele>36</ele>
        <time>2021-08-31T07:04:07Z</time>
      </trkpt>
      <trkpt lat="47.79379" lon="-3.63082">
        <ele>40</ele>
        <time>2021-08-31T07:04:08Z</time>
      </trkpt>
      <trkpt lat="47.79388" lon="-3.63058">
        <ele>40</ele>
        <time>2021-08-31T07:04:09Z</time>
      </trkpt>
      <trkpt lat="47.79394" lon="-3.63049">
        <ele>40</ele>
        <time>2021-08-31T07:04:10Z</time>
      </trkpt>
      <trkpt lat="47.79412" lon="-3.62992">
        <ele>45</ele>
        <time>2021-08-31T07:04:11Z</time>
      </trkpt>
      <trkpt lat="47.79422" lon="-3.62963">
        <ele>44</ele>
        <time>2021-08-31T07:04:12Z</time>
      </trkpt>
      <trkpt lat="47.79434" lon="-3.62958">
        <ele>44</ele>
        <time>2021-08-31T07:04:13Z</time>
      </trkpt>
      <trkpt lat="47.79487" lon="-3.62965">
        <ele>44</ele>
        <time>2021-08-31T07:04:14Z</time>
      </trkpt>
      <trkpt lat="47.79499" lon="-3.62966">
        <ele>44</ele>
        <time>2021-08-31T07:04:15Z</time>
      </trkpt>
      <trkpt lat="47.7952" lon="-3.62974">
        <ele>41</ele>
        <time>2021-08-31T07:04:16Z</time>
      </trkpt>
      <trkpt lat="47.79566" lon="-3.62992">
        <ele>41</ele>
        <time>2021-08-31T07:04:17Z</time>
      </trkpt>
      <trkpt lat="47.79623" lon="-3.63">
        <ele>39</ele>
        <time>2021-08-31T07:04:18Z</time>
      </trkpt>
      <trkpt lat="47.79638" lon="-3.63005">
        <ele>39</ele>
        <time>2021-08-31T07:04:19Z</time>
      </trkpt>
      <trkpt lat="47.7966" lon="-3.63024">
        <ele>34</ele>
        <time>2021-08-31T07:04:20Z</time>
      </trkpt>
      <trkpt lat="47.79671" lon="-3.63027">
        <ele>34</ele>
        <time>2021-08-31T07:04:21Z</time>
      </trkpt>
      <trkpt lat="47.79698" lon="-3.63031">
        <ele>33</ele>
        <time>2021-08-31T07:04:22Z</time>
      </trkpt>
      <trkpt lat="47.79701" lon="-3.63031">
        <ele>33</ele>
        <time>2021-08-31T07:04:23Z</time>
      </trkpt>
      <trkpt lat="47.79714" lon="-3.63034">
        <ele>33</ele>
        <time>2021-08-31T07:04:24Z</time>
      </trkpt>
      <trkpt lat="47.79729" lon="-3.63031">
        <ele>33</ele>
        <time>2021-08-31T07:04:25Z</time>
      </trkpt>
      <trkpt lat="47.79733" lon="-3.63026">
        <ele>33</ele>
        <time>2021-08-31T07:04:26Z</time>
      </trkpt>
      <trkpt lat="47.79731" lon="-3.62999">
        <ele>35</ele>
        <time>2021-08-31T07:04:27Z</time>
      </trkpt>
      <trkpt lat="47.79728" lon="-3.62983">
        <ele>35</ele>
        <time>2021-08-31T07:04:28Z</time>
      </trkpt>
      <trkpt lat="47.79726" lon="-3.6297">
        <ele>35</ele>
        <time>2021-08-31T07:04:29Z</time>
      </trkpt>
      <trkpt lat="47.79726" lon="-3.62944">
        <ele>35</ele>
        <time>2021-08-31T07:04:30Z</time>
      </trkpt>
      <trkpt lat="47.79729" lon="-3.62923">
        <ele>37</ele>
        <time>2021-08-31T07:04:31Z</time>
      </trkpt>
      <trkpt lat="47.79758" lon="-3.62866">
        <ele>39</ele>
        <time>2021-08-31T07:04:32Z</time>
      </trkpt>
      <trkpt lat="47.79775" lon="-3.62825">
        <ele>41</ele>
        <time>2021-08-31T07:04:33Z</time>
      </trkpt>
      <trkpt lat="47.79785" lon="-3.62802">
        <ele>41</ele>
        <time>2021-08-31T07:04:34Z</time>
      </trkpt>
      <trkpt lat="47.79788" lon="-3.62781">
        <ele>41</ele>
        <time>2021-08-31T07:04:35Z</time>
      </trkpt>
      <trkpt lat="47.7979" lon="-3.6276">
        <ele>40</ele>
        <time>2021-08-31T07:04:36Z</time>
      </trkpt>
      <trkpt lat="47.79789" lon="-3.62749">
        <ele>40</ele>
        <time>2021-08-31T07:04:37Z</time>
      </trkpt>
      <trkpt lat="47.79785" lon="-3.6273">
        <ele>40</ele>
        <time>2021-08-31T07:04:38Z</time>
      </trkpt>
      <trkpt lat="47.79779" lon="-3.62711">
        <ele>40</ele>
        <time>2021-08-31T07:04:39Z</time>
      </trkpt>
      <trkpt lat="47.79781" lon="-3.62691">
        <ele>40</ele>
        <time>2021-08-31T07:04:40Z</time>
      </trkpt>
      <trkpt lat="47.79785" lon="-3.62662">
        <ele>41</ele>
        <time>2021-08-31T07:04:41Z</time>
      </trkpt>
      <trkpt lat="47.79791" lon="-3.62637">
        <ele>41</ele>
        <time>2021-08-31T07:04:42Z</time>
      </trkpt>
      <trkpt lat="47.79791" lon="-3.62637">
        <ele>41</ele>
        <time>2021-08-31T07:04:43Z</time>
      </trkpt>
      <trkpt lat="47.79798" lon="-3.62617">
        <ele>41</ele>
        <time>2021-08-31T07:04:44Z</time>
      </trkpt>
      <trkpt lat="47.79802" lon="-3.62606">
        <ele>41</ele>
        <time>2021-08-31T07:04:45Z</time>
      </trkpt>
      <trkpt lat="47.79811" lon="-3.62595">
        <ele>42</ele>
        <time>2021-08-31T07:04:46Z</time>
      </trkpt>
      <trkpt lat="47.79826" lon="-3.62573">
        <ele>42</ele>
        <time>2021-08-31T07:04:47Z</time>
      </trkpt>
      <trkpt lat="47.79843" lon="-3.62541">
        <ele>39</ele>
        <time>2021-08-31T07:04:48Z</time>
      </trkpt>
      <trkpt lat="47.7986" lon="-3.62528">
        <ele>39</ele>
        <time>2021-08-31T07:04:49Z</time>
      </trkpt>
      <trkpt lat="47.7988" lon="-3.62507">
        <ele>41</ele>
        <time>2021-08-31T07:04:50Z</time>
      </trkpt>
      <trkpt lat="47.79909" lon="-3.62496">
        <ele>41</ele>
        <time>2021-08-31T07:04:51Z</time>
      </trkpt>
      <trkpt lat="47.7991" lon="-3.62461">
        <ele>41</ele>
        <time>2021-08-31T07:04:52Z</time>
      </trkpt>
      <trkpt lat="47.79886" lon="-3.62463">
        <ele>41</ele>
        <time>2021-08-31T07:04:53Z</time>
      </trkpt>
      <trkpt lat="47.7985" lon="-3.62462">
        <ele>41</ele>
        <time>2021-08-31T07:04:54Z</time>
      </trkpt>
      <trkpt lat="47.79831" lon="-3.62459">
        <ele>44</ele>
        <time>2021-08-31T07:04:55Z</time>
      </trkpt>
      <trkpt lat="47.79849" lon="-3.62428">
        <ele>43</ele>
        <time>2021-08-31T07:04:56Z</time>
      </trkpt>
      <trkpt lat="47.79882" lon="-3.62376">
        <ele>43</ele>
        <time>2021-08-31T07:04:57Z</time>
      </trkpt>
      <trkpt lat="47.79893" lon="-3.62358">
        <ele>43</ele>
        <time>2021-08-31T07:04:58Z</time>
      </trkpt>
      <trkpt lat="47.79905" lon="-3.62339">
        <ele>44</ele>
        <time>2021-08-31T07:04:59Z</time>
      </trkpt>
      <trkpt lat="47.79938" lon="-3.62299">
        <ele>46</ele>
        <time>2021-08-31T07:05:00Z</time>
      </trkpt>
      <trkpt lat="47.79974" lon="-3.62257">
        <ele>48</ele>
        <time>2021-08-31T07:05:01Z</time>
      </trkpt>
      <trkpt lat="47.79988" lon="-3.62247">
        <ele>48</ele>
        <time>2021-08-31T07:05:02Z</time>
      </trkpt>
      <trkpt lat="47.79992" lon="-3.62245">
        <ele>48</ele>
        <time>2021-08-31T07:05:03Z</time>
      </trkpt>
      <trkpt lat="47.79997" lon="-3.62238">
        <ele>48</ele>
        <time>2021-08-31T07:05:04Z</time>
      </trkpt>
      <trkpt lat="47.80002" lon="-3.62226">
        <ele>48</ele>
        <time>2021-08-31T07:05:05Z</time>
      </trkpt>
      <trkpt lat="47.80007" lon="-3.62213">
        <ele>49</ele>
        <time>2021-08-31T07:05:06Z</time>
      </trkpt>
      <trkpt lat="47.8002" lon="-3.62192">
        <ele>49</ele>
        <time>2021-08-31T07:05:07Z</time>
      </trkpt>
      <trkpt lat="47.80029" lon="-3.6218">
        <ele>48</ele>
        <time>2021-08-31T07:05:08Z</time>
      </trkpt>
      <trkpt lat="47.80038" lon="-3.62163">
        <ele>48</ele>
        <time>2021-08-31T07:05:09Z</time>
      </trkpt>
      <trkpt lat="47.80043" lon="-3.62156">
        <ele>48</ele>
        <time>2021-08-31T07:05:10Z</time>
      </trkpt>
      <trkpt lat="47.80053" lon="-3.62128">
        <ele>48</ele>
        <time>2021-08-31T07:05:11Z</time>
      </trkpt>
      <trkpt lat="47.8006" lon="-3.62114">
        <ele>48</ele>
        <time>2021-08-31T07:05:12Z</time>
      </trkpt>
      <trkpt lat="47.80079" lon="-3.62074">
        <ele>50</ele>
        <time>2021-08-31T07:05:13Z</time>
      </trkpt>
      <trkpt lat="47.80086" lon="-3.62057">
        <ele>50</ele>
        <time>2021-08-31T07:05:14Z</time>
      </trkpt>
      <trkpt lat="47.80089" lon="-3.62048">
        <ele>50</ele>
        <time>2021-08-31T07:05:15Z</time>
      </trkpt>
      <trkpt lat="47.8009" lon="-3.62045">
        <ele>50</ele>
        <time>2021-08-31T07:05:16Z</time>
      </trkpt>
      <trkpt lat="47.80093" lon="-3.62045">
        <ele>50</ele>
        <time>2021-08-31T07:05:17Z</time>
      </trkpt>
      <trkpt lat="47.80094" lon="-3.62045">
        <ele>50</ele>
        <time>2021-08-31T07:05:18Z</time>
      </trkpt>
      <trkpt lat="47.80097" lon="-3.62047">
        <ele>50</ele>
        <time>2021-08-31T07:05:19Z</time>
      </trkpt>
      <trkpt lat="47.80099" lon="-3.62048">
        <ele>50</ele>
        <time>2021-08-31T07:05:20Z</time>
      </trkpt>
      <trkpt lat="47.80101" lon="-3.62049">
        <ele>50</ele>
        <time>2021-08-31T07:05:21Z</time>
      </trkpt>
      <trkpt lat="47.80103" lon="-3.62049">
        <ele>50</ele>
        <time>2021-08-31T07:05:22Z</time>
      </trkpt>
      <trkpt lat="47.80104" lon="-3.62048">
        <ele>50</ele>
        <time>2021-08-31T07:05:23Z</time>
      </trkpt>
      <trkpt lat="47.80107" lon="-3.62045">
        <ele>50</ele>
        <time>2021-08-31T07:05:24Z</time>
      </trkpt>
      <trkpt lat="47.80109" lon="-3.62041">
        <ele>50</ele>
        <time>2021-08-31T07:05:25Z</time>
      </trkpt>
      <trkpt lat="47.80115" lon="-3.62032">
        <ele>50</ele>
        <time>2021-08-31T07:05:26Z</time>
      </trkpt>
      <trkpt lat="47.80117" lon="-3.62027">
        <ele>50</ele>
        <time>2021-08-31T07:05:27Z</time>
      </trkpt>
      <trkpt lat="47.80119" lon="-3.6202">
        <ele>50</ele>
        <time>2021-08-31T07:05:28Z</time>
      </trkpt>
      <trkpt lat="47.80121" lon="-3.62011">
        <ele>52</ele>
        <time>2021-08-31T07:05:29Z</time>
      </trkpt>
      <trkpt lat="47.80121" lon="-3.62005">
        <ele>52</ele>
        <time>2021-08-31T07:05:30Z</time>
      </trkpt>
      <trkpt lat="47.80123" lon="-3.62">
        <ele>52</ele>
        <time>2021-08-31T07:05:31Z</time>
      </trkpt>
      <trkpt lat="47.80126" lon="-3.61995">
        <ele>52</ele>
        <time>2021-08-31T07:05:32Z</time>
      </trkpt>
      <trkpt lat="47.8013" lon="-3.61987">
        <ele>52</ele>
        <time>2021-08-31T07:05:33Z</time>
      </trkpt>
      <trkpt lat="47.80137" lon="-3.61968">
        <ele>52</ele>
        <time>2021-08-31T07:05:34Z</time>
      </trkpt>
      <trkpt lat="47.80146" lon="-3.61957">
        <ele>52</ele>
        <time>2021-08-31T07:05:35Z</time>
      </trkpt>
      <trkpt lat="47.80151" lon="-3.61949">
        <ele>52</ele>
        <time>2021-08-31T07:05:36Z</time>
      </trkpt>
      <trkpt lat="47.80153" lon="-3.61946">
        <ele>52</ele>
        <time>2021-08-31T07:05:37Z</time>
      </trkpt>
      <trkpt lat="47.80156" lon="-3.61946">
        <ele>52</ele>
        <time>2021-08-31T07:05:38Z</time>
      </trkpt>
      <trkpt lat="47.80158" lon="-3.61944">
        <ele>52</ele>
        <time>2021-08-31T07:05:39Z</time>
      </trkpt>
      <trkpt lat="47.8016" lon="-3.61944">
        <ele>52</ele>
        <time>2021-08-31T07:05:40Z</time>
      </trkpt>
      <trkpt lat="47.80163" lon="-3.61945">
        <ele>52</ele>
        <time>2021-08-31T07:05:41Z</time>
      </trkpt>
      <trkpt lat="47.80169" lon="-3.61947">
        <ele>52</ele>
        <time>2021-08-31T07:05:42Z</time>
      </trkpt>
      <trkpt lat="47.80171" lon="-3.61947">
        <ele>52</ele>
        <time>2021-08-31T07:05:43Z</time>
      </trkpt>
      <trkpt lat="47.80173" lon="-3.61944">
        <ele>55</ele>
        <time>2021-08-31T07:05:44Z</time>
      </trkpt>
      <trkpt lat="47.80177" lon="-3.61935">
        <ele>56</ele>
        <time>2021-08-31T07:05:45Z</time>
      </trkpt>
      <trkpt lat="47.80182" lon="-3.61926">
        <ele>56</ele>
        <time>2021-08-31T07:05:46Z</time>
      </trkpt>
      <trkpt lat="47.80182" lon="-3.61923">
        <ele>56</ele>
        <time>2021-08-31T07:05:47Z</time>
      </trkpt>
      <trkpt lat="47.80187" lon="-3.61885">
        <ele>56</ele>
        <time>2021-08-31T07:05:48Z</time>
      </trkpt>
      <trkpt lat="47.80189" lon="-3.61885">
        <ele>56</ele>
        <time>2021-08-31T07:05:49Z</time>
      </trkpt>
      <trkpt lat="47.80187" lon="-3.61885">
        <ele>56</ele>
        <time>2021-08-31T07:05:50Z</time>
      </trkpt>
      <trkpt lat="47.80175" lon="-3.61879">
        <ele>56</ele>
        <time>2021-08-31T07:05:51Z</time>
      </trkpt>
      <trkpt lat="47.80153" lon="-3.61865">
        <ele>55</ele>
        <time>2021-08-31T07:05:52Z</time>
      </trkpt>
      <trkpt lat="47.80125" lon="-3.61845">
        <ele>57</ele>
        <time>2021-08-31T07:05:53Z</time>
      </trkpt>
      <trkpt lat="47.80107" lon="-3.6181">
        <ele>57</ele>
        <time>2021-08-31T07:05:54Z</time>
      </trkpt>
      <trkpt lat="47.80094" lon="-3.61794">
        <ele>57</ele>
        <time>2021-08-31T07:05:55Z</time>
      </trkpt>
      <trkpt lat="47.80078" lon="-3.61782">
        <ele>56</ele>
        <time>2021-08-31T07:05:56Z</time>
      </trkpt>
      <trkpt lat="47.80066" lon="-3.61775">
        <ele>56</ele>
        <time>2021-08-31T07:05:57Z</time>
      </trkpt>
      <trkpt lat="47.80047" lon="-3.61769">
        <ele>56</ele>
        <time>2021-08-31T07:05:58Z</time>
      </trkpt>
      <trkpt lat="47.79817" lon="-3.61691">
        <ele>45</ele>
        <time>2021-08-31T07:05:59Z</time>
      </trkpt>
      <trkpt lat="47.79814" lon="-3.61621">
        <ele>45</ele>
        <time>2021-08-31T07:06:00Z</time>
      </trkpt>
      <trkpt lat="47.79811" lon="-3.61592">
        <ele>45</ele>
        <time>2021-08-31T07:06:01Z</time>
      </trkpt>
      <trkpt lat="47.79804" lon="-3.61574">
        <ele>45</ele>
        <time>2021-08-31T07:06:02Z</time>
      </trkpt>
      <trkpt lat="47.79801" lon="-3.61562">
        <ele>45</ele>
        <time>2021-08-31T07:06:03Z</time>
      </trkpt>
      <trkpt lat="47.79784" lon="-3.61486">
        <ele>48</ele>
        <time>2021-08-31T07:06:04Z</time>
      </trkpt>
      <trkpt lat="47.79781" lon="-3.61471">
        <ele>48</ele>
        <time>2021-08-31T07:06:05Z</time>
      </trkpt>
      <trkpt lat="47.79787" lon="-3.61407">
        <ele>52</ele>
        <time>2021-08-31T07:06:06Z</time>
      </trkpt>
      <trkpt lat="47.79852" lon="-3.61303">
        <ele>53</ele>
        <time>2021-08-31T07:06:07Z</time>
      </trkpt>
      <trkpt lat="47.79858" lon="-3.61288">
        <ele>53</ele>
        <time>2021-08-31T07:06:08Z</time>
      </trkpt>
      <trkpt lat="47.79858" lon="-3.61239">
        <ele>55</ele>
        <time>2021-08-31T07:06:09Z</time>
      </trkpt>
      <trkpt lat="47.79853" lon="-3.61168">
        <ele>56</ele>
        <time>2021-08-31T07:06:10Z</time>
      </trkpt>
      <trkpt lat="47.79845" lon="-3.61031">
        <ele>59</ele>
        <time>2021-08-31T07:06:11Z</time>
      </trkpt>
      <trkpt lat="47.79854" lon="-3.61025">
        <ele>59</ele>
        <time>2021-08-31T07:06:12Z</time>
      </trkpt>
      <trkpt lat="47.79893" lon="-3.60999">
        <ele>60</ele>
        <time>2021-08-31T07:06:13Z</time>
      </trkpt>
      <trkpt lat="47.7996" lon="-3.60959">
        <ele>62</ele>
        <time>2021-08-31T07:06:14Z</time>
      </trkpt>
      <trkpt lat="47.79977" lon="-3.60948">
        <ele>62</ele>
        <time>2021-08-31T07:06:15Z</time>
      </trkpt>
      <trkpt lat="47.79997" lon="-3.60934">
        <ele>58</ele>
        <time>2021-08-31T07:06:16Z</time>
      </trkpt>
      <trkpt lat="47.80005" lon="-3.60926">
        <ele>58</ele>
        <time>2021-08-31T07:06:17Z</time>
      </trkpt>
      <trkpt lat="47.80059" lon="-3.60877">
        <ele>62</ele>
        <time>2021-08-31T07:06:18Z</time>
      </trkpt>
      <trkpt lat="47.80065" lon="-3.60871">
        <ele>62</ele>
        <time>2021-08-31T07:06:19Z</time>
      </trkpt>
      <trkpt lat="47.80103" lon="-3.60837">
        <ele>60</ele>
        <time>2021-08-31T07:06:20Z</time>
      </trkpt>
      <trkpt lat="47.80172" lon="-3.60796">
        <ele>59</ele>
        <time>2021-08-31T07:06:21Z</time>
      </trkpt>
      <trkpt lat="47.80174" lon="-3.60892">
        <ele>57</ele>
        <time>2021-08-31T07:06:22Z</time>
      </trkpt>
      <trkpt lat="47.80178" lon="-3.60974">
        <ele>60</ele>
        <time>2021-08-31T07:06:23Z</time>
      </trkpt>
      <trkpt lat="47.80179" lon="-3.6099">
        <ele>60</ele>
        <time>2021-08-31T07:06:24Z</time>
      </trkpt>
      <trkpt lat="47.80175" lon="-3.61212">
        <ele>60</ele>
        <time>2021-08-31T07:06:25Z</time>
      </trkpt>
      <trkpt lat="47.80174" lon="-3.61269">
        <ele>59</ele>
        <time>2021-08-31T07:06:26Z</time>
      </trkpt>
      <trkpt lat="47.80172" lon="-3.61353">
        <ele>59</ele>
        <time>2021-08-31T07:06:27Z</time>
      </trkpt>
      <trkpt lat="47.80172" lon="-3.61379">
        <ele>59</ele>
        <time>2021-08-31T07:06:28Z</time>
      </trkpt>
      <trkpt lat="47.80353" lon="-3.61399">
        <ele>57</ele>
        <time>2021-08-31T07:06:29Z</time>
      </trkpt>
      <trkpt lat="47.80359" lon="-3.61398">
        <ele>57</ele>
        <time>2021-08-31T07:06:30Z</time>
      </trkpt>
      <trkpt lat="47.80407" lon="-3.61395">
        <ele>57</ele>
        <time>2021-08-31T07:06:31Z</time>
      </trkpt>
      <trkpt lat="47.80535" lon="-3.6132">
        <ele>54</ele>
        <time>2021-08-31T07:06:32Z</time>
      </trkpt>
      <trkpt lat="47.80629" lon="-3.61271">
        <ele>51</ele>
        <time>2021-08-31T07:06:33Z</time>
      </trkpt>
      <trkpt lat="47.8069" lon="-3.6125">
        <ele>48</ele>
        <time>2021-08-31T07:06:34Z</time>
      </trkpt>
      <trkpt lat="47.80704" lon="-3.61245">
        <ele>48</ele>
        <time>2021-08-31T07:06:35Z</time>
      </trkpt>
      <trkpt lat="47.80819" lon="-3.61245">
        <ele>49</ele>
        <time>2021-08-31T07:06:36Z</time>
      </trkpt>
      <trkpt lat="47.8088" lon="-3.61244">
        <ele>48</ele>
        <time>2021-08-31T07:06:37Z</time>
      </trkpt>
      <trkpt lat="47.80934" lon="-3.61242">
        <ele>48</ele>
        <time>2021-08-31T07:06:38Z</time>
      </trkpt>
      <trkpt lat="47.80973" lon="-3.61242">
        <ele>48</ele>
        <time>2021-08-31T07:06:39Z</time>
      </trkpt>
      <trkpt lat="47.80998" lon="-3.61243">
        <ele>48</ele>
        <time>2021-08-31T07:06:40Z</time>
      </trkpt>
      <trkpt lat="47.81009" lon="-3.61244">
        <ele>50</ele>
        <time>2021-08-31T07:06:41Z</time>
      </trkpt>
      <trkpt lat="47.81015" lon="-3.61246">
        <ele>50</ele>
        <time>2021-08-31T07:06:42Z</time>
      </trkpt>
      <trkpt lat="47.8102" lon="-3.61248">
        <ele>50</ele>
        <time>2021-08-31T07:06:43Z</time>
      </trkpt>
      <trkpt lat="47.81024" lon="-3.6125">
        <ele>50</ele>
        <time>2021-08-31T07:06:44Z</time>
      </trkpt>
      <trkpt lat="47.81055" lon="-3.61268">
        <ele>50</ele>
        <time>2021-08-31T07:06:45Z</time>
      </trkpt>
      <trkpt lat="47.81071" lon="-3.6128">
        <ele>51</ele>
        <time>2021-08-31T07:06:46Z</time>
      </trkpt>
      <trkpt lat="47.81152" lon="-3.61332">
        <ele>53</ele>
        <time>2021-08-31T07:06:47Z</time>
      </trkpt>
      <trkpt lat="47.81241" lon="-3.61393">
        <ele>53</ele>
        <time>2021-08-31T07:06:48Z</time>
      </trkpt>
      <trkpt lat="47.81245" lon="-3.61396">
        <ele>53</ele>
        <time>2021-08-31T07:06:49Z</time>
      </trkpt>
      <trkpt lat="47.81265" lon="-3.61405">
        <ele>53</ele>
        <time>2021-08-31T07:06:50Z</time>
      </trkpt>
      <trkpt lat="47.81275" lon="-3.61409">
        <ele>53</ele>
        <time>2021-08-31T07:06:51Z</time>
      </trkpt>
      <trkpt lat="47.81284" lon="-3.6141">
        <ele>53</ele>
        <time>2021-08-31T07:06:52Z</time>
      </trkpt>
      <trkpt lat="47.81286" lon="-3.6141">
        <ele>53</ele>
        <time>2021-08-31T07:06:53Z</time>
      </trkpt>
      <trkpt lat="47.81373" lon="-3.6141">
        <ele>55</ele>
        <time>2021-08-31T07:06:54Z</time>
      </trkpt>
      <trkpt lat="47.81391" lon="-3.6141">
        <ele>55</ele>
        <time>2021-08-31T07:06:55Z</time>
      </trkpt>
      <trkpt lat="47.81394" lon="-3.61438">
        <ele>52</ele>
        <time>2021-08-31T07:06:56Z</time>
      </trkpt>
      <trkpt lat="47.81398" lon="-3.61495">
        <ele>52</ele>
        <time>2021-08-31T07:06:57Z</time>
      </trkpt>
      <trkpt lat="47.81399" lon="-3.61527">
        <ele>50</ele>
        <time>2021-08-31T07:06:58Z</time>
      </trkpt>
      <trkpt lat="47.814" lon="-3.61558">
        <ele>50</ele>
        <time>2021-08-31T07:06:59Z</time>
      </trkpt>
      <trkpt lat="47.81396" lon="-3.61627">
        <ele>51</ele>
        <time>2021-08-31T07:07:00Z</time>
      </trkpt>
      <trkpt lat="47.8139" lon="-3.61705">
        <ele>50</ele>
        <time>2021-08-31T07:07:01Z</time>
      </trkpt>
      <trkpt lat="47.81392" lon="-3.61738">
        <ele>50</ele>
        <time>2021-08-31T07:07:02Z</time>
      </trkpt>
      <trkpt lat="47.81393" lon="-3.61763">
        <ele>50</ele>
        <time>2021-08-31T07:07:03Z</time>
      </trkpt>
      <trkpt lat="47.81398" lon="-3.61799">
        <ele>49</ele>
        <time>2021-08-31T07:07:04Z</time>
      </trkpt>
      <trkpt lat="47.81407" lon="-3.61851">
        <ele>49</ele>
        <time>2021-08-31T07:07:05Z</time>
      </trkpt>
      <trkpt lat="47.81411" lon="-3.61877">
        <ele>52</ele>
        <time>2021-08-31T07:07:06Z</time>
      </trkpt>
      <trkpt lat="47.81413" lon="-3.61894">
        <ele>52</ele>
        <time>2021-08-31T07:07:07Z</time>
      </trkpt>
      <trkpt lat="47.81416" lon="-3.6191">
        <ele>52</ele>
        <time>2021-08-31T07:07:08Z</time>
      </trkpt>
      <trkpt lat="47.81418" lon="-3.61929">
        <ele>52</ele>
        <time>2021-08-31T07:07:09Z</time>
      </trkpt>
      <trkpt lat="47.81418" lon="-3.61949">
        <ele>55</ele>
        <time>2021-08-31T07:07:10Z</time>
      </trkpt>
      <trkpt lat="47.81417" lon="-3.61979">
        <ele>55</ele>
        <time>2021-08-31T07:07:11Z</time>
      </trkpt>
      <trkpt lat="47.81414" lon="-3.62009">
        <ele>55</ele>
        <time>2021-08-31T07:07:12Z</time>
      </trkpt>
      <trkpt lat="47.81408" lon="-3.62071">
        <ele>54</ele>
        <time>2021-08-31T07:07:13Z</time>
      </trkpt>
      <trkpt lat="47.81407" lon="-3.6211">
        <ele>54</ele>
        <time>2021-08-31T07:07:14Z</time>
      </trkpt>
      <trkpt lat="47.81407" lon="-3.62112">
        <ele>54</ele>
        <time>2021-08-31T07:07:15Z</time>
      </trkpt>
      <trkpt lat="47.81407" lon="-3.62155">
        <ele>54</ele>
        <time>2021-08-31T07:07:16Z</time>
      </trkpt>
      <trkpt lat="47.81408" lon="-3.62158">
        <ele>54</ele>
        <time>2021-08-31T07:07:17Z</time>
      </trkpt>
      <trkpt lat="47.81409" lon="-3.62173">
        <ele>54</ele>
        <time>2021-08-31T07:07:18Z</time>
      </trkpt>
      <trkpt lat="47.81412" lon="-3.62192">
        <ele>54</ele>
        <time>2021-08-31T07:07:19Z</time>
      </trkpt>
      <trkpt lat="47.81419" lon="-3.6222">
        <ele>54</ele>
        <time>2021-08-31T07:07:20Z</time>
      </trkpt>
      <trkpt lat="47.81429" lon="-3.62253">
        <ele>54</ele>
        <time>2021-08-31T07:07:21Z</time>
      </trkpt>
      <trkpt lat="47.81448" lon="-3.62311">
        <ele>54</ele>
        <time>2021-08-31T07:07:22Z</time>
      </trkpt>
      <trkpt lat="47.81422" lon="-3.62316">
        <ele>53</ele>
        <time>2021-08-31T07:07:23Z</time>
      </trkpt>
      <trkpt lat="47.8142" lon="-3.62316">
        <ele>53</ele>
        <time>2021-08-31T07:07:24Z</time>
      </trkpt>
      <trkpt lat="47.81406" lon="-3.6232">
        <ele>53</ele>
        <time>2021-08-31T07:07:25Z</time>
      </trkpt>
      <trkpt lat="47.81379" lon="-3.62352">
        <ele>53</ele>
        <time>2021-08-31T07:07:26Z</time>
      </trkpt>
      <trkpt lat="47.8134" lon="-3.62412">
        <ele>53</ele>
        <time>2021-08-31T07:07:27Z</time>
      </trkpt>
      <trkpt lat="47.81304" lon="-3.62496">
        <ele>50</ele>
        <time>2021-08-31T07:07:28Z</time>
      </trkpt>
      <trkpt lat="47.81285" lon="-3.62537">
        <ele>51</ele>
        <time>2021-08-31T07:07:29Z</time>
      </trkpt>
      <trkpt lat="47.81255" lon="-3.62602">
        <ele>49</ele>
        <time>2021-08-31T07:07:30Z</time>
      </trkpt>
      <trkpt lat="47.81239" lon="-3.62623">
        <ele>49</ele>
        <time>2021-08-31T07:07:31Z</time>
      </trkpt>
      <trkpt lat="47.8124" lon="-3.62623">
        <ele>49</ele>
        <time>2021-08-31T07:07:32Z</time>
      </trkpt>
      <trkpt lat="47.81249" lon="-3.62641">
        <ele>49</ele>
        <time>2021-08-31T07:07:33Z</time>
      </trkpt>
      <trkpt lat="47.81277" lon="-3.62664">
        <ele>50</ele>
        <time>2021-08-31T07:07:34Z</time>
      </trkpt>
      <trkpt lat="47.8127" lon="-3.6272">
        <ele>50</ele>
        <time>2021-08-31T07:07:35Z</time>
      </trkpt>
      <trkpt lat="47.81284" lon="-3.6273">
        <ele>50</ele>
        <time>2021-08-31T07:07:36Z</time>
      </trkpt>
      <trkpt lat="47.81294" lon="-3.62736">
        <ele>50</ele>
        <time>2021-08-31T07:07:37Z</time>
      </trkpt>
      <trkpt lat="47.8131" lon="-3.62746">
        <ele>50</ele>
        <time>2021-08-31T07:07:38Z</time>
      </trkpt>
      <trkpt lat="47.81314" lon="-3.62747">
        <ele>50</ele>
        <time>2021-08-31T07:07:39Z</time>
      </trkpt>
      <trkpt lat="47.81315" lon="-3.62749">
        <ele>50</ele>
        <time>2021-08-31T07:07:40Z</time>
      </trkpt>
      <trkpt lat="47.81318" lon="-3.62752">
        <ele>50</ele>
        <time>2021-08-31T07:07:41Z</time>
      </trkpt>
      <trkpt lat="47.81326" lon="-3.6276">
        <ele>50</ele>
        <time>2021-08-31T07:07:42Z</time>
      </trkpt>
      <trkpt lat="47.8134" lon="-3.62776">
        <ele>53</ele>
        <time>2021-08-31T07:07:43Z</time>
      </trkpt>
      <trkpt lat="47.81349" lon="-3.6279">
        <ele>53</ele>
        <time>2021-08-31T07:07:44Z</time>
      </trkpt>
      <trkpt lat="47.81361" lon="-3.62804">
        <ele>53</ele>
        <time>2021-08-31T07:07:45Z</time>
      </trkpt>
      <trkpt lat="47.81375" lon="-3.62822">
        <ele>53</ele>
        <time>2021-08-31T07:07:46Z</time>
      </trkpt>
      <trkpt lat="47.81383" lon="-3.62831">
        <ele>53</ele>
        <time>2021-08-31T07:07:47Z</time>
      </trkpt>
      <trkpt lat="47.81387" lon="-3.62837">
        <ele>53</ele>
        <time>2021-08-31T07:07:48Z</time>
      </trkpt>
      <trkpt lat="47.81399" lon="-3.62851">
        <ele>53</ele>
        <time>2021-08-31T07:07:49Z</time>
      </trkpt>
      <trkpt lat="47.81403" lon="-3.62834">
        <ele>53</ele>
        <time>2021-08-31T07:07:50Z</time>
      </trkpt>
      <trkpt lat="47.81405" lon="-3.62836">
        <ele>53</ele>
        <time>2021-08-31T07:07:51Z</time>
      </trkpt>
      <trkpt lat="47.81406" lon="-3.62833">
        <ele>53</ele>
        <time>2021-08-31T07:07:52Z</time>
      </trkpt>
      <trkpt lat="47.81405" lon="-3.62836">
        <ele>53</ele>
        <time>2021-08-31T07:07:53Z</time>
      </trkpt>
      <trkpt lat="47.81439" lon="-3.62866">
        <ele>56</ele>
        <time>2021-08-31T07:07:54Z</time>
      </trkpt>
    </trkseg>
  </trk>
</gpx>